<?xml version='1.0' encoding='UTF-8'?><gpx version="1.1" creator="JPX - https://github.com/jenetics/jpx" xmlns="http://www.topografix.com/GPX/1/1"><trk><trkseg><trkpt lat="45.64430958519459" lon="11.307670952706145"><ele>248.0</ele><time>2026-04-18T07:45:24Z</time></trkpt><trkpt lat="45.64436715292699" lon="11.30762427234684"><ele>248.00000000000003</ele><time>2026-04-18T07:45:30Z</time></trkpt><trkpt lat="45.64443647025038" lon="11.307603255146386"><ele>248.0</ele><time>2026-04-18T07:45:35Z</time></trkpt><trkpt lat="45.644502387412196" lon="11.30755448590677"><ele>248.0</ele><time>2026-04-18T07:45:42Z</time></trkpt><trkpt lat="45.64456694337168" lon="11.307542915645282"><ele>248.00000000000003</ele><time>2026-04-18T07:45:48Z</time></trkpt><trkpt lat="45.644630148430245" lon="11.307512551289129"><ele>248.0</ele><time>2026-04-18T07:45:52Z</time></trkpt><trkpt lat="45.6446957383452" lon="11.307491543662817"><ele>248.0</ele><time>2026-04-18T07:45:58Z</time></trkpt><trkpt lat="45.64476558640878" lon="11.307451686263498"><ele>248.2857142857143</ele><time>2026-04-18T07:46:04.999Z</time></trkpt><trkpt lat="45.64479267796088" lon="11.307347981200142"><ele>248.5714285714286</ele><time>2026-04-18T07:46:09.999Z</time></trkpt><trkpt lat="45.6447992566285" lon="11.307242667514457"><ele>248.85714285714286</ele><time>2026-04-18T07:46:44.998Z</time></trkpt><trkpt lat="45.644788261943596" lon="11.307149745244299"><ele>249.14285714285717</ele><time>2026-04-18T07:46:54.998Z</time></trkpt><trkpt lat="45.64476498822643" lon="11.307064440739962"><ele>249.42857142857144</ele><time>2026-04-18T07:47:02.998Z</time></trkpt><trkpt lat="45.644729210248094" lon="11.306962217251373"><ele>249.71428571428572</ele><time>2026-04-18T07:47:10.998Z</time></trkpt><trkpt lat="45.644713625105794" lon="11.306871557260619"><ele>250.0</ele><time>2026-04-18T07:47:16.998Z</time></trkpt><trkpt lat="45.644653820709436" lon="11.306826933290854"><ele>250.0</ele><time>2026-04-18T07:47:24.997Z</time></trkpt><trkpt lat="45.64457983593604" lon="11.306839411648745"><ele>250.0</ele><time>2026-04-18T07:47:32.997Z</time></trkpt><trkpt lat="45.64450949783057" lon="11.306833734309906"><ele>250.0</ele><time>2026-04-18T07:47:38.997Z</time></trkpt><trkpt lat="45.64444751602524" lon="11.306813612218546"><ele>250.0</ele><time>2026-04-18T07:47:41.997Z</time></trkpt><trkpt lat="45.64437351326855" lon="11.30684085830847"><ele>250.0</ele><time>2026-04-18T07:47:48.997Z</time></trkpt><trkpt lat="45.6443067178499" lon="11.306845930297719"><ele>250.0</ele><time>2026-04-18T07:47:56.997Z</time></trkpt><trkpt lat="45.64423415425753" lon="11.30680675412603"><ele>250.0</ele><time>2026-04-18T07:48:01.996Z</time></trkpt><trkpt lat="45.644178998461726" lon="11.306735249193046"><ele>249.57142857142856</ele><time>2026-04-18T07:48:05.996Z</time></trkpt><trkpt lat="45.64412196720462" lon="11.306662191041593"><ele>249.14285714285717</ele><time>2026-04-18T07:48:11.996Z</time></trkpt><trkpt lat="45.64405022265106" lon="11.306664767196894"><ele>248.71428571428572</ele><time>2026-04-18T07:48:17.996Z</time></trkpt><trkpt lat="45.64398624354164" lon="11.306690798479112"><ele>248.28571428571428</ele><time>2026-04-18T07:48:21.996Z</time></trkpt><trkpt lat="45.64392323238716" lon="11.306707019809524"><ele>247.85714285714283</ele><time>2026-04-18T07:48:27.996Z</time></trkpt><trkpt lat="45.6438989539222" lon="11.306803362359608"><ele>247.42857142857144</ele><time>2026-04-18T07:48:33.996Z</time></trkpt><trkpt lat="45.643837439697954" lon="11.306840535877303"><ele>247.0</ele><time>2026-04-18T07:48:39.996Z</time></trkpt><trkpt lat="45.64376967240167" lon="11.306879747801645"><ele>247.0</ele><time>2026-04-18T07:48:45.995Z</time></trkpt><trkpt lat="45.643758309707835" lon="11.306974675324879"><ele>247.0</ele><time>2026-04-18T07:48:52.995Z</time></trkpt><trkpt lat="45.64377376734029" lon="11.307079769963808"><ele>247.0</ele><time>2026-04-18T07:49:13.995Z</time></trkpt><trkpt lat="45.64370767990393" lon="11.307078615022581"><ele>247.0</ele><time>2026-04-18T07:49:59.994Z</time></trkpt><trkpt lat="45.643648599348914" lon="11.307046958259432"><ele>247.0</ele><time>2026-04-18T07:50:05.993Z</time></trkpt><trkpt lat="45.64358695886484" lon="11.30701507191667"><ele>247.0</ele><time>2026-04-18T07:50:14.993Z</time></trkpt><trkpt lat="45.643521820925606" lon="11.30698461771549"><ele>247.0</ele><time>2026-04-18T07:50:35.993Z</time></trkpt><trkpt lat="45.64344262265125" lon="11.306915310657365"><ele>247.0</ele><time>2026-04-18T07:51:33.991Z</time></trkpt><trkpt lat="45.643514224764736" lon="11.306915553820177"><ele>247.0</ele><time>2026-04-18T07:58:43.981Z</time></trkpt><trkpt lat="45.64360013192331" lon="11.306869805741545"><ele>247.0</ele><time>2026-04-18T07:58:46.981Z</time></trkpt><trkpt lat="45.643687704169324" lon="11.306819207650264"><ele>247.0</ele><time>2026-04-18T07:58:48.981Z</time></trkpt><trkpt lat="45.64378110057748" lon="11.306765024512169"><ele>247.0</ele><time>2026-04-18T07:58:50.981Z</time></trkpt><trkpt lat="45.643867073933" lon="11.306721249850408"><ele>247.0</ele><time>2026-04-18T07:58:52.981Z</time></trkpt><trkpt lat="45.6439255274776" lon="11.306672184415937"><ele>247.0</ele><time>2026-04-18T07:58:54.98Z</time></trkpt><trkpt lat="45.64398965781998" lon="11.30664739928391"><ele>247.0</ele><time>2026-04-18T07:58:57.98Z</time></trkpt><trkpt lat="45.64406386153081" lon="11.306615058683128"><ele>247.0</ele><time>2026-04-18T07:59:00.98Z</time></trkpt><trkpt lat="45.64413630284448" lon="11.30656231756817"><ele>247.0</ele><time>2026-04-18T07:59:03.98Z</time></trkpt><trkpt lat="45.644190841353094" lon="11.306498871441457"><ele>247.0</ele><time>2026-04-18T07:59:05.98Z</time></trkpt><trkpt lat="45.64425291176514" lon="11.30646908743728"><ele>247.0</ele><time>2026-04-18T07:59:07.98Z</time></trkpt><trkpt lat="45.64432184255475" lon="11.306443858881037"><ele>247.0</ele><time>2026-04-18T07:59:09.98Z</time></trkpt><trkpt lat="45.64438732660826" lon="11.306444679515709"><ele>247.0</ele><time>2026-04-18T07:59:11.98Z</time></trkpt><trkpt lat="45.64446136574083" lon="11.306455427916614"><ele>247.0</ele><time>2026-04-18T07:59:14.98Z</time></trkpt><trkpt lat="45.64449459010909" lon="11.306568829619456"><ele>247.0</ele><time>2026-04-18T07:59:17.98Z</time></trkpt><trkpt lat="45.644531215830895" lon="11.306651389274338"><ele>247.0</ele><time>2026-04-18T07:59:19.98Z</time></trkpt><trkpt lat="45.6445950533842" lon="11.306694348226145"><ele>247.0</ele><time>2026-04-18T07:59:21.98Z</time></trkpt><trkpt lat="45.64466086138882" lon="11.306731646466876"><ele>247.0</ele><time>2026-04-18T07:59:23.98Z</time></trkpt><trkpt lat="45.64471757453316" lon="11.306823879502256"><ele>247.49999999999997</ele><time>2026-04-18T07:59:26.98Z</time></trkpt><trkpt lat="45.64474162791588" lon="11.3069162590012"><ele>248.0</ele><time>2026-04-18T07:59:28.98Z</time></trkpt><trkpt lat="45.64477056101798" lon="11.307040365707735"><ele>248.5</ele><time>2026-04-18T07:59:31.98Z</time></trkpt><trkpt lat="45.644801127821914" lon="11.307167580548631"><ele>249.0</ele><time>2026-04-18T07:59:34.979Z</time></trkpt><trkpt lat="45.644844899766845" lon="11.307270825531905"><ele>249.49999999999997</ele><time>2026-04-18T07:59:37.979Z</time></trkpt><trkpt lat="45.644941045914784" lon="11.30730432461138"><ele>250.0</ele><time>2026-04-18T07:59:40.979Z</time></trkpt><trkpt lat="45.645007342824485" lon="11.30733080893835"><ele>250.14285714285714</ele><time>2026-04-18T07:59:42.979Z</time></trkpt><trkpt lat="45.64507362805219" lon="11.307338012340871"><ele>250.28571428571428</ele><time>2026-04-18T07:59:44.979Z</time></trkpt><trkpt lat="45.645138966375434" lon="11.307341638877093"><ele>250.42857142857142</ele><time>2026-04-18T07:59:46.979Z</time></trkpt><trkpt lat="45.645204519564444" lon="11.307354757086383"><ele>250.57142857142856</ele><time>2026-04-18T07:59:48.979Z</time></trkpt><trkpt lat="45.64526749033593" lon="11.307375544491949"><ele>250.71428571428572</ele><time>2026-04-18T07:59:50.979Z</time></trkpt><trkpt lat="45.64535077716196" lon="11.307398112163508"><ele>250.85714285714283</ele><time>2026-04-18T07:59:53.979Z</time></trkpt><trkpt lat="45.645427145732576" lon="11.307372142011976"><ele>250.99999999999997</ele><time>2026-04-18T07:59:55.979Z</time></trkpt><trkpt lat="45.64551757778021" lon="11.307369254240347"><ele>251.1428571428571</ele><time>2026-04-18T07:59:58.979Z</time></trkpt><trkpt lat="45.64560423443842" lon="11.307385697882875"><ele>251.28571428571428</ele><time>2026-04-18T08:00:01.979Z</time></trkpt><trkpt lat="45.64567094499703" lon="11.307378602109518"><ele>251.42857142857142</ele><time>2026-04-18T08:00:03.979Z</time></trkpt><trkpt lat="45.64574307196395" lon="11.307395798991433"><ele>251.57142857142856</ele><time>2026-04-18T08:00:05.979Z</time></trkpt><trkpt lat="45.64580564943862" lon="11.307376177476426"><ele>251.71428571428572</ele><time>2026-04-18T08:00:07.979Z</time></trkpt><trkpt lat="45.64587427603408" lon="11.30735767320599"><ele>251.85714285714286</ele><time>2026-04-18T08:00:09.979Z</time></trkpt><trkpt lat="45.645953553118964" lon="11.307331408445107"><ele>252.0</ele><time>2026-04-18T08:00:11.979Z</time></trkpt><trkpt lat="45.64603844835626" lon="11.307330151968923"><ele>252.0</ele><time>2026-04-18T08:00:14.978Z</time></trkpt><trkpt lat="45.64611781945065" lon="11.307339328654377"><ele>252.0</ele><time>2026-04-18T08:00:17.978Z</time></trkpt><trkpt lat="45.64625434940716" lon="11.307343477600584"><ele>252.0</ele><time>2026-04-18T08:00:22.978Z</time></trkpt><trkpt lat="45.64632275043948" lon="11.307315051919637"><ele>252.0</ele><time>2026-04-18T08:00:24.978Z</time></trkpt><trkpt lat="45.64639072691242" lon="11.30729722030415"><ele>252.0</ele><time>2026-04-18T08:00:26.978Z</time></trkpt><trkpt lat="45.64648980115237" lon="11.307280822993807"><ele>252.0</ele><time>2026-04-18T08:00:29.978Z</time></trkpt><trkpt lat="45.64659223937789" lon="11.30725557304433"><ele>252.0</ele><time>2026-04-18T08:00:32.978Z</time></trkpt><trkpt lat="45.646660071111505" lon="11.307208078152671"><ele>252.0</ele><time>2026-04-18T08:00:34.978Z</time></trkpt><trkpt lat="45.64674466173865" lon="11.307184245324995"><ele>252.0</ele><time>2026-04-18T08:00:37.978Z</time></trkpt><trkpt lat="45.64680448800092" lon="11.30711244274361"><ele>252.0</ele><time>2026-04-18T08:00:40.978Z</time></trkpt><trkpt lat="45.646884604369845" lon="11.307057082171443"><ele>252.0</ele><time>2026-04-18T08:00:43.978Z</time></trkpt><trkpt lat="45.6469445070487" lon="11.306976951917104"><ele>251.66666666666666</ele><time>2026-04-18T08:00:45.978Z</time></trkpt><trkpt lat="45.64699207774906" lon="11.306891657426373"><ele>251.33333333333331</ele><time>2026-04-18T08:00:47.978Z</time></trkpt><trkpt lat="45.64703982014439" lon="11.306811345917602"><ele>251.0</ele><time>2026-04-18T08:00:49.978Z</time></trkpt><trkpt lat="45.64709604449706" lon="11.306751861569875"><ele>250.66666666666666</ele><time>2026-04-18T08:00:51.978Z</time></trkpt><trkpt lat="45.64716768215396" lon="11.306654382128157"><ele>250.33333333333331</ele><time>2026-04-18T08:00:54.978Z</time></trkpt><trkpt lat="45.64721189711093" lon="11.306531824685841"><ele>250.0</ele><time>2026-04-18T08:00:56.977Z</time></trkpt><trkpt lat="45.64728579191771" lon="11.306458252575123"><ele>250.33333333333331</ele><time>2026-04-18T08:00:59.977Z</time></trkpt><trkpt lat="45.6473570441529" lon="11.306389051014445"><ele>250.66666666666666</ele><time>2026-04-18T08:01:02.977Z</time></trkpt><trkpt lat="45.64741203677901" lon="11.306330044708846"><ele>251.0</ele><time>2026-04-18T08:01:04.977Z</time></trkpt><trkpt lat="45.647462042343065" lon="11.30626108029165"><ele>251.33333333333331</ele><time>2026-04-18T08:01:06.977Z</time></trkpt><trkpt lat="45.647525100421504" lon="11.306216443875886"><ele>251.66666666666666</ele><time>2026-04-18T08:01:08.977Z</time></trkpt><trkpt lat="45.64760423999097" lon="11.30614135377007"><ele>252.0</ele><time>2026-04-18T08:01:11.977Z</time></trkpt><trkpt lat="45.647660329003436" lon="11.306066749166156"><ele>252.0</ele><time>2026-04-18T08:01:13.977Z</time></trkpt><trkpt lat="45.64772463157471" lon="11.306020155985651"><ele>252.0</ele><time>2026-04-18T08:01:15.977Z</time></trkpt><trkpt lat="45.64779126593791" lon="11.3059687690938"><ele>252.0</ele><time>2026-04-18T08:01:17.977Z</time></trkpt><trkpt lat="45.64786217386178" lon="11.305921822558494"><ele>252.0</ele><time>2026-04-18T08:01:19.977Z</time></trkpt><trkpt lat="45.64793340451263" lon="11.305857647457602"><ele>252.0</ele><time>2026-04-18T08:01:21.977Z</time></trkpt><trkpt lat="45.64800262647384" lon="11.305826257183146"><ele>252.0</ele><time>2026-04-18T08:01:23.977Z</time></trkpt><trkpt lat="45.64806667731023" lon="11.305799099084059"><ele>252.0</ele><time>2026-04-18T08:01:25.977Z</time></trkpt><trkpt lat="45.64813108594711" lon="11.30572384757524"><ele>252.0</ele><time>2026-04-18T08:01:27.977Z</time></trkpt><trkpt lat="45.64817828072327" lon="11.305662673197046"><ele>252.0</ele><time>2026-04-18T08:01:29.977Z</time></trkpt><trkpt lat="45.648249203187696" lon="11.305563542469562"><ele>252.0</ele><time>2026-04-18T08:01:32.977Z</time></trkpt><trkpt lat="45.64833220114064" lon="11.305514849750422"><ele>252.0</ele><time>2026-04-18T08:01:35.977Z</time></trkpt><trkpt lat="45.64841702639398" lon="11.305467794363164"><ele>252.0</ele><time>2026-04-18T08:01:38.976Z</time></trkpt><trkpt lat="45.64849401438866" lon="11.305436292479097"><ele>252.0</ele><time>2026-04-18T08:01:41.976Z</time></trkpt><trkpt lat="45.64856866917579" lon="11.305365447288157"><ele>252.0</ele><time>2026-04-18T08:01:44.976Z</time></trkpt><trkpt lat="45.64862637693814" lon="11.305322558856885"><ele>252.0</ele><time>2026-04-18T08:01:46.976Z</time></trkpt><trkpt lat="45.648702261793375" lon="11.305249403797037"><ele>252.0</ele><time>2026-04-18T08:01:49.976Z</time></trkpt><trkpt lat="45.64877014736674" lon="11.305207495484296"><ele>252.0</ele><time>2026-04-18T08:01:52.976Z</time></trkpt><trkpt lat="45.6488551108431" lon="11.30519120354943"><ele>252.0</ele><time>2026-04-18T08:01:55.976Z</time></trkpt><trkpt lat="45.6489364269104" lon="11.305172840216654"><ele>252.5</ele><time>2026-04-18T08:01:58.976Z</time></trkpt><trkpt lat="45.64902089937388" lon="11.305151171315543"><ele>253.0</ele><time>2026-04-18T08:02:01.976Z</time></trkpt><trkpt lat="45.649107151823806" lon="11.30510279718272"><ele>253.5</ele><time>2026-04-18T08:02:04.976Z</time></trkpt><trkpt lat="45.64919354075946" lon="11.305042908801255"><ele>254.0</ele><time>2026-04-18T08:02:07.976Z</time></trkpt><trkpt lat="45.649256088741836" lon="11.305020516181502"><ele>254.5</ele><time>2026-04-18T08:02:09.976Z</time></trkpt><trkpt lat="45.64933132282954" lon="11.304974220199705"><ele>255.0</ele><time>2026-04-18T08:02:12.976Z</time></trkpt><trkpt lat="45.64941358182907" lon="11.304938320884933"><ele>256.0</ele><time>2026-04-18T08:02:15.976Z</time></trkpt><trkpt lat="45.649496565265736" lon="11.304931823364527"><ele>257.0</ele><time>2026-04-18T08:02:18.975Z</time></trkpt><trkpt lat="45.64957980782739" lon="11.304905682328084"><ele>258.0</ele><time>2026-04-18T08:02:21.975Z</time></trkpt><trkpt lat="45.649766785736496" lon="11.304864660807413"><ele>259.0</ele><time>2026-04-18T08:02:26.975Z</time></trkpt><trkpt lat="45.649836386615426" lon="11.304851534387703"><ele>260.0</ele><time>2026-04-18T08:02:28.975Z</time></trkpt><trkpt lat="45.64993995115174" lon="11.304825985758885"><ele>260.0</ele><time>2026-04-18T08:02:31.975Z</time></trkpt><trkpt lat="45.65001023151697" lon="11.30481354116784"><ele>260.0</ele><time>2026-04-18T08:02:33.975Z</time></trkpt><trkpt lat="45.65008782143345" lon="11.304768915001924"><ele>260.0</ele><time>2026-04-18T08:02:35.975Z</time></trkpt><trkpt lat="45.65014947701088" lon="11.304750714260171"><ele>260.0</ele><time>2026-04-18T08:02:37.975Z</time></trkpt><trkpt lat="45.65023326029477" lon="11.304739642333868"><ele>260.0</ele><time>2026-04-18T08:02:40.975Z</time></trkpt><trkpt lat="45.65030592607093" lon="11.304705584283061"><ele>260.0</ele><time>2026-04-18T08:02:42.975Z</time></trkpt><trkpt lat="45.65038947326202" lon="11.304674537428957"><ele>260.83333333333337</ele><time>2026-04-18T08:02:44.975Z</time></trkpt><trkpt lat="45.650464454962616" lon="11.304633862090572"><ele>261.6666666666667</ele><time>2026-04-18T08:02:46.975Z</time></trkpt><trkpt lat="45.650527359231795" lon="11.304613982807544"><ele>262.5</ele><time>2026-04-18T08:02:48.975Z</time></trkpt><trkpt lat="45.65061947384537" lon="11.304582921778875"><ele>263.3333333333333</ele><time>2026-04-18T08:02:51.975Z</time></trkpt><trkpt lat="45.65070413011988" lon="11.304559584934978"><ele>264.16666666666663</ele><time>2026-04-18T08:02:54.975Z</time></trkpt><trkpt lat="45.650777160949154" lon="11.30454067784368"><ele>265.0</ele><time>2026-04-18T08:02:57.975Z</time></trkpt><trkpt lat="45.650866809703516" lon="11.30452852247129"><ele>265.0</ele><time>2026-04-18T08:03:00.974Z</time></trkpt><trkpt lat="45.650962475880284" lon="11.304531263913182"><ele>265.0</ele><time>2026-04-18T08:03:03.974Z</time></trkpt><trkpt lat="45.65103317093874" lon="11.304490480905692"><ele>265.0</ele><time>2026-04-18T08:03:05.974Z</time></trkpt><trkpt lat="45.651105436567214" lon="11.304447832958317"><ele>265.0</ele><time>2026-04-18T08:03:07.974Z</time></trkpt><trkpt lat="45.651191843666226" lon="11.304400893106392"><ele>265.0</ele><time>2026-04-18T08:03:10.974Z</time></trkpt><trkpt lat="45.65125387854472" lon="11.30437616488048"><ele>265.0</ele><time>2026-04-18T08:03:12.974Z</time></trkpt><trkpt lat="45.651322519718015" lon="11.304317944378427"><ele>264.99999999999994</ele><time>2026-04-18T08:03:14.974Z</time></trkpt><trkpt lat="45.65138736247097" lon="11.304281732839453"><ele>265.0</ele><time>2026-04-18T08:03:16.974Z</time></trkpt><trkpt lat="45.651475590021775" lon="11.304277605483401"><ele>265.0</ele><time>2026-04-18T08:03:19.974Z</time></trkpt><trkpt lat="45.65154628919025" lon="11.304243604995168"><ele>265.0</ele><time>2026-04-18T08:03:22.974Z</time></trkpt><trkpt lat="45.65160954908399" lon="11.304214193805512"><ele>265.0</ele><time>2026-04-18T08:03:24.974Z</time></trkpt><trkpt lat="45.65167845520791" lon="11.304175984932398"><ele>264.99999999999994</ele><time>2026-04-18T08:03:27.974Z</time></trkpt><trkpt lat="45.651735495645326" lon="11.304133461163458"><ele>265.0</ele><time>2026-04-18T08:03:29.974Z</time></trkpt><trkpt lat="45.651799173636334" lon="11.30409612513273"><ele>265.0</ele><time>2026-04-18T08:03:31.974Z</time></trkpt><trkpt lat="45.65188033973652" lon="11.304060731345581"><ele>265.0</ele><time>2026-04-18T08:03:34.974Z</time></trkpt><trkpt lat="45.65194889236486" lon="11.30404707286134"><ele>265.0</ele><time>2026-04-18T08:03:36.974Z</time></trkpt><trkpt lat="45.652009798925604" lon="11.304023962586582"><ele>265.0</ele><time>2026-04-18T08:03:38.973Z</time></trkpt><trkpt lat="45.65207840571584" lon="11.303984903225503"><ele>265.0</ele><time>2026-04-18T08:03:40.973Z</time></trkpt><trkpt lat="45.65215689459342" lon="11.303946312227234"><ele>265.0</ele><time>2026-04-18T08:03:43.973Z</time></trkpt><trkpt lat="45.65224047838666" lon="11.303929600160926"><ele>264.8333333333333</ele><time>2026-04-18T08:03:46.973Z</time></trkpt><trkpt lat="45.652339456966075" lon="11.303924193435355"><ele>264.66666666666663</ele><time>2026-04-18T08:03:49.973Z</time></trkpt><trkpt lat="45.652410209036525" lon="11.303920118474846"><ele>264.5</ele><time>2026-04-18T08:03:51.973Z</time></trkpt><trkpt lat="45.65246409073478" lon="11.303848785833043"><ele>264.3333333333333</ele><time>2026-04-18T08:03:53.973Z</time></trkpt><trkpt lat="45.65253300603135" lon="11.303823765628168"><ele>264.1666666666667</ele><time>2026-04-18T08:03:57.973Z</time></trkpt><trkpt lat="45.65259369906386" lon="11.30379760748849"><ele>264.0</ele><time>2026-04-18T08:04:00.973Z</time></trkpt><trkpt lat="45.652659392897036" lon="11.303754568667198"><ele>264.0</ele><time>2026-04-18T08:04:03.973Z</time></trkpt><trkpt lat="45.65273274459684" lon="11.303752910678906"><ele>264.0</ele><time>2026-04-18T08:04:07.973Z</time></trkpt><trkpt lat="45.652786162987525" lon="11.30388571729426"><ele>264.0</ele><time>2026-04-18T08:04:09.973Z</time></trkpt><trkpt lat="45.65287258390082" lon="11.303942017139445"><ele>264.0</ele><time>2026-04-18T08:04:12.973Z</time></trkpt><trkpt lat="45.65295275821692" lon="11.304026532867617"><ele>264.0</ele><time>2026-04-18T08:04:14.973Z</time></trkpt><trkpt lat="45.65299759071026" lon="11.304119759856949"><ele>264.57142857142856</ele><time>2026-04-18T08:04:17.973Z</time></trkpt><trkpt lat="45.653030043526314" lon="11.304212884382329"><ele>265.14285714285717</ele><time>2026-04-18T08:04:20.972Z</time></trkpt><trkpt lat="45.65305874221388" lon="11.304295687760968"><ele>265.7142857142857</ele><time>2026-04-18T08:04:23.972Z</time></trkpt><trkpt lat="45.65308469558324" lon="11.304378074168907"><ele>266.2857142857143</ele><time>2026-04-18T08:04:25.972Z</time></trkpt><trkpt lat="45.65311252771063" lon="11.30448436972436"><ele>266.85714285714283</ele><time>2026-04-18T08:04:28.972Z</time></trkpt><trkpt lat="45.653135085571485" lon="11.304595503366146"><ele>267.42857142857144</ele><time>2026-04-18T08:04:31.972Z</time></trkpt><trkpt lat="45.65316301510827" lon="11.304702097965595"><ele>268.0</ele><time>2026-04-18T08:04:34.972Z</time></trkpt><trkpt lat="45.65319384055485" lon="11.304803276727"><ele>268.16666666666663</ele><time>2026-04-18T08:04:37.972Z</time></trkpt><trkpt lat="45.65323756580658" lon="11.304894375482226"><ele>268.3333333333333</ele><time>2026-04-18T08:04:40.972Z</time></trkpt><trkpt lat="45.65328124540873" lon="11.304999821213224"><ele>268.5</ele><time>2026-04-18T08:04:43.972Z</time></trkpt><trkpt lat="45.65332581460581" lon="11.305108673329299"><ele>268.6666666666667</ele><time>2026-04-18T08:04:46.972Z</time></trkpt><trkpt lat="45.653351950143254" lon="11.305206546093276"><ele>268.83333333333337</ele><time>2026-04-18T08:04:49.972Z</time></trkpt><trkpt lat="45.65337562705106" lon="11.305314278666899"><ele>269.0</ele><time>2026-04-18T08:04:52.972Z</time></trkpt><trkpt lat="45.65341566970553" lon="11.305415690388044"><ele>269.0</ele><time>2026-04-18T08:04:55.972Z</time></trkpt><trkpt lat="45.653441157136" lon="11.305508910808857"><ele>269.0</ele><time>2026-04-18T08:04:58.972Z</time></trkpt><trkpt lat="45.653458995311695" lon="11.305620845246027"><ele>269.0</ele><time>2026-04-18T08:05:01.971Z</time></trkpt><trkpt lat="45.653496402992204" lon="11.305719967566757"><ele>269.0</ele><time>2026-04-18T08:05:04.971Z</time></trkpt><trkpt lat="45.653526993221654" lon="11.305826543195241"><ele>269.0</ele><time>2026-04-18T08:05:07.971Z</time></trkpt><trkpt lat="45.65355226465103" lon="11.305924218398584"><ele>269.0</ele><time>2026-04-18T08:05:10.971Z</time></trkpt><trkpt lat="45.653578648400284" lon="11.306033751925396"><ele>269.42857142857144</ele><time>2026-04-18T08:05:13.971Z</time></trkpt><trkpt lat="45.65360843725668" lon="11.306133038615414"><ele>269.8571428571429</ele><time>2026-04-18T08:05:16.971Z</time></trkpt><trkpt lat="45.65363559683856" lon="11.30624646347238"><ele>270.2857142857143</ele><time>2026-04-18T08:05:19.999Z</time></trkpt><trkpt lat="45.6536620024797" lon="11.306350499378748"><ele>270.7142857142857</ele><time>2026-04-18T08:05:22.999Z</time></trkpt><trkpt lat="45.65368351633029" lon="11.306447485382314"><ele>271.1428571428571</ele><time>2026-04-18T08:05:25.999Z</time></trkpt><trkpt lat="45.65370963889506" lon="11.306539504752399"><ele>271.57142857142856</ele><time>2026-04-18T08:05:28.999Z</time></trkpt><trkpt lat="45.653729636461264" lon="11.30663609202049"><ele>272.0</ele><time>2026-04-18T08:05:31.999Z</time></trkpt><trkpt lat="45.65374679447228" lon="11.306756594824433"><ele>273.2857142857143</ele><time>2026-04-18T08:05:35.998Z</time></trkpt><trkpt lat="45.653777992053215" lon="11.30684587793183"><ele>274.57142857142856</ele><time>2026-04-18T08:05:38.998Z</time></trkpt><trkpt lat="45.653803573327956" lon="11.306936628888282"><ele>275.8571428571429</ele><time>2026-04-18T08:05:41.998Z</time></trkpt><trkpt lat="45.65383116672158" lon="11.30703933268799"><ele>277.1428571428571</ele><time>2026-04-18T08:05:44.998Z</time></trkpt><trkpt lat="45.653844549623365" lon="11.307139399352437"><ele>278.42857142857144</ele><time>2026-04-18T08:05:47.998Z</time></trkpt><trkpt lat="45.653799722450465" lon="11.307204727967566"><ele>279.7142857142857</ele><time>2026-04-18T08:05:52.998Z</time></trkpt><trkpt lat="45.653768787270046" lon="11.307301281054585"><ele>281.0</ele><time>2026-04-18T08:05:57.998Z</time></trkpt><trkpt lat="45.65372345959869" lon="11.30737366575087"><ele>282.28571428571433</ele><time>2026-04-18T08:06:02.001Z</time></trkpt><trkpt lat="45.653662994388746" lon="11.307418318886064"><ele>283.57142857142856</ele><time>2026-04-18T08:06:07.001Z</time></trkpt><trkpt lat="45.653591915672344" lon="11.307459017770944"><ele>284.8571428571429</ele><time>2026-04-18T08:06:11.001Z</time></trkpt><trkpt lat="45.653528890688996" lon="11.307521929501622"><ele>286.14285714285717</ele><time>2026-04-18T08:06:17.001Z</time></trkpt><trkpt lat="45.65354466084135" lon="11.307643296094723"><ele>287.42857142857144</ele><time>2026-04-18T08:06:25.001Z</time></trkpt><trkpt lat="45.653604142037416" lon="11.307692102637887"><ele>288.7142857142857</ele><time>2026-04-18T08:06:31.001Z</time></trkpt><trkpt lat="45.65354075049861" lon="11.307732003897891"><ele>290.0</ele><time>2026-04-18T08:06:46.001Z</time></trkpt><trkpt lat="45.653503495449975" lon="11.307827440197707"><ele>290.0</ele><time>2026-04-18T08:06:51.001Z</time></trkpt><trkpt lat="45.653464570213906" lon="11.307912040828443"><ele>290.0</ele><time>2026-04-18T08:07:03Z</time></trkpt><trkpt lat="45.653414740502434" lon="11.307967321760875"><ele>290.0</ele><time>2026-04-18T08:07:07Z</time></trkpt><trkpt lat="45.65336190367838" lon="11.308020823837428"><ele>290.0</ele><time>2026-04-18T08:07:16Z</time></trkpt><trkpt lat="45.65330209841207" lon="11.308076360118632"><ele>290.0</ele><time>2026-04-18T08:07:23Z</time></trkpt><trkpt lat="45.65324854026735" lon="11.308131723317738"><ele>290.0</ele><time>2026-04-18T08:07:27Z</time></trkpt><trkpt lat="45.65320143282643" lon="11.30819526277894"><ele>290.0</ele><time>2026-04-18T08:07:36.999Z</time></trkpt><trkpt lat="45.653157937934004" lon="11.308281311573133"><ele>293.7142857142857</ele><time>2026-04-18T08:07:44.999Z</time></trkpt><trkpt lat="45.65311424825704" lon="11.30834971220262"><ele>297.42857142857144</ele><time>2026-04-18T08:07:50.999Z</time></trkpt><trkpt lat="45.65306071572769" lon="11.308398451868378"><ele>301.14285714285717</ele><time>2026-04-18T08:07:55.999Z</time></trkpt><trkpt lat="45.65299435634094" lon="11.308466134164343"><ele>304.8571428571429</ele><time>2026-04-18T08:08:04.999Z</time></trkpt><trkpt lat="45.65293664041221" lon="11.308518072165072"><ele>308.57142857142856</ele><time>2026-04-18T08:08:12.001Z</time></trkpt><trkpt lat="45.65288410827876" lon="11.30857924881523"><ele>312.28571428571433</ele><time>2026-04-18T08:08:17.001Z</time></trkpt><trkpt lat="45.6528264452693" lon="11.308621096379657"><ele>316.0</ele><time>2026-04-18T08:08:26.001Z</time></trkpt><trkpt lat="45.652767289717765" lon="11.308661953046366"><ele>316.00000000000006</ele><time>2026-04-18T08:08:31.001Z</time></trkpt><trkpt lat="45.65270898817846" lon="11.308707428632415"><ele>316.0</ele><time>2026-04-18T08:08:41Z</time></trkpt><trkpt lat="45.65265200928578" lon="11.308746789380693"><ele>316.0</ele><time>2026-04-18T08:08:46Z</time></trkpt><trkpt lat="45.65258391590267" lon="11.308777688446755"><ele>316.0</ele><time>2026-04-18T08:08:52Z</time></trkpt><trkpt lat="45.65251407042003" lon="11.308800355470007"><ele>316.0</ele><time>2026-04-18T08:08:57Z</time></trkpt><trkpt lat="45.65245052404279" lon="11.308827536804749"><ele>316.00000000000006</ele><time>2026-04-18T08:09:03Z</time></trkpt><trkpt lat="45.65244382591024" lon="11.308924245609239"><ele>316.0</ele><time>2026-04-18T08:09:15Z</time></trkpt><trkpt lat="45.652484068367365" lon="11.308996528533864"><ele>321.00000000000006</ele><time>2026-04-18T08:09:19.999Z</time></trkpt><trkpt lat="45.65247227209359" lon="11.309095729557102"><ele>326.0</ele><time>2026-04-18T08:09:37.999Z</time></trkpt><trkpt lat="45.65243294482257" lon="11.30919244079179"><ele>331.0</ele><time>2026-04-18T08:09:43.999Z</time></trkpt><trkpt lat="45.65239152283505" lon="11.309273767144672"><ele>336.0</ele><time>2026-04-18T08:09:57.999Z</time></trkpt><trkpt lat="45.65241479060062" lon="11.309366569583995"><ele>341.0</ele><time>2026-04-18T08:10:02.998Z</time></trkpt><trkpt lat="45.652436066059984" lon="11.309452488308235"><ele>346.00000000000006</ele><time>2026-04-18T08:10:19Z</time></trkpt><trkpt lat="45.652386866026184" lon="11.309535625346774"><ele>351.0</ele><time>2026-04-18T08:10:22Z</time></trkpt><trkpt lat="45.65233351033135" lon="11.309596587436946"><ele>351.00000000000006</ele><time>2026-04-18T08:10:30.001Z</time></trkpt><trkpt lat="45.652265742558896" lon="11.309645534805123"><ele>351.0</ele><time>2026-04-18T08:10:36.001Z</time></trkpt><trkpt lat="45.65221119746619" lon="11.30969304853162"><ele>351.0</ele><time>2026-04-18T08:10:42.001Z</time></trkpt><trkpt lat="45.65217103606617" lon="11.309784317368178"><ele>351.0</ele><time>2026-04-18T08:10:50.001Z</time></trkpt><trkpt lat="45.652210518994245" lon="11.309869609286682"><ele>351.0</ele><time>2026-04-18T08:10:56Z</time></trkpt><trkpt lat="45.652239060099156" lon="11.309953356771823"><ele>351.00000000000006</ele><time>2026-04-18T08:11:07Z</time></trkpt><trkpt lat="45.652273524942196" lon="11.310038369699738"><ele>351.0</ele><time>2026-04-18T08:11:19Z</time></trkpt><trkpt lat="45.65228260294389" lon="11.310145176718612"><ele>354.14285714285717</ele><time>2026-04-18T08:11:26Z</time></trkpt><trkpt lat="45.652249896324534" lon="11.310224287527245"><ele>357.2857142857143</ele><time>2026-04-18T08:11:31Z</time></trkpt><trkpt lat="45.652208423371924" lon="11.310293729495868"><ele>360.42857142857144</ele><time>2026-04-18T08:11:38.999Z</time></trkpt><trkpt lat="45.6521628563599" lon="11.310362858966212"><ele>363.57142857142856</ele><time>2026-04-18T08:11:48.999Z</time></trkpt><trkpt lat="45.6521057752884" lon="11.310448574361478"><ele>366.7142857142857</ele><time>2026-04-18T08:11:52.999Z</time></trkpt><trkpt lat="45.65206148656343" lon="11.310528245113844"><ele>369.8571428571429</ele><time>2026-04-18T08:11:59.999Z</time></trkpt><trkpt lat="45.65204075911871" lon="11.310618864594097"><ele>373.0</ele><time>2026-04-18T08:12:04.999Z</time></trkpt><trkpt lat="45.65203443894275" lon="11.310726379716844"><ele>375.42857142857144</ele><time>2026-04-18T08:12:08.999Z</time></trkpt><trkpt lat="45.65204793437937" lon="11.310831580246743"><ele>377.8571428571429</ele><time>2026-04-18T08:12:12.999Z</time></trkpt><trkpt lat="45.65206558874468" lon="11.310918322469373"><ele>380.2857142857143</ele><time>2026-04-18T08:12:16.998Z</time></trkpt><trkpt lat="45.65208595311784" lon="11.311024192198621"><ele>382.7142857142857</ele><time>2026-04-18T08:12:23.001Z</time></trkpt><trkpt lat="45.652100136377136" lon="11.311123547708528"><ele>385.1428571428571</ele><time>2026-04-18T08:12:29.001Z</time></trkpt><trkpt lat="45.65211054588059" lon="11.311214242769239"><ele>387.57142857142856</ele><time>2026-04-18T08:12:36Z</time></trkpt><trkpt lat="45.6521193780398" lon="11.31131085081032"><ele>390.0</ele><time>2026-04-18T08:12:41Z</time></trkpt><trkpt lat="45.652119372682826" lon="11.311429231199849"><ele>391.5</ele><time>2026-04-18T08:12:44Z</time></trkpt><trkpt lat="45.65210460051506" lon="11.311519085059597"><ele>393.0</ele><time>2026-04-18T08:12:47Z</time></trkpt><trkpt lat="45.652098070670256" lon="11.311623973905773"><ele>394.5</ele><time>2026-04-18T08:12:50Z</time></trkpt><trkpt lat="45.65211014146589" lon="11.311738714888158"><ele>396.0</ele><time>2026-04-18T08:12:54Z</time></trkpt><trkpt lat="45.6521449449484" lon="11.311889191439091"><ele>397.5</ele><time>2026-04-18T08:12:58Z</time></trkpt><trkpt lat="45.652196943071274" lon="11.311954654551961"><ele>399.0</ele><time>2026-04-18T08:13:00Z</time></trkpt><trkpt lat="45.65218445054136" lon="11.31206289437953"><ele>399.0</ele><time>2026-04-18T08:13:07Z</time></trkpt><trkpt lat="45.65211525601161" lon="11.31205837575746"><ele>399.0</ele><time>2026-04-18T08:13:09Z</time></trkpt><trkpt lat="45.65204828354406" lon="11.312082486954514"><ele>399.0</ele><time>2026-04-18T08:13:13.999Z</time></trkpt><trkpt lat="45.651975515969" lon="11.312074051932687"><ele>399.0</ele><time>2026-04-18T08:13:18.999Z</time></trkpt><trkpt lat="45.6519079936873" lon="11.312062005654255"><ele>399.0</ele><time>2026-04-18T08:13:22.999Z</time></trkpt><trkpt lat="45.651844926500544" lon="11.312047129080826"><ele>399.0</ele><time>2026-04-18T08:13:27.999Z</time></trkpt><trkpt lat="45.65177605912431" lon="11.312021681191476"><ele>399.0</ele><time>2026-04-18T08:13:35.999Z</time></trkpt><trkpt lat="45.65169741637489" lon="11.311989079731253"><ele>400.0</ele><time>2026-04-18T08:13:43.999Z</time></trkpt><trkpt lat="45.65164612489726" lon="11.311924860513612"><ele>401.0</ele><time>2026-04-18T08:13:49.999Z</time></trkpt><trkpt lat="45.65162012599069" lon="11.31184139494029"><ele>402.0</ele><time>2026-04-18T08:13:52.998Z</time></trkpt><trkpt lat="45.65160516134388" lon="11.3117034152937"><ele>403.0</ele><time>2026-04-18T08:13:55.998Z</time></trkpt><trkpt lat="45.65155721480126" lon="11.311616689438981"><ele>404.0</ele><time>2026-04-18T08:13:59.998Z</time></trkpt><trkpt lat="45.65152305900291" lon="11.311526822544169"><ele>405.0</ele><time>2026-04-18T08:14:02.998Z</time></trkpt><trkpt lat="45.65147757040204" lon="11.311454725201058"><ele>406.0</ele><time>2026-04-18T08:14:05.998Z</time></trkpt><trkpt lat="45.65140679026353" lon="11.311372681224912"><ele>406.00000000000006</ele><time>2026-04-18T08:14:08.998Z</time></trkpt><trkpt lat="45.65133770101581" lon="11.311321475925842"><ele>406.0</ele><time>2026-04-18T08:14:11.998Z</time></trkpt><trkpt lat="45.651264177147524" lon="11.31127348620674"><ele>406.0</ele><time>2026-04-18T08:14:14.998Z</time></trkpt><trkpt lat="45.651207658378404" lon="11.31122007509199"><ele>406.0</ele><time>2026-04-18T08:14:18.998Z</time></trkpt><trkpt lat="45.65114028840747" lon="11.311207935971083"><ele>406.00000000000006</ele><time>2026-04-18T08:14:21.998Z</time></trkpt><trkpt lat="45.65107661669402" lon="11.311190153684226"><ele>406.0</ele><time>2026-04-18T08:14:27.001Z</time></trkpt><trkpt lat="45.65097580632122" lon="11.311200971518085"><ele>406.6666666666667</ele><time>2026-04-18T08:14:29Z</time></trkpt><trkpt lat="45.65104997257251" lon="11.311354661603986"><ele>407.33333333333337</ele><time>2026-04-18T08:14:37.001Z</time></trkpt><trkpt lat="45.65107981248044" lon="11.311439932035707"><ele>408.0</ele><time>2026-04-18T08:14:44Z</time></trkpt><trkpt lat="45.65112092133149" lon="11.311518857040015"><ele>408.66666666666663</ele><time>2026-04-18T08:14:48Z</time></trkpt><trkpt lat="45.65115059651356" lon="11.311605402889029"><ele>409.3333333333333</ele><time>2026-04-18T08:14:53Z</time></trkpt><trkpt lat="45.65118325246324" lon="11.311717131414094"><ele>410.0</ele><time>2026-04-18T08:14:57Z</time></trkpt><trkpt lat="45.651207826471286" lon="11.311807500336952"><ele>411.42857142857144</ele><time>2026-04-18T08:15:03Z</time></trkpt><trkpt lat="45.65121987478148" lon="11.311897088573373"><ele>412.85714285714283</ele><time>2026-04-18T08:15:11Z</time></trkpt><trkpt lat="45.65123909272892" lon="11.311990301261758"><ele>414.2857142857143</ele><time>2026-04-18T08:15:15Z</time></trkpt><trkpt lat="45.65125524626595" lon="11.312077679287844"><ele>415.7142857142857</ele><time>2026-04-18T08:15:24.999Z</time></trkpt><trkpt lat="45.651271482087665" lon="11.312165102098204"><ele>417.1428571428571</ele><time>2026-04-18T08:15:30.999Z</time></trkpt><trkpt lat="45.65128811255982" lon="11.312277306246704"><ele>418.57142857142856</ele><time>2026-04-18T08:15:40.999Z</time></trkpt><trkpt lat="45.65129266400339" lon="11.312378457049498"><ele>420.0</ele><time>2026-04-18T08:15:48.999Z</time></trkpt><trkpt lat="45.65128622067174" lon="11.312470735471269"><ele>422.6666666666667</ele><time>2026-04-18T08:15:56.999Z</time></trkpt><trkpt lat="45.65127270269901" lon="11.312559282006504"><ele>425.33333333333337</ele><time>2026-04-18T08:16:03.998Z</time></trkpt><trkpt lat="45.65130759234995" lon="11.31278137226329"><ele>428.0</ele><time>2026-04-18T08:16:20.998Z</time></trkpt><trkpt lat="45.651337669449504" lon="11.312871890103786"><ele>430.6666666666667</ele><time>2026-04-18T08:16:27.998Z</time></trkpt><trkpt lat="45.65136921097268" lon="11.31295770873172"><ele>433.33333333333337</ele><time>2026-04-18T08:16:34.001Z</time></trkpt><trkpt lat="45.651400957685766" lon="11.313036681584997"><ele>436.0</ele><time>2026-04-18T08:16:42.001Z</time></trkpt><trkpt lat="45.65144700029961" lon="11.313146704471984"><ele>439.57142857142856</ele><time>2026-04-18T08:16:53Z</time></trkpt><trkpt lat="45.6514805890537" lon="11.31323942991481"><ele>443.14285714285717</ele><time>2026-04-18T08:16:59Z</time></trkpt><trkpt lat="45.651516186185816" lon="11.313314397439937"><ele>446.7142857142857</ele><time>2026-04-18T08:17:04Z</time></trkpt><trkpt lat="45.651542800280794" lon="11.313397711533174"><ele>450.28571428571433</ele><time>2026-04-18T08:17:09Z</time></trkpt><trkpt lat="45.651530794904446" lon="11.31350467134029"><ele>453.8571428571429</ele><time>2026-04-18T08:17:13Z</time></trkpt><trkpt lat="45.65151348773965" lon="11.313612436415902"><ele>457.42857142857144</ele><time>2026-04-18T08:17:22.999Z</time></trkpt><trkpt lat="45.65150879732954" lon="11.31370783611426"><ele>461.0</ele><time>2026-04-18T08:17:24.999Z</time></trkpt><trkpt lat="45.651505668320496" lon="11.313806358564694"><ele>464.3333333333333</ele><time>2026-04-18T08:17:26.999Z</time></trkpt><trkpt lat="45.65150537658704" lon="11.313934710253761"><ele>467.66666666666663</ele><time>2026-04-18T08:17:28.999Z</time></trkpt><trkpt lat="45.651534867972046" lon="11.314014981197495"><ele>471.0</ele><time>2026-04-18T08:17:30.999Z</time></trkpt><trkpt lat="45.651583507522155" lon="11.314073579906394"><ele>474.33333333333337</ele><time>2026-04-18T08:17:34.999Z</time></trkpt><trkpt lat="45.65163028186838" lon="11.314182610873512"><ele>477.6666666666667</ele><time>2026-04-18T08:17:38.999Z</time></trkpt><trkpt lat="45.651680369242904" lon="11.314266680392073"><ele>481.0</ele><time>2026-04-18T08:17:41.999Z</time></trkpt><trkpt lat="45.65172512692669" lon="11.314341654775786"><ele>480.99999999999994</ele><time>2026-04-18T08:17:44.999Z</time></trkpt><trkpt lat="45.65176164520313" lon="11.314464715098776"><ele>481.0</ele><time>2026-04-18T08:17:47.999Z</time></trkpt><trkpt lat="45.651807646697634" lon="11.314554188103862"><ele>480.99999999999994</ele><time>2026-04-18T08:17:53.999Z</time></trkpt><trkpt lat="45.65183046796038" lon="11.314640890503957"><ele>480.99999999999994</ele><time>2026-04-18T08:18:00.998Z</time></trkpt><trkpt lat="45.651870131129805" lon="11.314714551812466"><ele>481.0</ele><time>2026-04-18T08:18:10.998Z</time></trkpt><trkpt lat="45.65192537327438" lon="11.314767414633735"><ele>480.99999999999994</ele><time>2026-04-18T08:18:16.998Z</time></trkpt><trkpt lat="45.6519908708056" lon="11.314744239179605"><ele>480.99999999999994</ele><time>2026-04-18T08:18:24.998Z</time></trkpt><trkpt lat="45.6520554322488" lon="11.314729171456888"><ele>478.99999999999994</ele><time>2026-04-18T08:18:28.998Z</time></trkpt><trkpt lat="45.652124009454596" lon="11.314731016138461"><ele>477.0</ele><time>2026-04-18T08:18:33.998Z</time></trkpt><trkpt lat="45.65219931897697" lon="11.314721954238601"><ele>474.99999999999994</ele><time>2026-04-18T08:18:41Z</time></trkpt><trkpt lat="45.65225907480528" lon="11.314773035446187"><ele>472.99999999999994</ele><time>2026-04-18T08:18:51.001Z</time></trkpt><trkpt lat="45.65231242318122" lon="11.314872412119795"><ele>471.0</ele><time>2026-04-18T08:19:04.001Z</time></trkpt><trkpt lat="45.6523361703713" lon="11.314972629294907"><ele>468.99999999999994</ele><time>2026-04-18T08:19:12.001Z</time></trkpt><trkpt lat="45.65236231311712" lon="11.315055130809755"><ele>466.99999999999994</ele><time>2026-04-18T08:19:26Z</time></trkpt><trkpt lat="45.65240947587439" lon="11.315119679446031"><ele>471.42857142857133</ele><time>2026-04-18T08:19:34Z</time></trkpt><trkpt lat="45.65245819348414" lon="11.31519748369708"><ele>475.85714285714283</ele><time>2026-04-18T08:19:39Z</time></trkpt><trkpt lat="45.65250741849283" lon="11.315268404968919"><ele>480.2857142857142</ele><time>2026-04-18T08:19:44Z</time></trkpt><trkpt lat="45.65254544827267" lon="11.315354271022224"><ele>484.71428571428567</ele><time>2026-04-18T08:19:49Z</time></trkpt><trkpt lat="45.65257657861066" lon="11.315439364604678"><ele>489.1428571428571</ele><time>2026-04-18T08:19:54Z</time></trkpt><trkpt lat="45.652613789789825" lon="11.315527121481944"><ele>493.57142857142856</ele><time>2026-04-18T08:19:58Z</time></trkpt><trkpt lat="45.65266360159379" lon="11.315585859319244"><ele>498.0</ele><time>2026-04-18T08:20:01.999Z</time></trkpt><trkpt lat="45.65270807879832" lon="11.31566605086013"><ele>498.57142857142856</ele><time>2026-04-18T08:20:05.999Z</time></trkpt><trkpt lat="45.65276722227198" lon="11.315745942282284"><ele>499.1428571428571</ele><time>2026-04-18T08:20:08.999Z</time></trkpt><trkpt lat="45.652838600263195" lon="11.315805005036385"><ele>499.71428571428567</ele><time>2026-04-18T08:20:11.999Z</time></trkpt><trkpt lat="45.65291033647361" lon="11.315835156016684"><ele>500.2857142857142</ele><time>2026-04-18T08:20:15.999Z</time></trkpt><trkpt lat="45.65297824648971" lon="11.315864153783632"><ele>500.85714285714283</ele><time>2026-04-18T08:20:18.999Z</time></trkpt><trkpt lat="45.65303437669672" lon="11.315906582872309"><ele>501.42857142857133</ele><time>2026-04-18T08:20:20.999Z</time></trkpt><trkpt lat="45.6530996103926" lon="11.315926292804074"><ele>501.99999999999994</ele><time>2026-04-18T08:20:24.999Z</time></trkpt><trkpt lat="45.65314593662119" lon="11.315991261163314"><ele>501.99999999999994</ele><time>2026-04-18T08:20:31.999Z</time></trkpt><trkpt lat="45.65313814759571" lon="11.316083352936314"><ele>502.0</ele><time>2026-04-18T08:20:50Z</time></trkpt><trkpt lat="45.65309578354757" lon="11.316151268030126"><ele>501.99999999999994</ele><time>2026-04-18T08:21:01Z</time></trkpt><trkpt lat="45.65304203812599" lon="11.31622467235975"><ele>501.99999999999994</ele><time>2026-04-18T08:21:10Z</time></trkpt><trkpt lat="45.653011617489206" lon="11.316309579051921"><ele>502.0</ele><time>2026-04-18T08:21:17Z</time></trkpt><trkpt lat="45.65297763533573" lon="11.31639300797113"><ele>501.99999999999994</ele><time>2026-04-18T08:21:23Z</time></trkpt><trkpt lat="45.65295379065203" lon="11.316483361790635"><ele>501.99999999999994</ele><time>2026-04-18T08:21:30.999Z</time></trkpt><trkpt lat="45.65290593323502" lon="11.31654444681092"><ele>502.42857142857133</ele><time>2026-04-18T08:21:40.999Z</time></trkpt><trkpt lat="45.65283328313373" lon="11.31655693777703"><ele>502.85714285714283</ele><time>2026-04-18T08:21:43.999Z</time></trkpt><trkpt lat="45.65277687311811" lon="11.316603187678783"><ele>503.2857142857142</ele><time>2026-04-18T08:21:58.999Z</time></trkpt><trkpt lat="45.65270121840139" lon="11.31665542490255"><ele>503.71428571428567</ele><time>2026-04-18T08:22:07.999Z</time></trkpt><trkpt lat="45.6526400072003" lon="11.316687815580478"><ele>504.1428571428571</ele><time>2026-04-18T08:22:30.998Z</time></trkpt><trkpt lat="45.65257191104273" lon="11.316678220744285"><ele>504.57142857142856</ele><time>2026-04-18T08:22:36.998Z</time></trkpt><trkpt lat="45.6525092879616" lon="11.316698615331102"><ele>505.0</ele><time>2026-04-18T08:22:42.998Z</time></trkpt><trkpt lat="45.65244152576791" lon="11.31675345086532"><ele>509.71428571428567</ele><time>2026-04-18T08:22:52.001Z</time></trkpt><trkpt lat="45.652381580807926" lon="11.316810795353309"><ele>514.4285714285713</ele><time>2026-04-18T08:22:56.001Z</time></trkpt><trkpt lat="45.6523358865869" lon="11.316896926146194"><ele>519.1428571428571</ele><time>2026-04-18T08:23:01.001Z</time></trkpt><trkpt lat="45.65229197694318" lon="11.316964406543146"><ele>523.8571428571429</ele><time>2026-04-18T08:23:05.001Z</time></trkpt><trkpt lat="45.65222810017303" lon="11.317029539863695"><ele>528.5714285714287</ele><time>2026-04-18T08:23:14.001Z</time></trkpt><trkpt lat="45.65220573981512" lon="11.317125604691482"><ele>533.2857142857143</ele><time>2026-04-18T08:23:22Z</time></trkpt><trkpt lat="45.65215746626209" lon="11.317200020052653"><ele>538.0</ele><time>2026-04-18T08:23:34Z</time></trkpt><trkpt lat="45.65208439982802" lon="11.317269276828833"><ele>539.6666666666667</ele><time>2026-04-18T08:23:41Z</time></trkpt><trkpt lat="45.65201019933138" lon="11.317291744907683"><ele>541.3333333333334</ele><time>2026-04-18T08:23:45Z</time></trkpt><trkpt lat="45.65189280945383" lon="11.317347632900047"><ele>543.0</ele><time>2026-04-18T08:24:05.999Z</time></trkpt><trkpt lat="45.65183087906486" lon="11.31737212105975"><ele>544.6666666666666</ele><time>2026-04-18T08:24:10.999Z</time></trkpt><trkpt lat="45.65176755667556" lon="11.317371536369777"><ele>546.3333333333333</ele><time>2026-04-18T08:24:16.999Z</time></trkpt><trkpt lat="45.65169975248541" lon="11.317399574374008"><ele>548.0</ele><time>2026-04-18T08:24:23.999Z</time></trkpt><trkpt lat="45.651639663276306" lon="11.31743871251344"><ele>551.2857142857143</ele><time>2026-04-18T08:24:29.999Z</time></trkpt><trkpt lat="45.65157561454612" lon="11.317450856186097"><ele>554.5714285714286</ele><time>2026-04-18T08:24:37.999Z</time></trkpt><trkpt lat="45.65150447886401" lon="11.317497069825796"><ele>557.8571428571429</ele><time>2026-04-18T08:24:45.998Z</time></trkpt><trkpt lat="45.651457114037804" lon="11.317574115295114"><ele>561.1428571428571</ele><time>2026-04-18T08:24:49.998Z</time></trkpt><trkpt lat="45.651423019278084" lon="11.317660765265751"><ele>564.4285714285714</ele><time>2026-04-18T08:24:53.998Z</time></trkpt><trkpt lat="45.651402954020924" lon="11.31775589337216"><ele>567.7142857142858</ele><time>2026-04-18T08:24:57.001Z</time></trkpt><trkpt lat="45.65138818225933" lon="11.317853733910647"><ele>571.0</ele><time>2026-04-18T08:25:00Z</time></trkpt><trkpt lat="45.651373424510496" lon="11.317959304987458"><ele>573.1666666666667</ele><time>2026-04-18T08:25:04Z</time></trkpt><trkpt lat="45.65137720987641" lon="11.31808401432245"><ele>575.3333333333334</ele><time>2026-04-18T08:25:08.001Z</time></trkpt><trkpt lat="45.65136852753711" lon="11.318180337875878"><ele>577.5</ele><time>2026-04-18T08:25:11Z</time></trkpt><trkpt lat="45.65141483768877" lon="11.3182676540946"><ele>579.6666666666666</ele><time>2026-04-18T08:25:16Z</time></trkpt><trkpt lat="45.65146968940786" lon="11.318331491267552"><ele>581.8333333333333</ele><time>2026-04-18T08:25:19Z</time></trkpt><trkpt lat="45.6515285642211" lon="11.31841642864904"><ele>584.0</ele><time>2026-04-18T08:25:23Z</time></trkpt><trkpt lat="45.65157995016605" lon="11.31849124493452"><ele>584.0</ele><time>2026-04-18T08:25:27Z</time></trkpt><trkpt lat="45.65165364286461" lon="11.31855073730534"><ele>584.0</ele><time>2026-04-18T08:25:31Z</time></trkpt><trkpt lat="45.65171973332813" lon="11.318612354115377"><ele>584.0</ele><time>2026-04-18T08:25:34Z</time></trkpt><trkpt lat="45.65177254744159" lon="11.318689966738928"><ele>584.0</ele><time>2026-04-18T08:25:37Z</time></trkpt><trkpt lat="45.651836107439635" lon="11.318736732248105"><ele>584.0</ele><time>2026-04-18T08:25:40Z</time></trkpt><trkpt lat="45.65190191009055" lon="11.318761569033919"><ele>584.0</ele><time>2026-04-18T08:25:42.999Z</time></trkpt><trkpt lat="45.65195674699638" lon="11.318808238420559"><ele>584.0</ele><time>2026-04-18T08:25:45.999Z</time></trkpt><trkpt lat="45.65204786938457" lon="11.318814262665823"><ele>584.1666666666666</ele><time>2026-04-18T08:25:48.999Z</time></trkpt><trkpt lat="45.652119843264465" lon="11.31882138206961"><ele>584.3333333333333</ele><time>2026-04-18T08:25:50.999Z</time></trkpt><trkpt lat="45.65220752675558" lon="11.318904313907185"><ele>584.5</ele><time>2026-04-18T08:25:53.999Z</time></trkpt><trkpt lat="45.652263402257454" lon="11.318959061549549"><ele>584.6666666666666</ele><time>2026-04-18T08:25:55.999Z</time></trkpt><trkpt lat="45.65232963659636" lon="11.319003454733927"><ele>584.8333333333334</ele><time>2026-04-18T08:25:58.999Z</time></trkpt><trkpt lat="45.65239963744726" lon="11.319045489487488"><ele>585.0</ele><time>2026-04-18T08:26:01.999Z</time></trkpt><trkpt lat="45.652456595757016" lon="11.319121641104848"><ele>585.0</ele><time>2026-04-18T08:26:04.999Z</time></trkpt><trkpt lat="45.65249567900734" lon="11.319202743753628"><ele>585.0</ele><time>2026-04-18T08:26:06.999Z</time></trkpt><trkpt lat="45.65255928655122" lon="11.31925757858654"><ele>585.0</ele><time>2026-04-18T08:26:08.999Z</time></trkpt><trkpt lat="45.65264128283143" lon="11.319274424240898"><ele>585.0</ele><time>2026-04-18T08:26:11.999Z</time></trkpt><trkpt lat="45.65272171498428" lon="11.319299431267018"><ele>585.0</ele><time>2026-04-18T08:26:14.999Z</time></trkpt><trkpt lat="45.652801870245966" lon="11.31937250594641"><ele>585.0</ele><time>2026-04-18T08:26:17.999Z</time></trkpt><trkpt lat="45.65288308329937" lon="11.319409518694039"><ele>581.5</ele><time>2026-04-18T08:26:20.999Z</time></trkpt><trkpt lat="45.65296064649365" lon="11.319451577920157"><ele>578.0</ele><time>2026-04-18T08:26:23.998Z</time></trkpt><trkpt lat="45.653035958559585" lon="11.319465054885846"><ele>574.5</ele><time>2026-04-18T08:26:26.998Z</time></trkpt><trkpt lat="45.65311186321187" lon="11.319481462283676"><ele>571.0</ele><time>2026-04-18T08:26:29.998Z</time></trkpt><trkpt lat="45.653203985738735" lon="11.319509559117824"><ele>567.5</ele><time>2026-04-18T08:26:32.998Z</time></trkpt><trkpt lat="45.65325705717928" lon="11.31955924018062"><ele>564.0</ele><time>2026-04-18T08:26:34.998Z</time></trkpt><trkpt lat="45.653322588569374" lon="11.319612233101012"><ele>564.0</ele><time>2026-04-18T08:26:36.998Z</time></trkpt><trkpt lat="45.65337799257303" lon="11.319666144512045"><ele>564.0</ele><time>2026-04-18T08:26:38.998Z</time></trkpt><trkpt lat="45.65344337274181" lon="11.319733905876806"><ele>564.0</ele><time>2026-04-18T08:26:41.998Z</time></trkpt><trkpt lat="45.653501850169334" lon="11.319769664605085"><ele>564.0</ele><time>2026-04-18T08:26:43.998Z</time></trkpt><trkpt lat="45.65357627742708" lon="11.319817766905473"><ele>564.0</ele><time>2026-04-18T08:26:46.998Z</time></trkpt><trkpt lat="45.65361188947852" lon="11.319902931233482"><ele>564.0</ele><time>2026-04-18T08:26:48.998Z</time></trkpt><trkpt lat="45.65364370746013" lon="11.319990411337333"><ele>564.0</ele><time>2026-04-18T08:26:51.998Z</time></trkpt><trkpt lat="45.65369844019007" lon="11.320057858678062"><ele>563.4285714285714</ele><time>2026-04-18T08:26:54.998Z</time></trkpt><trkpt lat="45.65374184705997" lon="11.32012609504621"><ele>562.8571428571429</ele><time>2026-04-18T08:26:57.998Z</time></trkpt><trkpt lat="45.6537792414067" lon="11.320218621517604"><ele>562.2857142857142</ele><time>2026-04-18T08:27:04Z</time></trkpt><trkpt lat="45.65380907001204" lon="11.320303761762379"><ele>561.7142857142858</ele><time>2026-04-18T08:27:11Z</time></trkpt><trkpt lat="45.653857894931264" lon="11.3203929774053"><ele>561.1428571428571</ele><time>2026-04-18T08:27:16.001Z</time></trkpt><trkpt lat="45.65388598742302" lon="11.32047819078511"><ele>560.5714285714286</ele><time>2026-04-18T08:27:22Z</time></trkpt><trkpt lat="45.65394111635851" lon="11.320564063483156"><ele>560.0</ele><time>2026-04-18T08:27:27Z</time></trkpt><trkpt lat="45.65399758660572" lon="11.32063056105007"><ele>563.4285714285714</ele><time>2026-04-18T08:27:31Z</time></trkpt><trkpt lat="45.65404631742768" lon="11.320715354732815"><ele>566.8571428571429</ele><time>2026-04-18T08:27:34Z</time></trkpt><trkpt lat="45.65407073675409" lon="11.320803332371161"><ele>570.2857142857142</ele><time>2026-04-18T08:27:35.999Z</time></trkpt><trkpt lat="45.65410813796642" lon="11.320880897496952"><ele>573.7142857142858</ele><time>2026-04-18T08:27:38.999Z</time></trkpt><trkpt lat="45.6541234700108" lon="11.320978421863286"><ele>577.1428571428571</ele><time>2026-04-18T08:27:41.999Z</time></trkpt><trkpt lat="45.654156459862826" lon="11.321070408607566"><ele>580.5714285714286</ele><time>2026-04-18T08:27:44.999Z</time></trkpt><trkpt lat="45.65419386519601" lon="11.321171037123605"><ele>584.0</ele><time>2026-04-18T08:27:48.999Z</time></trkpt><trkpt lat="45.65423151264464" lon="11.321248007689611"><ele>584.0</ele><time>2026-04-18T08:27:51.999Z</time></trkpt><trkpt lat="45.654270539381926" lon="11.321327060351662"><ele>584.0</ele><time>2026-04-18T08:27:54.999Z</time></trkpt><trkpt lat="45.65432405544456" lon="11.32140672346202"><ele>584.0</ele><time>2026-04-18T08:27:57.999Z</time></trkpt><trkpt lat="45.6543680429067" lon="11.321489913049074"><ele>584.0</ele><time>2026-04-18T08:28:00.999Z</time></trkpt><trkpt lat="45.65442442560989" lon="11.321580865957552"><ele>584.0</ele><time>2026-04-18T08:28:03.998Z</time></trkpt><trkpt lat="45.65447626994661" lon="11.321678848034407"><ele>584.0</ele><time>2026-04-18T08:28:06.998Z</time></trkpt><trkpt lat="45.654521180726086" lon="11.321745583214067"><ele>583.6666666666666</ele><time>2026-04-18T08:28:08.998Z</time></trkpt><trkpt lat="45.65457737535634" lon="11.321829222342165"><ele>583.3333333333333</ele><time>2026-04-18T08:28:11.998Z</time></trkpt><trkpt lat="45.6546242897207" lon="11.321901694655933"><ele>583.0</ele><time>2026-04-18T08:28:14.998Z</time></trkpt><trkpt lat="45.654670878889505" lon="11.321980940611603"><ele>582.6666666666666</ele><time>2026-04-18T08:28:17.998Z</time></trkpt><trkpt lat="45.65471753083382" lon="11.322079996991388"><ele>582.3333333333334</ele><time>2026-04-18T08:28:20.998Z</time></trkpt><trkpt lat="45.654748830619624" lon="11.322180760366772"><ele>582.0</ele><time>2026-04-18T08:28:22.998Z</time></trkpt><trkpt lat="45.65476850619664" lon="11.322322333290405"><ele>582.0</ele><time>2026-04-18T08:28:25.998Z</time></trkpt><trkpt lat="45.65477224674632" lon="11.322428719877415"><ele>582.0</ele><time>2026-04-18T08:28:28.998Z</time></trkpt><trkpt lat="45.65478146821708" lon="11.322533624132454"><ele>582.0</ele><time>2026-04-18T08:28:31.998Z</time></trkpt><trkpt lat="45.65479383506332" lon="11.322640245740581"><ele>582.0</ele><time>2026-04-18T08:28:34.998Z</time></trkpt><trkpt lat="45.654830360425464" lon="11.322754001430598"><ele>582.0</ele><time>2026-04-18T08:28:37.998Z</time></trkpt><trkpt lat="45.654874147737864" lon="11.322822461053939"><ele>582.0</ele><time>2026-04-18T08:28:39.997Z</time></trkpt><trkpt lat="45.65492684612286" lon="11.322881844299129"><ele>582.0</ele><time>2026-04-18T08:28:42.997Z</time></trkpt><trkpt lat="45.65497577817025" lon="11.322952339844"><ele>582.0</ele><time>2026-04-18T08:28:46.997Z</time></trkpt><trkpt lat="45.65501858369776" lon="11.323046387477056"><ele>582.0</ele><time>2026-04-18T08:28:51.997Z</time></trkpt><trkpt lat="45.65504268464606" lon="11.323186859534829"><ele>582.0</ele><time>2026-04-18T08:28:54.997Z</time></trkpt><trkpt lat="45.655070606538885" lon="11.323277801567494"><ele>582.0</ele><time>2026-04-18T08:28:56.997Z</time></trkpt><trkpt lat="45.65510746826012" lon="11.323360520969004"><ele>582.0</ele><time>2026-04-18T08:28:59.997Z</time></trkpt><trkpt lat="45.65508755690719" lon="11.323465515682223"><ele>582.0</ele><time>2026-04-18T08:29:02.997Z</time></trkpt><trkpt lat="45.65509068809028" lon="11.32357238950251"><ele>583.0</ele><time>2026-04-18T08:29:06.999Z</time></trkpt><trkpt lat="45.65513604558773" lon="11.323668970803682"><ele>584.0</ele><time>2026-04-18T08:29:10Z</time></trkpt><trkpt lat="45.65516447682703" lon="11.323758876350286"><ele>585.0</ele><time>2026-04-18T08:29:11.999Z</time></trkpt><trkpt lat="45.655197666289105" lon="11.323836773924501"><ele>586.0</ele><time>2026-04-18T08:29:15Z</time></trkpt><trkpt lat="45.65523330898867" lon="11.323911994857866"><ele>587.0</ele><time>2026-04-18T08:29:19.999Z</time></trkpt><trkpt lat="45.655263757714366" lon="11.324007981219365"><ele>588.0</ele><time>2026-04-18T08:29:27.999Z</time></trkpt><trkpt lat="45.65527442170527" lon="11.32410775566929"><ele>589.0</ele><time>2026-04-18T08:29:32.999Z</time></trkpt><trkpt lat="45.65527576043058" lon="11.324205330870985"><ele>589.2857142857142</ele><time>2026-04-18T08:29:35.999Z</time></trkpt><trkpt lat="45.655280784050575" lon="11.32430760236983"><ele>589.5714285714286</ele><time>2026-04-18T08:29:38.999Z</time></trkpt><trkpt lat="45.65532500359611" lon="11.324395312289251"><ele>589.8571428571429</ele><time>2026-04-18T08:29:41.998Z</time></trkpt><trkpt lat="45.6553511863563" lon="11.324494099048328"><ele>590.1428571428571</ele><time>2026-04-18T08:29:44.998Z</time></trkpt><trkpt lat="45.655379854110635" lon="11.324602591599154"><ele>590.4285714285714</ele><time>2026-04-18T08:29:48.998Z</time></trkpt><trkpt lat="45.655422924245684" lon="11.324676123830852"><ele>590.7142857142857</ele><time>2026-04-18T08:29:51.998Z</time></trkpt><trkpt lat="45.65547540707581" lon="11.324761757285989"><ele>591.0</ele><time>2026-04-18T08:29:54.998Z</time></trkpt><trkpt lat="45.65551220961141" lon="11.324864984719884"><ele>590.1428571428571</ele><time>2026-04-18T08:29:57.998Z</time></trkpt><trkpt lat="45.655519586281024" lon="11.324956551735108"><ele>589.2857142857143</ele><time>2026-04-18T08:30:00.998Z</time></trkpt><trkpt lat="45.65552084224131" lon="11.325050541111011"><ele>588.4285714285714</ele><time>2026-04-18T08:30:06.998Z</time></trkpt><trkpt lat="45.65556905595354" lon="11.325147373812046"><ele>587.5714285714286</ele><time>2026-04-18T08:30:12.998Z</time></trkpt><trkpt lat="45.65560075030197" lon="11.325234492093928"><ele>586.7142857142857</ele><time>2026-04-18T08:30:16.998Z</time></trkpt><trkpt lat="45.65563492926306" lon="11.325328439954559"><ele>585.8571428571429</ele><time>2026-04-18T08:30:20.997Z</time></trkpt><trkpt lat="45.65566899068141" lon="11.325417191244663"><ele>585.0</ele><time>2026-04-18T08:30:26.997Z</time></trkpt><trkpt lat="45.65569852340576" lon="11.325504285215144"><ele>587.6666666666666</ele><time>2026-04-18T08:30:32.997Z</time></trkpt><trkpt lat="45.65573534434325" lon="11.325580638432497"><ele>590.3333333333334</ele><time>2026-04-18T08:30:41.997Z</time></trkpt><trkpt lat="45.65575928996787" lon="11.325688519373175"><ele>593.0</ele><time>2026-04-18T08:30:48.997Z</time></trkpt><trkpt lat="45.65579224937529" lon="11.325861209776646"><ele>595.6666666666667</ele><time>2026-04-18T08:31:01.996Z</time></trkpt><trkpt lat="45.65582523881479" lon="11.325943363737714"><ele>598.3333333333334</ele><time>2026-04-18T08:31:10.996Z</time></trkpt><trkpt lat="45.655859279030395" lon="11.32603289149846"><ele>601.0</ele><time>2026-04-18T08:31:16.999Z</time></trkpt><trkpt lat="45.655900964035204" lon="11.326128582073386"><ele>601.0</ele><time>2026-04-18T08:31:21.999Z</time></trkpt><trkpt lat="45.655933515027485" lon="11.326219491476738"><ele>601.0</ele><time>2026-04-18T08:31:28.999Z</time></trkpt><trkpt lat="45.65597782422425" lon="11.326297566015556"><ele>601.0</ele><time>2026-04-18T08:31:37.999Z</time></trkpt><trkpt lat="45.65603849487626" lon="11.326385093702596"><ele>601.0</ele><time>2026-04-18T08:31:42.998Z</time></trkpt><trkpt lat="45.65610564745145" lon="11.326410109359863"><ele>601.0</ele><time>2026-04-18T08:31:48.998Z</time></trkpt><trkpt lat="45.65617455512067" lon="11.326391284424794"><ele>601.0</ele><time>2026-04-18T08:31:51.998Z</time></trkpt><trkpt lat="45.6562632677164" lon="11.326396755620895"><ele>601.1666666666667</ele><time>2026-04-18T08:31:56.998Z</time></trkpt><trkpt lat="45.65634182917353" lon="11.326385995308605"><ele>601.3333333333334</ele><time>2026-04-18T08:31:59.998Z</time></trkpt><trkpt lat="45.65642032082249" lon="11.326413762755383"><ele>601.5</ele><time>2026-04-18T08:32:02.998Z</time></trkpt><trkpt lat="45.65651306797599" lon="11.326406747546034"><ele>601.6666666666666</ele><time>2026-04-18T08:32:05.998Z</time></trkpt><trkpt lat="45.656584838806026" lon="11.326356889173761"><ele>601.8333333333333</ele><time>2026-04-18T08:32:08.998Z</time></trkpt><trkpt lat="45.65664015015333" lon="11.32629567755941"><ele>602.0</ele><time>2026-04-18T08:32:12.998Z</time></trkpt><trkpt lat="45.6567182976662" lon="11.326248751927027"><ele>602.0</ele><time>2026-04-18T08:32:15.998Z</time></trkpt><trkpt lat="45.65678206794829" lon="11.326185934335264"><ele>602.0</ele><time>2026-04-18T08:32:18.997Z</time></trkpt><trkpt lat="45.65685458908913" lon="11.326117315766664"><ele>602.0</ele><time>2026-04-18T08:32:21.997Z</time></trkpt><trkpt lat="45.65691572890887" lon="11.32604756649042"><ele>602.0</ele><time>2026-04-18T08:32:24.997Z</time></trkpt><trkpt lat="45.65698352598737" lon="11.326007968104335"><ele>602.0</ele><time>2026-04-18T08:32:27.997Z</time></trkpt><trkpt lat="45.65706015081103" lon="11.325940792139562"><ele>602.0</ele><time>2026-04-18T08:32:30.997Z</time></trkpt><trkpt lat="45.657129775490525" lon="11.32589309159974"><ele>604.4285714285714</ele><time>2026-04-18T08:32:34.997Z</time></trkpt><trkpt lat="45.65720518345697" lon="11.325871017873148"><ele>606.8571428571429</ele><time>2026-04-18T08:32:40.997Z</time></trkpt><trkpt lat="45.65728035749321" lon="11.325848210919169"><ele>609.2857142857142</ele><time>2026-04-18T08:32:45.997Z</time></trkpt><trkpt lat="45.657346461384826" lon="11.325819341148058"><ele>611.7142857142858</ele><time>2026-04-18T08:32:49.997Z</time></trkpt><trkpt lat="45.65740612659408" lon="11.325790007593678"><ele>614.1428571428571</ele><time>2026-04-18T08:32:52.997Z</time></trkpt><trkpt lat="45.657466790538045" lon="11.325757208993705"><ele>616.5714285714286</ele><time>2026-04-18T08:32:55.997Z</time></trkpt><trkpt lat="45.65754229577003" lon="11.325717305064915"><ele>619.0</ele><time>2026-04-18T08:32:58.996Z</time></trkpt><trkpt lat="45.65761385573037" lon="11.325675292463123"><ele>619.0</ele><time>2026-04-18T08:33:01.996Z</time></trkpt><trkpt lat="45.65769416160032" lon="11.32564545088916"><ele>619.0</ele><time>2026-04-18T08:33:04.996Z</time></trkpt><trkpt lat="45.65776427534147" lon="11.32560917466515"><ele>619.0</ele><time>2026-04-18T08:33:07.996Z</time></trkpt><trkpt lat="45.65782045909319" lon="11.325567152148311"><ele>619.0</ele><time>2026-04-18T08:33:10.996Z</time></trkpt><trkpt lat="45.65787491346287" lon="11.325490201793619"><ele>619.0</ele><time>2026-04-18T08:33:14.996Z</time></trkpt><trkpt lat="45.657942370642935" lon="11.325410827469865"><ele>619.0</ele><time>2026-04-18T08:33:18.999Z</time></trkpt><trkpt lat="45.65799220196119" lon="11.325345999458387"><ele>619.3333333333334</ele><time>2026-04-18T08:33:21Z</time></trkpt><trkpt lat="45.65806917480099" lon="11.325294036685372"><ele>619.6666666666667</ele><time>2026-04-18T08:33:23.999Z</time></trkpt><trkpt lat="45.658133891412454" lon="11.325260560113678"><ele>620.0</ele><time>2026-04-18T08:33:25.999Z</time></trkpt><trkpt lat="45.658207326193164" lon="11.325246040867688"><ele>620.3333333333334</ele><time>2026-04-18T08:33:28.999Z</time></trkpt><trkpt lat="45.6582825244282" lon="11.325240380598489"><ele>620.6666666666666</ele><time>2026-04-18T08:33:32.999Z</time></trkpt><trkpt lat="45.65835351878221" lon="11.325253867637736"><ele>621.0</ele><time>2026-04-18T08:33:35.999Z</time></trkpt><trkpt lat="45.658436458888396" lon="11.325249797527446"><ele>620.9999999999999</ele><time>2026-04-18T08:33:39.999Z</time></trkpt><trkpt lat="45.65850094303559" lon="11.325231863885245"><ele>621.0</ele><time>2026-04-18T08:33:42.998Z</time></trkpt><trkpt lat="45.65856682405735" lon="11.325216521103341"><ele>621.0</ele><time>2026-04-18T08:33:46.998Z</time></trkpt><trkpt lat="45.65863291251582" lon="11.325204250356222"><ele>621.0</ele><time>2026-04-18T08:33:49.998Z</time></trkpt><trkpt lat="45.65871468299606" lon="11.325196013560422"><ele>621.0</ele><time>2026-04-18T08:33:53.998Z</time></trkpt><trkpt lat="45.65878231364198" lon="11.325184765912038"><ele>620.9999999999999</ele><time>2026-04-18T08:33:58.998Z</time></trkpt><trkpt lat="45.65885487296575" lon="11.32516216131901"><ele>621.0</ele><time>2026-04-18T08:34:02.998Z</time></trkpt><trkpt lat="45.65891627858002" lon="11.325194836007002"><ele>621.1666666666666</ele><time>2026-04-18T08:34:05.998Z</time></trkpt><trkpt lat="45.65897111150951" lon="11.325246176156174"><ele>621.3333333333334</ele><time>2026-04-18T08:34:08.998Z</time></trkpt><trkpt lat="45.659046551159676" lon="11.325285120982691"><ele>621.5</ele><time>2026-04-18T08:34:13.998Z</time></trkpt><trkpt lat="45.65910440178259" lon="11.32533610169436"><ele>621.6666666666667</ele><time>2026-04-18T08:34:16.998Z</time></trkpt><trkpt lat="45.65917902786564" lon="11.325378603191174"><ele>621.8333333333334</ele><time>2026-04-18T08:34:20.998Z</time></trkpt><trkpt lat="45.65925968754722" lon="11.325399187257986"><ele>622.0</ele><time>2026-04-18T08:34:24.997Z</time></trkpt><trkpt lat="45.659339187005045" lon="11.325416105161164"><ele>622.0</ele><time>2026-04-18T08:34:28.997Z</time></trkpt><trkpt lat="45.65940566661806" lon="11.325436765146161"><ele>622.0</ele><time>2026-04-18T08:34:35.997Z</time></trkpt><trkpt lat="45.6594692204086" lon="11.325441078108826"><ele>622.0</ele><time>2026-04-18T08:34:43.997Z</time></trkpt><trkpt lat="45.65953126600545" lon="11.325496121315515"><ele>622.0</ele><time>2026-04-18T08:34:47.997Z</time></trkpt><trkpt lat="45.659597283074405" lon="11.325562631643344"><ele>622.0</ele><time>2026-04-18T08:34:52.997Z</time></trkpt><trkpt lat="45.6596714729216" lon="11.325577429641438"><ele>622.0</ele><time>2026-04-18T08:34:55.997Z</time></trkpt><trkpt lat="45.65974184496613" lon="11.325620625066295"><ele>622.0</ele><time>2026-04-18T08:34:59.997Z</time></trkpt><trkpt lat="45.65981771721085" lon="11.325656605115148"><ele>625.5714285714286</ele><time>2026-04-18T08:35:06.996Z</time></trkpt><trkpt lat="45.65989233688557" lon="11.325687864475215"><ele>629.1428571428572</ele><time>2026-04-18T08:35:10.996Z</time></trkpt><trkpt lat="45.65995665808551" lon="11.325726762075682"><ele>632.7142857142858</ele><time>2026-04-18T08:35:17.996Z</time></trkpt><trkpt lat="45.66000824299514" lon="11.325801724432218"><ele>636.2857142857142</ele><time>2026-04-18T08:35:22.996Z</time></trkpt><trkpt lat="45.6600605478558" lon="11.325871184836062"><ele>639.8571428571429</ele><time>2026-04-18T08:35:26.999Z</time></trkpt><trkpt lat="45.66011948109046" lon="11.32593707389378"><ele>643.4285714285714</ele><time>2026-04-18T08:35:30.999Z</time></trkpt><trkpt lat="45.66017394891676" lon="11.326000023871096"><ele>647.0</ele><time>2026-04-18T08:35:33.999Z</time></trkpt><trkpt lat="45.66023391678138" lon="11.326065202937302"><ele>647.0</ele><time>2026-04-18T08:35:36.999Z</time></trkpt><trkpt lat="45.66023170618586" lon="11.32615656516081"><ele>647.0</ele><time>2026-04-18T08:35:41.999Z</time></trkpt><trkpt lat="45.66024975606822" lon="11.326243384836244"><ele>647.0</ele><time>2026-04-18T08:35:44.999Z</time></trkpt><trkpt lat="45.66028654242659" lon="11.32633821867787"><ele>647.0</ele><time>2026-04-18T08:35:47.999Z</time></trkpt><trkpt lat="45.66030389579769" lon="11.326429474793422"><ele>647.0</ele><time>2026-04-18T08:35:50.999Z</time></trkpt><trkpt lat="45.6603379558458" lon="11.326527997506622"><ele>647.0</ele><time>2026-04-18T08:35:53.999Z</time></trkpt><trkpt lat="45.66038402562534" lon="11.326615581976986"><ele>647.0</ele><time>2026-04-18T08:35:56.999Z</time></trkpt><trkpt lat="45.66044378355482" lon="11.326702235090647"><ele>647.0</ele><time>2026-04-18T08:35:59.998Z</time></trkpt><trkpt lat="45.66050004242433" lon="11.326796761113487"><ele>647.0</ele><time>2026-04-18T08:36:02.998Z</time></trkpt><trkpt lat="45.66053367686291" lon="11.326879268770265"><ele>647.0</ele><time>2026-04-18T08:36:04.998Z</time></trkpt><trkpt lat="45.66058371831372" lon="11.326958483259451"><ele>647.0</ele><time>2026-04-18T08:36:07.998Z</time></trkpt><trkpt lat="45.66063069028892" lon="11.327037375841968"><ele>647.0</ele><time>2026-04-18T08:36:10.998Z</time></trkpt><trkpt lat="45.660672162977725" lon="11.32711688871403"><ele>647.0</ele><time>2026-04-18T08:36:13.998Z</time></trkpt><trkpt lat="45.66070968329027" lon="11.327213687975414"><ele>647.0</ele><time>2026-04-18T08:36:16.998Z</time></trkpt><trkpt lat="45.66073692554604" lon="11.327313487401954"><ele>648.0</ele><time>2026-04-18T08:36:19.998Z</time></trkpt><trkpt lat="45.66077559381548" lon="11.327386066522532"><ele>649.0</ele><time>2026-04-18T08:36:22.998Z</time></trkpt><trkpt lat="45.660773736838614" lon="11.327502751793569"><ele>650.0</ele><time>2026-04-18T08:36:26.998Z</time></trkpt><trkpt lat="45.660765860799486" lon="11.327600303006852"><ele>651.0</ele><time>2026-04-18T08:36:31.998Z</time></trkpt><trkpt lat="45.66073272284474" lon="11.327707331065797"><ele>652.0</ele><time>2026-04-18T08:36:36.998Z</time></trkpt><trkpt lat="45.66072958120401" lon="11.327809208192235"><ele>653.0</ele><time>2026-04-18T08:36:43.997Z</time></trkpt><trkpt lat="45.660762766838396" lon="11.327895675827202"><ele>654.0</ele><time>2026-04-18T08:36:53.997Z</time></trkpt><trkpt lat="45.66084210163585" lon="11.327950064695646"><ele>654.0</ele><time>2026-04-18T08:36:57.997Z</time></trkpt><trkpt lat="45.660912910106546" lon="11.327994052521309"><ele>654.0</ele><time>2026-04-18T08:37:02.997Z</time></trkpt><trkpt lat="45.66097116218653" lon="11.328054078193437"><ele>654.0</ele><time>2026-04-18T08:37:05.997Z</time></trkpt><trkpt lat="45.66104557464059" lon="11.328085037441019"><ele>654.0</ele><time>2026-04-18T08:37:09.997Z</time></trkpt><trkpt lat="45.66110569841761" lon="11.328112995189604"><ele>654.0</ele><time>2026-04-18T08:37:13.997Z</time></trkpt><trkpt lat="45.66118887743079" lon="11.328106277641622"><ele>654.0</ele><time>2026-04-18T08:37:17.996Z</time></trkpt><trkpt lat="45.66125415586994" lon="11.328088007248835"><ele>654.0</ele><time>2026-04-18T08:37:20.996Z</time></trkpt><trkpt lat="45.66131869390615" lon="11.328030998220143"><ele>654.5</ele><time>2026-04-18T08:37:24.996Z</time></trkpt><trkpt lat="45.661383299423" lon="11.327998874413167"><ele>655.0</ele><time>2026-04-18T08:37:28.996Z</time></trkpt><trkpt lat="45.661451572121756" lon="11.327964831724953"><ele>655.5</ele><time>2026-04-18T08:37:33.999Z</time></trkpt><trkpt lat="45.66152388475313" lon="11.327941142610507"><ele>656.0</ele><time>2026-04-18T08:37:39.998Z</time></trkpt><trkpt lat="45.66159629322994" lon="11.327935407253575"><ele>656.5</ele><time>2026-04-18T08:37:48.998Z</time></trkpt><trkpt lat="45.661650644387905" lon="11.327993055120078"><ele>657.0</ele><time>2026-04-18T08:38:02.998Z</time></trkpt><trkpt lat="45.66172851358222" lon="11.32809818261991"><ele>659.8571428571428</ele><time>2026-04-18T08:38:24.998Z</time></trkpt><trkpt lat="45.66176103558202" lon="11.328183110965753"><ele>662.7142857142858</ele><time>2026-04-18T08:38:29.997Z</time></trkpt><trkpt lat="45.66182501411514" lon="11.328193084044583"><ele>665.5714285714286</ele><time>2026-04-18T08:39:02.997Z</time></trkpt><trkpt lat="45.66189788102212" lon="11.328176051620387"><ele>668.4285714285713</ele><time>2026-04-18T08:39:13.996Z</time></trkpt><trkpt lat="45.66197051003314" lon="11.328149090772127"><ele>671.2857142857142</ele><time>2026-04-18T08:39:21.996Z</time></trkpt><trkpt lat="45.662010809468605" lon="11.328232823850929"><ele>674.1428571428571</ele><time>2026-04-18T08:39:41.998Z</time></trkpt><trkpt lat="45.66197319233376" lon="11.328313606563809"><ele>677.0</ele><time>2026-04-18T08:39:49.999Z</time></trkpt><trkpt lat="45.661943331162256" lon="11.328395980874847"><ele>676.9999999999999</ele><time>2026-04-18T08:39:57.998Z</time></trkpt><trkpt lat="45.66191828476438" lon="11.328482675336273"><ele>677.0</ele><time>2026-04-18T08:40:04.998Z</time></trkpt><trkpt lat="45.66187700966985" lon="11.328551501147405"><ele>677.0</ele><time>2026-04-18T08:40:12.998Z</time></trkpt><trkpt lat="45.661817918486456" lon="11.328597916730061"><ele>677.0</ele><time>2026-04-18T08:40:18.998Z</time></trkpt><trkpt lat="45.66176375296792" lon="11.32867976621069"><ele>677.0</ele><time>2026-04-18T08:40:26.998Z</time></trkpt><trkpt lat="45.661705921423504" lon="11.328718425389225"><ele>676.9999999999999</ele><time>2026-04-18T08:40:32.997Z</time></trkpt><trkpt lat="45.661672361239276" lon="11.328806685756426"><ele>677.0</ele><time>2026-04-18T08:40:39.997Z</time></trkpt><trkpt lat="45.66164267580083" lon="11.32891287365877"><ele>680.4285714285713</ele><time>2026-04-18T08:40:44.997Z</time></trkpt><trkpt lat="45.66160168666265" lon="11.328985106826897"><ele>683.8571428571429</ele><time>2026-04-18T08:40:50.997Z</time></trkpt><trkpt lat="45.66157606574451" lon="11.329077122794875"><ele>687.2857142857142</ele><time>2026-04-18T08:40:57.997Z</time></trkpt><trkpt lat="45.661529027278064" lon="11.329146892799379"><ele>690.7142857142857</ele><time>2026-04-18T08:41:01.997Z</time></trkpt><trkpt lat="45.661495028394675" lon="11.32923032106763"><ele>694.1428571428571</ele><time>2026-04-18T08:41:07.997Z</time></trkpt><trkpt lat="45.66146318950522" lon="11.329317356192982"><ele>697.5714285714286</ele><time>2026-04-18T08:41:13.996Z</time></trkpt><trkpt lat="45.66138915876232" lon="11.329378255844865"><ele>701.0</ele><time>2026-04-18T08:41:17.996Z</time></trkpt><trkpt lat="45.66132173186384" lon="11.329418490619611"><ele>701.0</ele><time>2026-04-18T08:41:20.996Z</time></trkpt><trkpt lat="45.66124348486572" lon="11.32946253149337"><ele>701.0</ele><time>2026-04-18T08:41:23.996Z</time></trkpt><trkpt lat="45.661176374104805" lon="11.329496484408757"><ele>701.0</ele><time>2026-04-18T08:41:25.996Z</time></trkpt><trkpt lat="45.66111633976962" lon="11.329528869248476"><ele>701.0</ele><time>2026-04-18T08:41:27.996Z</time></trkpt><trkpt lat="45.66105076440451" lon="11.329563408221238"><ele>701.0</ele><time>2026-04-18T08:41:29.996Z</time></trkpt><trkpt lat="45.660975857347765" lon="11.329609163884355"><ele>701.0</ele><time>2026-04-18T08:41:31.996Z</time></trkpt><trkpt lat="45.66091744472959" lon="11.329645417683594"><ele>701.0</ele><time>2026-04-18T08:41:33.996Z</time></trkpt><trkpt lat="45.66085373776399" lon="11.32968443923341"><ele>700.5</ele><time>2026-04-18T08:41:35.996Z</time></trkpt><trkpt lat="45.6607832522188" lon="11.329722734289637"><ele>700.0</ele><time>2026-04-18T08:41:37.996Z</time></trkpt><trkpt lat="45.66070223366298" lon="11.329783171226502"><ele>699.5</ele><time>2026-04-18T08:41:40.999Z</time></trkpt><trkpt lat="45.660621243624476" lon="11.329863212659122"><ele>699.0</ele><time>2026-04-18T08:41:43.999Z</time></trkpt><trkpt lat="45.660554291186614" lon="11.329904849529598"><ele>698.5</ele><time>2026-04-18T08:41:45.998Z</time></trkpt><trkpt lat="45.66049213260065" lon="11.329939055477237"><ele>698.0</ele><time>2026-04-18T08:41:47.999Z</time></trkpt><trkpt lat="45.660427929101914" lon="11.32997884743585"><ele>697.9999999999999</ele><time>2026-04-18T08:41:49.998Z</time></trkpt><trkpt lat="45.66036060425835" lon="11.329999570338314"><ele>698.0</ele><time>2026-04-18T08:41:51.999Z</time></trkpt><trkpt lat="45.660290454317895" lon="11.330008393255374"><ele>698.0</ele><time>2026-04-18T08:41:53.998Z</time></trkpt><trkpt lat="45.66022555517327" lon="11.330019796377844"><ele>698.0</ele><time>2026-04-18T08:41:55.998Z</time></trkpt><trkpt lat="45.66015542042808" lon="11.33003973320206"><ele>698.0</ele><time>2026-04-18T08:41:57.998Z</time></trkpt><trkpt lat="45.66008126346708" lon="11.33005183352416"><ele>697.9999999999999</ele><time>2026-04-18T08:42:00.998Z</time></trkpt><trkpt lat="45.66000633784" lon="11.330061105145584"><ele>698.0</ele><time>2026-04-18T08:42:03.998Z</time></trkpt><trkpt lat="45.6599308443729" lon="11.330093921771974"><ele>698.5</ele><time>2026-04-18T08:42:06.998Z</time></trkpt><trkpt lat="45.65985930834138" lon="11.330090862597967"><ele>699.0</ele><time>2026-04-18T08:42:09.998Z</time></trkpt><trkpt lat="45.65979444271799" lon="11.330089143277808"><ele>699.5</ele><time>2026-04-18T08:42:12.998Z</time></trkpt><trkpt lat="45.65971834027318" lon="11.330055201292147"><ele>700.0</ele><time>2026-04-18T08:42:16.998Z</time></trkpt><trkpt lat="45.65963342313418" lon="11.330008956695638"><ele>700.5</ele><time>2026-04-18T08:42:20.998Z</time></trkpt><trkpt lat="45.659567290530006" lon="11.329960906313806"><ele>701.0</ele><time>2026-04-18T08:42:23.998Z</time></trkpt><trkpt lat="45.65949557542999" lon="11.329956533343873"><ele>701.8333333333333</ele><time>2026-04-18T08:42:26.997Z</time></trkpt><trkpt lat="45.65943176964804" lon="11.329956053678124"><ele>702.6666666666666</ele><time>2026-04-18T08:42:29.997Z</time></trkpt><trkpt lat="45.65933971877039" lon="11.329963869788914"><ele>703.5</ele><time>2026-04-18T08:42:43.997Z</time></trkpt><trkpt lat="45.659249456964744" lon="11.329956862021502"><ele>704.3333333333334</ele><time>2026-04-18T08:42:47.997Z</time></trkpt><trkpt lat="45.659178802922455" lon="11.329958152981565"><ele>705.1666666666667</ele><time>2026-04-18T08:42:49.997Z</time></trkpt><trkpt lat="45.65910844370616" lon="11.3299955093502"><ele>706.0</ele><time>2026-04-18T08:42:53.997Z</time></trkpt><trkpt lat="45.65904322177247" lon="11.3300694405855"><ele>706.0</ele><time>2026-04-18T08:42:56.997Z</time></trkpt><trkpt lat="45.65898336963866" lon="11.330146244091345"><ele>706.0</ele><time>2026-04-18T08:42:59.997Z</time></trkpt><trkpt lat="45.65892345314996" lon="11.330210018182"><ele>706.0</ele><time>2026-04-18T08:43:02.997Z</time></trkpt><trkpt lat="45.65885228524277" lon="11.33024744381368"><ele>706.0</ele><time>2026-04-18T08:43:06.996Z</time></trkpt><trkpt lat="45.65878831327807" lon="11.330276357359306"><ele>706.0</ele><time>2026-04-18T08:43:10.996Z</time></trkpt><trkpt lat="45.65871937627634" lon="11.330276420135116"><ele>706.0</ele><time>2026-04-18T08:43:14.996Z</time></trkpt><trkpt lat="45.65865779513448" lon="11.330246806649408"><ele>706.0</ele><time>2026-04-18T08:43:27.996Z</time></trkpt><trkpt lat="45.65858421178112" lon="11.330259770571192"><ele>706.3333333333334</ele><time>2026-04-18T08:43:31.996Z</time></trkpt><trkpt lat="45.65850561576064" lon="11.330260353432216"><ele>706.6666666666667</ele><time>2026-04-18T08:43:36.996Z</time></trkpt><trkpt lat="45.65844223983971" lon="11.330238450503632"><ele>707.0</ele><time>2026-04-18T08:43:40.996Z</time></trkpt><trkpt lat="45.65835916145211" lon="11.330281227186765"><ele>707.3333333333334</ele><time>2026-04-18T08:43:44.996Z</time></trkpt><trkpt lat="45.65828298906372" lon="11.330326963518832"><ele>707.6666666666666</ele><time>2026-04-18T08:43:47.998Z</time></trkpt><trkpt lat="45.65822725568307" lon="11.330384348810362"><ele>708.0</ele><time>2026-04-18T08:43:50.999Z</time></trkpt><trkpt lat="45.658171049181824" lon="11.330446348378876"><ele>708.0</ele><time>2026-04-18T08:43:53.998Z</time></trkpt><trkpt lat="45.65810644691098" lon="11.330507865640683"><ele>708.0</ele><time>2026-04-18T08:43:57.998Z</time></trkpt><trkpt lat="45.65803807207817" lon="11.330526161929114"><ele>708.0</ele><time>2026-04-18T08:44:00.998Z</time></trkpt><trkpt lat="45.65797123873754" lon="11.330536208501636"><ele>708.0</ele><time>2026-04-18T08:44:03.998Z</time></trkpt><trkpt lat="45.65790777436772" lon="11.330557310763355"><ele>708.0</ele><time>2026-04-18T08:44:06.998Z</time></trkpt><trkpt lat="45.657842917060776" lon="11.330574547963911"><ele>708.0</ele><time>2026-04-18T08:44:09.998Z</time></trkpt><trkpt lat="45.65777369391122" lon="11.33058071869726"><ele>708.0</ele><time>2026-04-18T08:44:15.998Z</time></trkpt><trkpt lat="45.65771063410149" lon="11.330571122081905"><ele>711.2857142857143</ele><time>2026-04-18T08:44:22.998Z</time></trkpt><trkpt lat="45.6576378370797" lon="11.330581189007528"><ele>714.5714285714286</ele><time>2026-04-18T08:44:28.998Z</time></trkpt><trkpt lat="45.657561959484724" lon="11.330608756710863"><ele>717.8571428571429</ele><time>2026-04-18T08:44:36.998Z</time></trkpt><trkpt lat="45.6574987391345" lon="11.330608221687578"><ele>721.1428571428571</ele><time>2026-04-18T08:44:41.997Z</time></trkpt><trkpt lat="45.65741980978764" lon="11.330621033173228"><ele>724.4285714285713</ele><time>2026-04-18T08:44:50.997Z</time></trkpt><trkpt lat="45.65735701399343" lon="11.330635650795784"><ele>727.7142857142857</ele><time>2026-04-18T08:44:57.997Z</time></trkpt><trkpt lat="45.65729337491118" lon="11.330639927132015"><ele>731.0</ele><time>2026-04-18T08:45:04.997Z</time></trkpt><trkpt lat="45.657228071972035" lon="11.330634258086485"><ele>731.0</ele><time>2026-04-18T08:45:14.997Z</time></trkpt><trkpt lat="45.657161603979276" lon="11.330627293633535"><ele>731.0</ele><time>2026-04-18T08:45:20.996Z</time></trkpt><trkpt lat="45.657098044396385" lon="11.330642515071986"><ele>731.0</ele><time>2026-04-18T08:45:28.996Z</time></trkpt><trkpt lat="45.65704141752417" lon="11.330685455489496"><ele>731.0</ele><time>2026-04-18T08:45:34.996Z</time></trkpt><trkpt lat="45.65697841813555" lon="11.330724274462463"><ele>731.0</ele><time>2026-04-18T08:45:40.996Z</time></trkpt><trkpt lat="45.656911709430055" lon="11.330724377145328"><ele>731.0</ele><time>2026-04-18T08:45:47.996Z</time></trkpt><trkpt lat="45.65699499568198" lon="11.33078371522518"><ele>731.0</ele><time>2026-04-18T08:46:11.999Z</time></trkpt><trkpt lat="45.656946799597826" lon="11.330846785674366"><ele>733.1666666666666</ele><time>2026-04-18T08:46:33.998Z</time></trkpt><trkpt lat="45.65686977635779" lon="11.330947087358382"><ele>735.3333333333333</ele><time>2026-04-18T08:46:54.997Z</time></trkpt><trkpt lat="45.65681532940202" lon="11.330997534983345"><ele>737.5</ele><time>2026-04-18T08:47:07.997Z</time></trkpt><trkpt lat="45.65676221288131" lon="11.331063014971624"><ele>739.6666666666666</ele><time>2026-04-18T08:47:25.997Z</time></trkpt><trkpt lat="45.65670866275468" lon="11.331136046816214"><ele>741.8333333333334</ele><time>2026-04-18T08:47:31.997Z</time></trkpt><trkpt lat="45.65664921180234" lon="11.331184028650702"><ele>744.0</ele><time>2026-04-18T08:47:46.996Z</time></trkpt><trkpt lat="45.65658495714422" lon="11.331235463222539"><ele>744.0000000000001</ele><time>2026-04-18T08:47:54.996Z</time></trkpt><trkpt lat="45.65651095298801" lon="11.331274904384518"><ele>744.0</ele><time>2026-04-18T08:47:59.998Z</time></trkpt><trkpt lat="45.656441242561314" lon="11.331304875304404"><ele>744.0</ele><time>2026-04-18T08:48:03.999Z</time></trkpt><trkpt lat="45.656379342300156" lon="11.331331898243878"><ele>744.0</ele><time>2026-04-18T08:48:08.998Z</time></trkpt><trkpt lat="45.65630090995527" lon="11.33132905660616"><ele>744.0</ele><time>2026-04-18T08:48:14.998Z</time></trkpt><trkpt lat="45.65623760442159" lon="11.331356783807298"><ele>744.0000000000001</ele><time>2026-04-18T08:48:17.998Z</time></trkpt><trkpt lat="45.65616469655026" lon="11.331371432000104"><ele>744.0</ele><time>2026-04-18T08:48:22.998Z</time></trkpt><trkpt lat="45.65610162764487" lon="11.331379168420476"><ele>745.1428571428572</ele><time>2026-04-18T08:48:25.998Z</time></trkpt><trkpt lat="45.65603910668758" lon="11.331390484517073"><ele>746.2857142857143</ele><time>2026-04-18T08:48:29.997Z</time></trkpt><trkpt lat="45.65597159569624" lon="11.331377015789343"><ele>747.4285714285714</ele><time>2026-04-18T08:48:33.997Z</time></trkpt><trkpt lat="45.65590258997366" lon="11.331372683421467"><ele>748.5714285714287</ele><time>2026-04-18T08:48:36.997Z</time></trkpt><trkpt lat="45.65584289852904" lon="11.331305919588866"><ele>749.7142857142857</ele><time>2026-04-18T08:48:41.997Z</time></trkpt><trkpt lat="45.65579002019371" lon="11.331222505655612"><ele>750.8571428571429</ele><time>2026-04-18T08:48:44.997Z</time></trkpt><trkpt lat="45.65576243901475" lon="11.331133694123665"><ele>752.0</ele><time>2026-04-18T08:48:47.997Z</time></trkpt><trkpt lat="45.65573131269497" lon="11.331033827120715"><ele>752.0</ele><time>2026-04-18T08:48:51.997Z</time></trkpt><trkpt lat="45.65567285803621" lon="11.330979868372296"><ele>752.0</ele><time>2026-04-18T08:48:54.997Z</time></trkpt><trkpt lat="45.65561414651153" lon="11.330921367867493"><ele>752.0</ele><time>2026-04-18T08:48:58.997Z</time></trkpt><trkpt lat="45.6555479165141" lon="11.33092375079882"><ele>752.0</ele><time>2026-04-18T08:49:01.997Z</time></trkpt><trkpt lat="45.65548445232217" lon="11.330884409449526"><ele>752.0</ele><time>2026-04-18T08:49:05.997Z</time></trkpt><trkpt lat="45.65542466046842" lon="11.33084821636845"><ele>752.0</ele><time>2026-04-18T08:49:09.996Z</time></trkpt><trkpt lat="45.65535178621466" lon="11.330829122734063"><ele>752.0</ele><time>2026-04-18T08:49:12.996Z</time></trkpt><trkpt lat="45.65526958434494" lon="11.330784796811502"><ele>753.1666666666666</ele><time>2026-04-18T08:49:16.996Z</time></trkpt><trkpt lat="45.655210389210886" lon="11.330718422063159"><ele>754.3333333333333</ele><time>2026-04-18T08:49:19.996Z</time></trkpt><trkpt lat="45.65513338810136" lon="11.330681765921515"><ele>755.5</ele><time>2026-04-18T08:49:22.996Z</time></trkpt><trkpt lat="45.65507194461348" lon="11.330631015077287"><ele>756.6666666666666</ele><time>2026-04-18T08:49:27.996Z</time></trkpt><trkpt lat="45.655007591347186" lon="11.330544635735473"><ele>757.8333333333334</ele><time>2026-04-18T08:49:32.996Z</time></trkpt><trkpt lat="45.654935491231555" lon="11.330479119290926"><ele>759.0</ele><time>2026-04-18T08:49:36.996Z</time></trkpt><trkpt lat="45.654879791262964" lon="11.330432855771218"><ele>755.5</ele><time>2026-04-18T08:49:40.996Z</time></trkpt><trkpt lat="45.65480807055613" lon="11.330365044998096"><ele>752.0</ele><time>2026-04-18T08:49:44.996Z</time></trkpt><trkpt lat="45.65474006874796" lon="11.33029593603854"><ele>748.5</ele><time>2026-04-18T08:49:48.995Z</time></trkpt><trkpt lat="45.65468329680889" lon="11.330256241926882"><ele>745.0</ele><time>2026-04-18T08:49:51.995Z</time></trkpt><trkpt lat="45.65463834275422" lon="11.33018296455552"><ele>741.5</ele><time>2026-04-18T08:49:54.995Z</time></trkpt><trkpt lat="45.65457011898926" lon="11.330137589133276"><ele>738.0</ele><time>2026-04-18T08:49:58.995Z</time></trkpt><trkpt lat="45.65450737570748" lon="11.330078785027204"><ele>739.7142857142857</ele><time>2026-04-18T08:50:02.995Z</time></trkpt><trkpt lat="45.654449448276324" lon="11.330037526441243"><ele>741.4285714285713</ele><time>2026-04-18T08:50:06.998Z</time></trkpt><trkpt lat="45.6543892049431" lon="11.329994141030536"><ele>743.1428571428571</ele><time>2026-04-18T08:50:09.998Z</time></trkpt><trkpt lat="45.65432598526222" lon="11.32993011291384"><ele>744.8571428571429</ele><time>2026-04-18T08:50:13.998Z</time></trkpt><trkpt lat="45.65426439565503" lon="11.32988405633547"><ele>746.5714285714286</ele><time>2026-04-18T08:50:17.999Z</time></trkpt><trkpt lat="45.65420787641918" lon="11.329817742896845"><ele>748.2857142857143</ele><time>2026-04-18T08:50:22.998Z</time></trkpt><trkpt lat="45.65414160602567" lon="11.329780331270419"><ele>750.0</ele><time>2026-04-18T08:50:27.998Z</time></trkpt><trkpt lat="45.65408537439551" lon="11.329725608560217"><ele>750.0</ele><time>2026-04-18T08:50:31.998Z</time></trkpt><trkpt lat="45.6540034530359" lon="11.329729141033795"><ele>750.0</ele><time>2026-04-18T08:50:34.998Z</time></trkpt><trkpt lat="45.65393893863305" lon="11.329750461418627"><ele>750.0</ele><time>2026-04-18T08:50:38.998Z</time></trkpt><trkpt lat="45.65387438109131" lon="11.329682746874457"><ele>750.0</ele><time>2026-04-18T08:50:45.998Z</time></trkpt><trkpt lat="45.653834002364064" lon="11.329587913937978"><ele>750.0</ele><time>2026-04-18T08:50:49.998Z</time></trkpt><trkpt lat="45.65380055040072" lon="11.329505622013212"><ele>750.0</ele><time>2026-04-18T08:50:53.998Z</time></trkpt><trkpt lat="45.65376331691325" lon="11.329430231954287"><ele>750.0</ele><time>2026-04-18T08:50:59.998Z</time></trkpt><trkpt lat="45.65371610384225" lon="11.329367223935149"><ele>749.5714285714286</ele><time>2026-04-18T08:51:02.997Z</time></trkpt><trkpt lat="45.65365317558461" lon="11.329325169485221"><ele>749.1428571428571</ele><time>2026-04-18T08:51:06.997Z</time></trkpt><trkpt lat="45.65357922683491" lon="11.329298665448906"><ele>748.7142857142857</ele><time>2026-04-18T08:51:12.997Z</time></trkpt><trkpt lat="45.65351035364371" lon="11.32927440257627"><ele>748.2857142857142</ele><time>2026-04-18T08:51:18.997Z</time></trkpt><trkpt lat="45.653443541911884" lon="11.329225915547918"><ele>747.8571428571429</ele><time>2026-04-18T08:51:23.997Z</time></trkpt><trkpt lat="45.65338194370221" lon="11.329200962978831"><ele>747.4285714285713</ele><time>2026-04-18T08:51:26.997Z</time></trkpt><trkpt lat="45.65331709638457" lon="11.329207351192304"><ele>747.0</ele><time>2026-04-18T08:51:31.997Z</time></trkpt><trkpt lat="45.653242724674314" lon="11.32919057907012"><ele>746.9999999999999</ele><time>2026-04-18T08:51:37.997Z</time></trkpt><trkpt lat="45.65318373736956" lon="11.329154446267571"><ele>747.0</ele><time>2026-04-18T08:51:47.996Z</time></trkpt><trkpt lat="45.653112662679845" lon="11.329156414124222"><ele>747.0</ele><time>2026-04-18T08:51:57.996Z</time></trkpt><trkpt lat="45.653047651970596" lon="11.32919407147465"><ele>747.0</ele><time>2026-04-18T08:52:06.996Z</time></trkpt><trkpt lat="45.65297437049714" lon="11.329188314828842"><ele>747.0</ele><time>2026-04-18T08:52:12.998Z</time></trkpt><trkpt lat="45.6529005423627" lon="11.329178828574364"><ele>746.9999999999999</ele><time>2026-04-18T08:52:22.998Z</time></trkpt><trkpt lat="45.652836290464435" lon="11.329148905102215"><ele>747.0</ele><time>2026-04-18T08:52:27.998Z</time></trkpt><trkpt lat="45.65276631236104" lon="11.329137354873117"><ele>747.6666666666666</ele><time>2026-04-18T08:52:35.998Z</time></trkpt><trkpt lat="45.65270337171453" lon="11.329133311522256"><ele>748.3333333333334</ele><time>2026-04-18T08:52:40.998Z</time></trkpt><trkpt lat="45.652624003264016" lon="11.329113097564315"><ele>749.0</ele><time>2026-04-18T08:52:47.998Z</time></trkpt><trkpt lat="45.65252777413018" lon="11.329101363150992"><ele>749.6666666666667</ele><time>2026-04-18T08:52:58.998Z</time></trkpt><trkpt lat="45.65245982128526" lon="11.329119017424496"><ele>750.3333333333334</ele><time>2026-04-18T08:53:02.997Z</time></trkpt><trkpt lat="45.652380087735814" lon="11.32908264460782"><ele>751.0</ele><time>2026-04-18T08:53:08.997Z</time></trkpt><trkpt lat="45.652322473094706" lon="11.329044544843851"><ele>751.0000000000001</ele><time>2026-04-18T08:53:12.997Z</time></trkpt><trkpt lat="45.652256966664524" lon="11.32906265749265"><ele>751.0</ele><time>2026-04-18T08:53:15.997Z</time></trkpt><trkpt lat="45.652188243677145" lon="11.329064887731711"><ele>751.0</ele><time>2026-04-18T08:53:18.997Z</time></trkpt><trkpt lat="45.65211284102297" lon="11.329075516500328"><ele>751.0</ele><time>2026-04-18T08:53:22.997Z</time></trkpt><trkpt lat="45.65204328161368" lon="11.329112361727153"><ele>751.0</ele><time>2026-04-18T08:53:26.997Z</time></trkpt><trkpt lat="45.651974996929454" lon="11.32913119304224"><ele>751.0000000000001</ele><time>2026-04-18T08:53:36.997Z</time></trkpt><trkpt lat="45.65190678174366" lon="11.329149183906072"><ele>751.0</ele><time>2026-04-18T08:53:39.997Z</time></trkpt><trkpt lat="45.65183290120093" lon="11.329189072407178"><ele>749.1428571428572</ele><time>2026-04-18T08:53:45.996Z</time></trkpt><trkpt lat="45.65179914239695" lon="11.32928872318166"><ele>747.2857142857143</ele><time>2026-04-18T08:53:50.996Z</time></trkpt><trkpt lat="45.651739029257485" lon="11.32935976970149"><ele>745.4285714285714</ele><time>2026-04-18T08:53:54.996Z</time></trkpt><trkpt lat="45.651712631987884" lon="11.329444369576281"><ele>743.5714285714287</ele><time>2026-04-18T08:54:00.996Z</time></trkpt><trkpt lat="45.65171909176702" lon="11.329536151231085"><ele>741.7142857142857</ele><time>2026-04-18T08:54:05.996Z</time></trkpt><trkpt lat="45.65165243761302" lon="11.329583391575877"><ele>739.8571428571429</ele><time>2026-04-18T08:54:11.996Z</time></trkpt><trkpt lat="45.651583669816645" lon="11.32963163276976"><ele>738.0</ele><time>2026-04-18T08:54:15.998Z</time></trkpt><trkpt lat="45.65152512367428" lon="11.329681142336456"><ele>739.4285714285714</ele><time>2026-04-18T08:54:21.997Z</time></trkpt><trkpt lat="45.65147350999227" lon="11.32973906983819"><ele>740.8571428571429</ele><time>2026-04-18T08:54:27.997Z</time></trkpt><trkpt lat="45.65142358841069" lon="11.32979401608036"><ele>742.2857142857142</ele><time>2026-04-18T08:54:30.998Z</time></trkpt><trkpt lat="45.65136935835342" lon="11.32986539211178"><ele>743.7142857142858</ele><time>2026-04-18T08:54:35.998Z</time></trkpt><trkpt lat="45.65132164241909" lon="11.329945521864214"><ele>745.1428571428572</ele><time>2026-04-18T08:54:44.998Z</time></trkpt><trkpt lat="45.65126749810489" lon="11.32999908904289"><ele>746.5714285714286</ele><time>2026-04-18T08:54:54.998Z</time></trkpt><trkpt lat="45.65123234774618" lon="11.330100931864111"><ele>748.0</ele><time>2026-04-18T08:55:02.998Z</time></trkpt><trkpt lat="45.65120256682949" lon="11.330187925894565"><ele>748.0</ele><time>2026-04-18T08:55:09.997Z</time></trkpt><trkpt lat="45.651172342916986" lon="11.330269692055198"><ele>748.0</ele><time>2026-04-18T08:55:17.997Z</time></trkpt><trkpt lat="45.65114607212959" lon="11.330366875164813"><ele>748.0</ele><time>2026-04-18T08:55:21.997Z</time></trkpt><trkpt lat="45.651145346130654" lon="11.330472589892196"><ele>748.0</ele><time>2026-04-18T08:55:25.997Z</time></trkpt><trkpt lat="45.65113723682557" lon="11.330566821142346"><ele>748.0</ele><time>2026-04-18T08:55:29.997Z</time></trkpt><trkpt lat="45.65108429917549" lon="11.330666004051366"><ele>748.0</ele><time>2026-04-18T08:55:33.997Z</time></trkpt><trkpt lat="45.65106433630597" lon="11.330780130732968"><ele>748.0</ele><time>2026-04-18T08:55:37.997Z</time></trkpt><trkpt lat="45.65103111412882" lon="11.330876241925933"><ele>744.2857142857142</ele><time>2026-04-18T08:55:41.997Z</time></trkpt><trkpt lat="45.65099001769" lon="11.330960754826943"><ele>740.5714285714287</ele><time>2026-04-18T08:55:46.996Z</time></trkpt><trkpt lat="45.6509652547562" lon="11.33105408948428"><ele>736.8571428571429</ele><time>2026-04-18T08:55:49.996Z</time></trkpt><trkpt lat="45.65092857519022" lon="11.331129411932388"><ele>733.1428571428571</ele><time>2026-04-18T08:55:52.996Z</time></trkpt><trkpt lat="45.650872646629395" lon="11.331186991618521"><ele>729.4285714285713</ele><time>2026-04-18T08:55:55.996Z</time></trkpt><trkpt lat="45.65080825779081" lon="11.331241865792094"><ele>725.7142857142858</ele><time>2026-04-18T08:55:58.996Z</time></trkpt><trkpt lat="45.65074042833519" lon="11.331299198885755"><ele>722.0</ele><time>2026-04-18T08:56:01.996Z</time></trkpt><trkpt lat="45.65066351691956" lon="11.331370278407164"><ele>723.2857142857143</ele><time>2026-04-18T08:56:04.996Z</time></trkpt><trkpt lat="45.650610627472126" lon="11.331429612994938"><ele>724.5714285714286</ele><time>2026-04-18T08:56:06.996Z</time></trkpt><trkpt lat="45.650553634270125" lon="11.33149321181154"><ele>725.8571428571429</ele><time>2026-04-18T08:56:09.996Z</time></trkpt><trkpt lat="45.650482082052136" lon="11.3315540747089"><ele>727.1428571428571</ele><time>2026-04-18T08:56:15.996Z</time></trkpt><trkpt lat="45.650421145460264" lon="11.331626062194983"><ele>728.4285714285713</ele><time>2026-04-18T08:56:20.996Z</time></trkpt><trkpt lat="45.6503559089725" lon="11.33167673725079"><ele>729.7142857142857</ele><time>2026-04-18T08:56:26.998Z</time></trkpt><trkpt lat="45.65029407390692" lon="11.331701282598202"><ele>731.0</ele><time>2026-04-18T08:56:33.998Z</time></trkpt><trkpt lat="45.65023321736619" lon="11.331730380507281"><ele>731.4285714285714</ele><time>2026-04-18T08:56:39.998Z</time></trkpt><trkpt lat="45.6501648758244" lon="11.331780416364644"><ele>731.8571428571429</ele><time>2026-04-18T08:56:45.997Z</time></trkpt><trkpt lat="45.65010204196381" lon="11.331828888657322"><ele>732.2857142857142</ele><time>2026-04-18T08:56:49.997Z</time></trkpt><trkpt lat="45.65004628659149" lon="11.331873614668599"><ele>732.7142857142858</ele><time>2026-04-18T08:56:56.997Z</time></trkpt><trkpt lat="45.649982098726284" lon="11.331918615753002"><ele>733.1428571428572</ele><time>2026-04-18T08:57:01.997Z</time></trkpt><trkpt lat="45.64992006988235" lon="11.331975818900707"><ele>733.5714285714286</ele><time>2026-04-18T08:57:05.997Z</time></trkpt><trkpt lat="45.64984486237967" lon="11.332025064377065"><ele>734.0</ele><time>2026-04-18T08:57:09.997Z</time></trkpt><trkpt lat="45.649780496905656" lon="11.332091275996524"><ele>734.0</ele><time>2026-04-18T08:57:13.997Z</time></trkpt><trkpt lat="45.64972451716304" lon="11.332185268318229"><ele>734.0</ele><time>2026-04-18T08:57:17.997Z</time></trkpt><trkpt lat="45.649685355866794" lon="11.332259007478152"><ele>734.0</ele><time>2026-04-18T08:57:21.997Z</time></trkpt><trkpt lat="45.64963239073995" lon="11.332324476651415"><ele>734.0</ele><time>2026-04-18T08:57:26.996Z</time></trkpt><trkpt lat="45.649583254803595" lon="11.332389271681487"><ele>734.0</ele><time>2026-04-18T08:57:30.996Z</time></trkpt><trkpt lat="45.64952622150211" lon="11.33245474628557"><ele>734.0</ele><time>2026-04-18T08:57:34.996Z</time></trkpt><trkpt lat="45.64947506902832" lon="11.332511763700289"><ele>734.0</ele><time>2026-04-18T08:57:37.996Z</time></trkpt><trkpt lat="45.649418346463676" lon="11.332566469642321"><ele>735.5</ele><time>2026-04-18T08:57:40.996Z</time></trkpt><trkpt lat="45.64934698798238" lon="11.332620564526882"><ele>737.0</ele><time>2026-04-18T08:57:43.996Z</time></trkpt><trkpt lat="45.64927505219183" lon="11.332705582743298"><ele>738.5</ele><time>2026-04-18T08:57:46.996Z</time></trkpt><trkpt lat="45.64920917858323" lon="11.332793345246522"><ele>740.0</ele><time>2026-04-18T08:57:49.996Z</time></trkpt><trkpt lat="45.64915385434133" lon="11.33289138439102"><ele>741.5</ele><time>2026-04-18T08:57:52.996Z</time></trkpt><trkpt lat="45.64909609041395" lon="11.332969459165469"><ele>743.0</ele><time>2026-04-18T08:57:55.996Z</time></trkpt><trkpt lat="45.649026771232485" lon="11.333032352892438"><ele>743.0</ele><time>2026-04-18T08:57:58.996Z</time></trkpt><trkpt lat="45.64895879686383" lon="11.333096439581148"><ele>743.0</ele><time>2026-04-18T08:58:01.996Z</time></trkpt><trkpt lat="45.64889132804993" lon="11.333167454457607"><ele>743.0</ele><time>2026-04-18T08:58:04.995Z</time></trkpt><trkpt lat="45.64884068140289" lon="11.333235468824732"><ele>743.0</ele><time>2026-04-18T08:58:07.995Z</time></trkpt><trkpt lat="45.648778720210395" lon="11.333327691866709"><ele>743.0</ele><time>2026-04-18T08:58:10.995Z</time></trkpt><trkpt lat="45.64872443725088" lon="11.333427664162029"><ele>743.0</ele><time>2026-04-18T08:58:13.995Z</time></trkpt><trkpt lat="45.64868437954561" lon="11.33350626850227"><ele>743.0</ele><time>2026-04-18T08:58:15.995Z</time></trkpt><trkpt lat="45.64863090268711" lon="11.33356876931946"><ele>743.0</ele><time>2026-04-18T08:58:17.995Z</time></trkpt><trkpt lat="45.648572229879235" lon="11.333639805676668"><ele>743.0</ele><time>2026-04-18T08:58:19.995Z</time></trkpt><trkpt lat="45.648522808694246" lon="11.33370833402158"><ele>743.0</ele><time>2026-04-18T08:58:21.995Z</time></trkpt><trkpt lat="45.648449597071604" lon="11.33379286542112"><ele>743.0</ele><time>2026-04-18T08:58:24.995Z</time></trkpt><trkpt lat="45.6483952071003" lon="11.333896437724189"><ele>743.0</ele><time>2026-04-18T08:58:27.997Z</time></trkpt><trkpt lat="45.648353409901574" lon="11.333968286716285"><ele>742.5</ele><time>2026-04-18T08:58:29.998Z</time></trkpt><trkpt lat="45.6482876991908" lon="11.33402312205285"><ele>742.0</ele><time>2026-04-18T08:58:32.997Z</time></trkpt><trkpt lat="45.648222225100604" lon="11.334088132444245"><ele>741.5</ele><time>2026-04-18T08:58:35.998Z</time></trkpt><trkpt lat="45.6481579261539" lon="11.334149429733316"><ele>741.0</ele><time>2026-04-18T08:58:38.997Z</time></trkpt><trkpt lat="45.64809334958828" lon="11.334213307535205"><ele>740.5</ele><time>2026-04-18T08:58:41.998Z</time></trkpt><trkpt lat="45.64802932036463" lon="11.334297703240212"><ele>740.0</ele><time>2026-04-18T08:58:44.998Z</time></trkpt><trkpt lat="45.647958761220046" lon="11.334353728726771"><ele>740.0</ele><time>2026-04-18T08:58:47.998Z</time></trkpt><trkpt lat="45.64788942022002" lon="11.334406685450457"><ele>740.0</ele><time>2026-04-18T08:58:50.997Z</time></trkpt><trkpt lat="45.64784417514003" lon="11.3344792400909"><ele>740.0</ele><time>2026-04-18T08:58:52.997Z</time></trkpt><trkpt lat="45.64777077925905" lon="11.334555002722006"><ele>740.0</ele><time>2026-04-18T08:58:55.997Z</time></trkpt><trkpt lat="45.64768791007982" lon="11.334600771503325"><ele>740.0</ele><time>2026-04-18T08:58:58.997Z</time></trkpt><trkpt lat="45.64761490040332" lon="11.334647269682932"><ele>740.0</ele><time>2026-04-18T08:59:01.997Z</time></trkpt><trkpt lat="45.64754396805875" lon="11.334711892892063"><ele>738.0</ele><time>2026-04-18T08:59:04.997Z</time></trkpt><trkpt lat="45.64747837730497" lon="11.334761362422274"><ele>736.0</ele><time>2026-04-18T08:59:07.997Z</time></trkpt><trkpt lat="45.647411814649516" lon="11.334807909158572"><ele>734.0</ele><time>2026-04-18T08:59:10.997Z</time></trkpt><trkpt lat="45.647363725992655" lon="11.334875616201103"><ele>732.0</ele><time>2026-04-18T08:59:12.997Z</time></trkpt><trkpt lat="45.64730078420238" lon="11.334944198588515"><ele>730.0</ele><time>2026-04-18T08:59:15.997Z</time></trkpt><trkpt lat="45.64723590116012" lon="11.335010962500965"><ele>728.0</ele><time>2026-04-18T08:59:18.997Z</time></trkpt><trkpt lat="45.64717463618117" lon="11.335098014666924"><ele>728.0</ele><time>2026-04-18T08:59:21.997Z</time></trkpt><trkpt lat="45.647110326703505" lon="11.3351639970322"><ele>728.0</ele><time>2026-04-18T08:59:24.997Z</time></trkpt><trkpt lat="45.6470569687085" lon="11.335239209753048"><ele>728.0</ele><time>2026-04-18T08:59:27.997Z</time></trkpt><trkpt lat="45.646986948355874" lon="11.335287934753369"><ele>728.0</ele><time>2026-04-18T08:59:30.996Z</time></trkpt><trkpt lat="45.64692256655158" lon="11.33534876203637"><ele>728.0</ele><time>2026-04-18T08:59:33.996Z</time></trkpt><trkpt lat="45.6468565966444" lon="11.335400983979332"><ele>728.0</ele><time>2026-04-18T08:59:36.996Z</time></trkpt><trkpt lat="45.64678987123707" lon="11.335458293433813"><ele>728.3333333333333</ele><time>2026-04-18T08:59:39.996Z</time></trkpt><trkpt lat="45.64672537052433" lon="11.335516654173539"><ele>728.6666666666666</ele><time>2026-04-18T08:59:42.996Z</time></trkpt><trkpt lat="45.64664706264229" lon="11.335573277286144"><ele>729.0</ele><time>2026-04-18T08:59:45.996Z</time></trkpt><trkpt lat="45.646580727025366" lon="11.33562455593012"><ele>729.3333333333334</ele><time>2026-04-18T08:59:48.996Z</time></trkpt><trkpt lat="45.64651657717822" lon="11.335665203132743"><ele>729.6666666666667</ele><time>2026-04-18T08:59:51.996Z</time></trkpt><trkpt lat="45.646437556547134" lon="11.335680571636576"><ele>730.0</ele><time>2026-04-18T08:59:55.996Z</time></trkpt><trkpt lat="45.64636440577714" lon="11.335679767987633"><ele>730.0000000000001</ele><time>2026-04-18T08:59:59.996Z</time></trkpt><trkpt lat="45.6462906063513" lon="11.335701227220678"><ele>730.0</ele><time>2026-04-18T09:00:03.996Z</time></trkpt><trkpt lat="45.64623085013239" lon="11.335734693824564"><ele>730.0</ele><time>2026-04-18T09:00:07.996Z</time></trkpt><trkpt lat="45.646165550508925" lon="11.335757388710931"><ele>730.0</ele><time>2026-04-18T09:00:11.995Z</time></trkpt><trkpt lat="45.64610424770538" lon="11.335780643667391"><ele>730.0</ele><time>2026-04-18T09:00:20.995Z</time></trkpt><trkpt lat="45.646076730828746" lon="11.33587313883025"><ele>730.0000000000001</ele><time>2026-04-18T09:00:29.995Z</time></trkpt><trkpt lat="45.646039425215335" lon="11.335946910744758"><ele>730.0</ele><time>2026-04-18T09:00:37.998Z</time></trkpt><trkpt lat="45.64598921975143" lon="11.33602296177021"><ele>731.0000000000001</ele><time>2026-04-18T09:00:41.998Z</time></trkpt><trkpt lat="45.645937790188235" lon="11.33609489991523"><ele>732.0</ele><time>2026-04-18T09:00:45.998Z</time></trkpt><trkpt lat="45.645882755595665" lon="11.336164988580665"><ele>733.0</ele><time>2026-04-18T09:00:49.998Z</time></trkpt><trkpt lat="45.64582422399222" lon="11.336235804324541"><ele>734.0</ele><time>2026-04-18T09:00:53.998Z</time></trkpt><trkpt lat="45.64577013222896" lon="11.336287487656252"><ele>735.0</ele><time>2026-04-18T09:00:56.998Z</time></trkpt><trkpt lat="45.64571965430722" lon="11.3363453053246"><ele>736.0000000000001</ele><time>2026-04-18T09:00:59.998Z</time></trkpt><trkpt lat="45.645677773040504" lon="11.336444435407062"><ele>737.0</ele><time>2026-04-18T09:01:02.998Z</time></trkpt><trkpt lat="45.64563685813403" lon="11.336515479435594"><ele>737.0000000000001</ele><time>2026-04-18T09:01:05.997Z</time></trkpt><trkpt lat="45.645588470308866" lon="11.33658618495399"><ele>737.0</ele><time>2026-04-18T09:01:08.997Z</time></trkpt><trkpt lat="45.64553966967064" lon="11.33666522866576"><ele>737.0</ele><time>2026-04-18T09:01:11.997Z</time></trkpt><trkpt lat="45.645497257018114" lon="11.336759901502694"><ele>737.0</ele><time>2026-04-18T09:01:14.997Z</time></trkpt><trkpt lat="45.645461503202036" lon="11.336856743270772"><ele>737.0</ele><time>2026-04-18T09:01:17.997Z</time></trkpt><trkpt lat="45.645432050919574" lon="11.336941814036026"><ele>737.0000000000001</ele><time>2026-04-18T09:01:19.997Z</time></trkpt><trkpt lat="45.64538077640752" lon="11.337014377887824"><ele>737.0</ele><time>2026-04-18T09:01:22.997Z</time></trkpt><trkpt lat="45.64534835232817" lon="11.33711340025294"><ele>737.0</ele><time>2026-04-18T09:01:25.997Z</time></trkpt><trkpt lat="45.645297147920786" lon="11.337203501454722"><ele>737.0</ele><time>2026-04-18T09:01:28.997Z</time></trkpt><trkpt lat="45.64525714536392" lon="11.337306660011558"><ele>737.0</ele><time>2026-04-18T09:01:31.997Z</time></trkpt><trkpt lat="45.645226532735165" lon="11.337389768932834"><ele>737.0</ele><time>2026-04-18T09:01:34.997Z</time></trkpt><trkpt lat="45.64517993154772" lon="11.337459467993728"><ele>737.0</ele><time>2026-04-18T09:01:37.997Z</time></trkpt><trkpt lat="45.64512770326035" lon="11.337520343045334"><ele>737.0</ele><time>2026-04-18T09:01:40.997Z</time></trkpt><trkpt lat="45.645079244960854" lon="11.337636086238591"><ele>736.2857142857143</ele><time>2026-04-18T09:01:43.996Z</time></trkpt><trkpt lat="45.64500382234806" lon="11.337683388242484"><ele>735.5714285714286</ele><time>2026-04-18T09:01:46.996Z</time></trkpt><trkpt lat="45.64493449940934" lon="11.33766822888709"><ele>734.8571428571429</ele><time>2026-04-18T09:01:49.996Z</time></trkpt><trkpt lat="45.64486810446795" lon="11.337672152982385"><ele>734.1428571428571</ele><time>2026-04-18T09:01:52.996Z</time></trkpt><trkpt lat="45.644794655766326" lon="11.33766709234914"><ele>733.4285714285714</ele><time>2026-04-18T09:01:55.996Z</time></trkpt><trkpt lat="45.6447293176692" lon="11.337651233844259"><ele>732.7142857142858</ele><time>2026-04-18T09:01:58.996Z</time></trkpt><trkpt lat="45.64466160945601" lon="11.337677139855915"><ele>732.0</ele><time>2026-04-18T09:02:01.996Z</time></trkpt><trkpt lat="45.6446044993797" lon="11.337744068399248"><ele>732.0</ele><time>2026-04-18T09:02:04.996Z</time></trkpt><trkpt lat="45.64457626975084" lon="11.33784416479473"><ele>732.0</ele><time>2026-04-18T09:02:08.996Z</time></trkpt><trkpt lat="45.64456990546009" lon="11.33793866090873"><ele>732.0</ele><time>2026-04-18T09:02:11.996Z</time></trkpt><trkpt lat="45.6445708002698" lon="11.338036739768453"><ele>732.0</ele><time>2026-04-18T09:02:14.996Z</time></trkpt><trkpt lat="45.644542701046106" lon="11.338122082281727"><ele>732.0</ele><time>2026-04-18T09:02:17.996Z</time></trkpt><trkpt lat="45.64452326330429" lon="11.33821135742171"><ele>732.0</ele><time>2026-04-18T09:02:20.995Z</time></trkpt><trkpt lat="45.64449567972199" lon="11.338303696883438"><ele>732.0</ele><time>2026-04-18T09:02:23.995Z</time></trkpt><trkpt lat="45.64449258298948" lon="11.338408994914644"><ele>731.6666666666666</ele><time>2026-04-18T09:02:26.995Z</time></trkpt><trkpt lat="45.64447873997273" lon="11.338513529451264"><ele>731.3333333333334</ele><time>2026-04-18T09:02:29.995Z</time></trkpt><trkpt lat="45.64445734270206" lon="11.338613333743286"><ele>731.0</ele><time>2026-04-18T09:02:32.995Z</time></trkpt><trkpt lat="45.644425910347806" lon="11.338718804772062"><ele>730.6666666666667</ele><time>2026-04-18T09:02:35.995Z</time></trkpt><trkpt lat="45.64440948104013" lon="11.338824429918557"><ele>730.3333333333334</ele><time>2026-04-18T09:02:38.995Z</time></trkpt><trkpt lat="45.64440358345434" lon="11.338932116802699"><ele>730.0</ele><time>2026-04-18T09:02:41.997Z</time></trkpt><trkpt lat="45.64437920104591" lon="11.339034976593226"><ele>731.1666666666667</ele><time>2026-04-18T09:02:44.998Z</time></trkpt><trkpt lat="45.644347628696735" lon="11.339150382217436"><ele>732.3333333333334</ele><time>2026-04-18T09:02:47.997Z</time></trkpt><trkpt lat="45.644304602400744" lon="11.339237033512847"><ele>733.5</ele><time>2026-04-18T09:02:50.998Z</time></trkpt><trkpt lat="45.64425599876095" lon="11.339305815974488"><ele>734.6666666666666</ele><time>2026-04-18T09:02:53.997Z</time></trkpt><trkpt lat="45.644205616830035" lon="11.339407582678534"><ele>735.8333333333333</ele><time>2026-04-18T09:02:57.997Z</time></trkpt><trkpt lat="45.64415944416353" lon="11.339476656705212"><ele>737.0</ele><time>2026-04-18T09:03:00.997Z</time></trkpt><trkpt lat="45.64410697911356" lon="11.339564841824727"><ele>737.0000000000001</ele><time>2026-04-18T09:03:04.997Z</time></trkpt><trkpt lat="45.64405827511646" lon="11.339629218478995"><ele>737.0</ele><time>2026-04-18T09:03:08.997Z</time></trkpt><trkpt lat="45.64399618321027" lon="11.33959573654267"><ele>737.0</ele><time>2026-04-18T09:03:19.996Z</time></trkpt><trkpt lat="45.64396894881779" lon="11.339506832021518"><ele>737.0</ele><time>2026-04-18T09:03:26.996Z</time></trkpt><trkpt lat="45.6439354554819" lon="11.339409526610396"><ele>737.0</ele><time>2026-04-18T09:03:33.996Z</time></trkpt><trkpt lat="45.64389008905644" lon="11.339337438704208"><ele>737.0000000000001</ele><time>2026-04-18T09:03:40.996Z</time></trkpt><trkpt lat="45.64384117213199" lon="11.339271993010257"><ele>737.0</ele><time>2026-04-18T09:03:44.996Z</time></trkpt><trkpt lat="45.643796576513445" lon="11.339175811553286"><ele>737.0000000000001</ele><time>2026-04-18T09:03:51.996Z</time></trkpt><trkpt lat="45.643765860199665" lon="11.339063087931157"><ele>737.0</ele><time>2026-04-18T09:03:56.995Z</time></trkpt><trkpt lat="45.643745638688664" lon="11.338961856358805"><ele>737.0</ele><time>2026-04-18T09:04:01.995Z</time></trkpt><trkpt lat="45.643715889724724" lon="11.3388795605572"><ele>737.0</ele><time>2026-04-18T09:04:06.995Z</time></trkpt><trkpt lat="45.643697439580265" lon="11.338786882111519"><ele>737.0</ele><time>2026-04-18T09:04:11.995Z</time></trkpt><trkpt lat="45.64364561287371" lon="11.33870909967704"><ele>737.0000000000001</ele><time>2026-04-18T09:04:18.995Z</time></trkpt><trkpt lat="45.6435960191228" lon="11.33864497075984"><ele>737.0</ele><time>2026-04-18T09:04:23.995Z</time></trkpt><trkpt lat="45.64354610951641" lon="11.3385764631143"><ele>737.1428571428572</ele><time>2026-04-18T09:04:29.995Z</time></trkpt><trkpt lat="45.64350178938779" lon="11.338493774092033"><ele>737.2857142857143</ele><time>2026-04-18T09:04:32.995Z</time></trkpt><trkpt lat="45.64346108212035" lon="11.338424803395426"><ele>737.4285714285714</ele><time>2026-04-18T09:04:38.994Z</time></trkpt><trkpt lat="45.64341452258504" lon="11.338355352185774"><ele>737.5714285714287</ele><time>2026-04-18T09:04:48.997Z</time></trkpt><trkpt lat="45.64336739395828" lon="11.33826223626208"><ele>737.7142857142857</ele><time>2026-04-18T09:04:55.998Z</time></trkpt><trkpt lat="45.64334793277967" lon="11.338169682596815"><ele>737.8571428571429</ele><time>2026-04-18T09:05:01.998Z</time></trkpt><trkpt lat="45.6433162077921" lon="11.338078423929694"><ele>738.0</ele><time>2026-04-18T09:05:06.997Z</time></trkpt><trkpt lat="45.643292030119795" lon="11.337980642280264"><ele>739.2857142857142</ele><time>2026-04-18T09:05:14.997Z</time></trkpt><trkpt lat="45.643263195104645" lon="11.337892109898755"><ele>740.5714285714286</ele><time>2026-04-18T09:05:19.997Z</time></trkpt><trkpt lat="45.64324798777349" lon="11.337801240275917"><ele>741.8571428571429</ele><time>2026-04-18T09:05:25.997Z</time></trkpt><trkpt lat="45.64323493925225" lon="11.337701459861757"><ele>743.1428571428571</ele><time>2026-04-18T09:05:29.997Z</time></trkpt><trkpt lat="45.64321414002371" lon="11.337615949989535"><ele>744.4285714285714</ele><time>2026-04-18T09:05:33.997Z</time></trkpt><trkpt lat="45.643202430108" lon="11.337505704787826"><ele>745.7142857142857</ele><time>2026-04-18T09:05:36.997Z</time></trkpt><trkpt lat="45.643188398956966" lon="11.337413788652333"><ele>747.0</ele><time>2026-04-18T09:05:39.997Z</time></trkpt><trkpt lat="45.64316137171647" lon="11.337331015766596"><ele>746.9999999999999</ele><time>2026-04-18T09:05:42.996Z</time></trkpt><trkpt lat="45.6431348172936" lon="11.337226908179014"><ele>747.0</ele><time>2026-04-18T09:05:46.996Z</time></trkpt><trkpt lat="45.643121304953354" lon="11.337126018148231"><ele>747.0</ele><time>2026-04-18T09:05:50.996Z</time></trkpt><trkpt lat="45.643119872083915" lon="11.337022639853958"><ele>747.0</ele><time>2026-04-18T09:05:53.996Z</time></trkpt><trkpt lat="45.64313304240585" lon="11.336910498607596"><ele>747.0</ele><time>2026-04-18T09:05:56.996Z</time></trkpt><trkpt lat="45.643129922170324" lon="11.336811078982256"><ele>746.9999999999999</ele><time>2026-04-18T09:05:59.996Z</time></trkpt><trkpt lat="45.64311108523419" lon="11.336723273718352"><ele>747.0</ele><time>2026-04-18T09:06:03.996Z</time></trkpt><trkpt lat="45.64309567315998" lon="11.33661944217909"><ele>749.0</ele><time>2026-04-18T09:06:07.996Z</time></trkpt><trkpt lat="45.64308692684802" lon="11.336511700596043"><ele>751.0</ele><time>2026-04-18T09:06:12.996Z</time></trkpt><trkpt lat="45.64307168890864" lon="11.336403872856911"><ele>753.0</ele><time>2026-04-18T09:06:16.996Z</time></trkpt><trkpt lat="45.64306152277288" lon="11.336291529660938"><ele>755.0</ele><time>2026-04-18T09:06:19.996Z</time></trkpt><trkpt lat="45.6430443189485" lon="11.33616056006813"><ele>757.0</ele><time>2026-04-18T09:06:22.995Z</time></trkpt><trkpt lat="45.64303719602185" lon="11.336052009942941"><ele>759.0</ele><time>2026-04-18T09:06:25.995Z</time></trkpt><trkpt lat="45.64302668748202" lon="11.335944210755363"><ele>759.6666666666666</ele><time>2026-04-18T09:06:28.995Z</time></trkpt><trkpt lat="45.64301044642839" lon="11.335848027093997"><ele>760.3333333333334</ele><time>2026-04-18T09:06:31.995Z</time></trkpt><trkpt lat="45.6429892639333" lon="11.335740291063765"><ele>761.0</ele><time>2026-04-18T09:06:34.995Z</time></trkpt><trkpt lat="45.642968210888526" lon="11.335636509232975"><ele>761.6666666666667</ele><time>2026-04-18T09:06:37.995Z</time></trkpt><trkpt lat="45.64295897266944" lon="11.335531654385514"><ele>762.3333333333334</ele><time>2026-04-18T09:06:40.995Z</time></trkpt><trkpt lat="45.64292997718817" lon="11.33540923481372"><ele>763.0</ele><time>2026-04-18T09:06:43.995Z</time></trkpt><trkpt lat="45.64292488191898" lon="11.335288269395422"><ele>763.0</ele><time>2026-04-18T09:06:46.995Z</time></trkpt><trkpt lat="45.642961833934685" lon="11.335197207540139"><ele>763.0</ele><time>2026-04-18T09:06:48.995Z</time></trkpt><trkpt lat="45.642990993519994" lon="11.335084734952314"><ele>763.0</ele><time>2026-04-18T09:06:51.997Z</time></trkpt><trkpt lat="45.64302909379943" lon="11.33501291261823"><ele>763.0</ele><time>2026-04-18T09:06:53.997Z</time></trkpt><trkpt lat="45.64306427945588" lon="11.334919415945867"><ele>763.0</ele><time>2026-04-18T09:06:56.997Z</time></trkpt><trkpt lat="45.64311687992572" lon="11.334831627871873"><ele>763.0</ele><time>2026-04-18T09:07:00.998Z</time></trkpt><trkpt lat="45.6431387465291" lon="11.334731300469258"><ele>763.0</ele><time>2026-04-18T09:07:03.997Z</time></trkpt><trkpt lat="45.64317686698036" lon="11.334640649170238"><ele>763.0</ele><time>2026-04-18T09:07:06.997Z</time></trkpt><trkpt lat="45.643197069814704" lon="11.334536869005708"><ele>763.0</ele><time>2026-04-18T09:07:09.997Z</time></trkpt><trkpt lat="45.643185832978766" lon="11.334409377228967"><ele>763.0</ele><time>2026-04-18T09:07:12.997Z</time></trkpt><trkpt lat="45.64315132150367" lon="11.334299280046602"><ele>763.0</ele><time>2026-04-18T09:07:15.997Z</time></trkpt><trkpt lat="45.64309101574208" lon="11.334249014449796"><ele>763.0</ele><time>2026-04-18T09:07:18.997Z</time></trkpt><trkpt lat="45.643044596580054" lon="11.33418354056974"><ele>763.0</ele><time>2026-04-18T09:07:21.997Z</time></trkpt><trkpt lat="45.642980030968786" lon="11.334132980668"><ele>763.0</ele><time>2026-04-18T09:07:25.997Z</time></trkpt><trkpt lat="45.6429171196764" lon="11.33408359827834"><ele>763.0</ele><time>2026-04-18T09:07:29.996Z</time></trkpt><trkpt lat="45.6428100140636" lon="11.33403698079932"><ele>763.0</ele><time>2026-04-18T09:07:49.996Z</time></trkpt><trkpt lat="45.6427701317518" lon="11.33393373237064"><ele>763.0</ele><time>2026-04-18T09:08:00.996Z</time></trkpt><trkpt lat="45.642693117845646" lon="11.33391179287655"><ele>763.0</ele><time>2026-04-18T09:08:10.995Z</time></trkpt><trkpt lat="45.64268692721305" lon="11.33379607605207"><ele>763.0</ele><time>2026-04-18T09:08:26.995Z</time></trkpt><trkpt lat="45.64268528227062" lon="11.333695813090825"><ele>757.7142857142857</ele><time>2026-04-18T09:08:32.995Z</time></trkpt><trkpt lat="45.642672397001" lon="11.333603701653258"><ele>752.4285714285714</ele><time>2026-04-18T09:08:39.995Z</time></trkpt><trkpt lat="45.64267868795259" lon="11.333503669737356"><ele>747.1428571428571</ele><time>2026-04-18T09:08:44.995Z</time></trkpt><trkpt lat="45.64262623232206" lon="11.333432468772298"><ele>741.8571428571429</ele><time>2026-04-18T09:08:52.994Z</time></trkpt><trkpt lat="45.64261810212473" lon="11.333340310823209"><ele>736.5714285714286</ele><time>2026-04-18T09:09:00.997Z</time></trkpt><trkpt lat="45.64258271851731" lon="11.333261124993406"><ele>731.2857142857142</ele><time>2026-04-18T09:09:09.997Z</time></trkpt><trkpt lat="45.64251300648692" lon="11.333230083933099"><ele>726.0</ele><time>2026-04-18T09:09:25.997Z</time></trkpt><trkpt lat="45.64246998900304" lon="11.333125287194104"><ele>725.9999999999999</ele><time>2026-04-18T09:09:41.996Z</time></trkpt><trkpt lat="45.64243253136055" lon="11.333049900321196"><ele>726.0</ele><time>2026-04-18T09:09:50.996Z</time></trkpt><trkpt lat="45.6423666312679" lon="11.333001171209386"><ele>726.0</ele><time>2026-04-18T09:09:55.996Z</time></trkpt><trkpt lat="45.64229893779924" lon="11.333023151871625"><ele>726.0</ele><time>2026-04-18T09:10:00.996Z</time></trkpt><trkpt lat="45.64223815223006" lon="11.333084972030948"><ele>726.0</ele><time>2026-04-18T09:10:05.996Z</time></trkpt><trkpt lat="45.64218753056057" lon="11.33314001657158"><ele>725.9999999999999</ele><time>2026-04-18T09:10:09.996Z</time></trkpt><trkpt lat="45.642171885641154" lon="11.333241198827714"><ele>726.0</ele><time>2026-04-18T09:10:13.995Z</time></trkpt><trkpt lat="45.64212481812725" lon="11.333178621665636"><ele>725.9999999999999</ele><time>2026-04-18T09:10:22.995Z</time></trkpt><trkpt lat="45.64209636779145" lon="11.333089014470145"><ele>726.0</ele><time>2026-04-18T09:10:26.995Z</time></trkpt><trkpt lat="45.64213002447296" lon="11.332996097752813"><ele>726.0</ele><time>2026-04-18T09:10:31.995Z</time></trkpt><trkpt lat="45.64211843317292" lon="11.33288051713903"><ele>726.0</ele><time>2026-04-18T09:10:35.995Z</time></trkpt><trkpt lat="45.64211592314964" lon="11.332785258548684"><ele>726.0</ele><time>2026-04-18T09:10:39.995Z</time></trkpt><trkpt lat="45.6420829849498" lon="11.332707286568086"><ele>725.9999999999999</ele><time>2026-04-18T09:10:44.995Z</time></trkpt><trkpt lat="45.642056255666795" lon="11.332602487432792"><ele>726.0</ele><time>2026-04-18T09:10:50.995Z</time></trkpt><trkpt lat="45.642010255577546" lon="11.332539280850694"><ele>724.7142857142857</ele><time>2026-04-18T09:10:54.994Z</time></trkpt><trkpt lat="45.64198644543778" lon="11.332454836957993"><ele>723.4285714285714</ele><time>2026-04-18T09:10:57.994Z</time></trkpt><trkpt lat="45.64197903697314" lon="11.332355424071654"><ele>722.1428571428571</ele><time>2026-04-18T09:11:00.994Z</time></trkpt><trkpt lat="45.641947778244585" lon="11.33225580193495"><ele>720.8571428571429</ele><time>2026-04-18T09:11:03.997Z</time></trkpt><trkpt lat="45.64190650053962" lon="11.332167742021623"><ele>719.5714285714286</ele><time>2026-04-18T09:11:06.997Z</time></trkpt><trkpt lat="45.64186241559673" lon="11.332080184238242"><ele>718.2857142857142</ele><time>2026-04-18T09:11:09.997Z</time></trkpt><trkpt lat="45.641818385781434" lon="11.331968686665897"><ele>717.0</ele><time>2026-04-18T09:11:12.997Z</time></trkpt><trkpt lat="45.641795936674285" lon="11.331858680605551"><ele>710.0</ele><time>2026-04-18T09:11:15.998Z</time></trkpt><trkpt lat="45.6417556186033" lon="11.331750373020336"><ele>703.0</ele><time>2026-04-18T09:11:18.998Z</time></trkpt><trkpt lat="45.641715770504405" lon="11.331644836034556"><ele>696.0</ele><time>2026-04-18T09:11:21.997Z</time></trkpt><trkpt lat="45.64168122702615" lon="11.33154499437146"><ele>689.0</ele><time>2026-04-18T09:11:24.997Z</time></trkpt><trkpt lat="45.641633731683264" lon="11.331472639353626"><ele>682.0</ele><time>2026-04-18T09:11:27.997Z</time></trkpt><trkpt lat="45.64157210749014" lon="11.331387381911759"><ele>675.0</ele><time>2026-04-18T09:11:31.997Z</time></trkpt><trkpt lat="45.64151410998381" lon="11.331313430080893"><ele>673.7142857142857</ele><time>2026-04-18T09:11:34.997Z</time></trkpt><trkpt lat="45.64147452142015" lon="11.331224867791398"><ele>672.4285714285714</ele><time>2026-04-18T09:11:37.997Z</time></trkpt><trkpt lat="45.64141000500216" lon="11.331213874263646"><ele>671.1428571428571</ele><time>2026-04-18T09:11:57.997Z</time></trkpt><trkpt lat="45.64133150279104" lon="11.33122783461648"><ele>669.8571428571429</ele><time>2026-04-18T09:12:04.996Z</time></trkpt><trkpt lat="45.64126533130883" lon="11.331198661381112"><ele>668.5714285714286</ele><time>2026-04-18T09:12:09.996Z</time></trkpt><trkpt lat="45.641170003274645" lon="11.331190892619393"><ele>667.2857142857143</ele><time>2026-04-18T09:12:13.996Z</time></trkpt><trkpt lat="45.64110478802485" lon="11.331182711045166"><ele>666.0</ele><time>2026-04-18T09:12:15.996Z</time></trkpt><trkpt lat="45.641042354112194" lon="11.331133236093946"><ele>662.6666666666666</ele><time>2026-04-18T09:12:18.996Z</time></trkpt><trkpt lat="45.6409722809474" lon="11.331063965491554"><ele>659.3333333333334</ele><time>2026-04-18T09:12:21.996Z</time></trkpt><trkpt lat="45.640916451358486" lon="11.330997350978267"><ele>656.0</ele><time>2026-04-18T09:12:24.996Z</time></trkpt><trkpt lat="45.64086359892259" lon="11.330946077497519"><ele>652.6666666666667</ele><time>2026-04-18T09:12:27.996Z</time></trkpt><trkpt lat="45.64082109564963" lon="11.330829576396585"><ele>649.3333333333334</ele><time>2026-04-18T09:12:30.996Z</time></trkpt><trkpt lat="45.64076805954908" lon="11.330726356174846"><ele>646.0</ele><time>2026-04-18T09:12:33.996Z</time></trkpt><trkpt lat="45.64070258305231" lon="11.33062698301695"><ele>646.0</ele><time>2026-04-18T09:12:36.996Z</time></trkpt><trkpt lat="45.6406351779833" lon="11.330611441668124"><ele>646.0</ele><time>2026-04-18T09:12:39.995Z</time></trkpt><trkpt lat="45.64055572974819" lon="11.330538171788591"><ele>646.0</ele><time>2026-04-18T09:12:44.995Z</time></trkpt><trkpt lat="45.640478550586316" lon="11.330516724054654"><ele>646.0</ele><time>2026-04-18T09:12:47.995Z</time></trkpt><trkpt lat="45.64039599848557" lon="11.330512302360207"><ele>646.0</ele><time>2026-04-18T09:12:50.995Z</time></trkpt><trkpt lat="45.64031360424719" lon="11.33053023290295"><ele>646.0</ele><time>2026-04-18T09:12:53.995Z</time></trkpt><trkpt lat="45.64023019224778" lon="11.330558211695523"><ele>642.7142857142858</ele><time>2026-04-18T09:12:56.995Z</time></trkpt><trkpt lat="45.64016151444336" lon="11.330575401930854"><ele>639.4285714285714</ele><time>2026-04-18T09:12:59.995Z</time></trkpt><trkpt lat="45.64008406250898" lon="11.33060394269329"><ele>636.1428571428571</ele><time>2026-04-18T09:13:02.995Z</time></trkpt><trkpt lat="45.64000356440107" lon="11.330641155745019"><ele>632.8571428571429</ele><time>2026-04-18T09:13:05.995Z</time></trkpt><trkpt lat="45.63993894608511" lon="11.330660930312904"><ele>629.5714285714286</ele><time>2026-04-18T09:13:07.995Z</time></trkpt><trkpt lat="45.639877359081005" lon="11.330698866352122"><ele>626.2857142857143</ele><time>2026-04-18T09:13:09.997Z</time></trkpt><trkpt lat="45.63981653077784" lon="11.330726415510204"><ele>623.0</ele><time>2026-04-18T09:13:11.997Z</time></trkpt><trkpt lat="45.639723528507815" lon="11.330734161062889"><ele>623.0</ele><time>2026-04-18T09:13:14.997Z</time></trkpt><trkpt lat="45.63965117384159" lon="11.330737802082961"><ele>623.0</ele><time>2026-04-18T09:13:16.997Z</time></trkpt><trkpt lat="45.63956403795624" lon="11.330706604937745"><ele>623.0</ele><time>2026-04-18T09:13:19.997Z</time></trkpt><trkpt lat="45.63948335620855" lon="11.33069128352267"><ele>623.0</ele><time>2026-04-18T09:13:22.997Z</time></trkpt><trkpt lat="45.63940011747218" lon="11.330701440857998"><ele>623.0</ele><time>2026-04-18T09:13:25.997Z</time></trkpt><trkpt lat="45.63933247182738" lon="11.330709427442208"><ele>623.0</ele><time>2026-04-18T09:13:27.997Z</time></trkpt><trkpt lat="45.63925470832158" lon="11.330704058769618"><ele>621.0</ele><time>2026-04-18T09:13:29.997Z</time></trkpt><trkpt lat="45.63918775943787" lon="11.330694494627426"><ele>619.0</ele><time>2026-04-18T09:13:31.997Z</time></trkpt><trkpt lat="45.63910991542972" lon="11.330697995301996"><ele>617.0</ele><time>2026-04-18T09:13:34.997Z</time></trkpt><trkpt lat="45.639028301955825" lon="11.330704416028663"><ele>615.0</ele><time>2026-04-18T09:13:37.996Z</time></trkpt><trkpt lat="45.63894086186629" lon="11.330674480250334"><ele>613.0</ele><time>2026-04-18T09:13:40.996Z</time></trkpt><trkpt lat="45.63885214320651" lon="11.33066816102537"><ele>611.0</ele><time>2026-04-18T09:13:43.996Z</time></trkpt><trkpt lat="45.63878867669419" lon="11.33065008386425"><ele>611.0</ele><time>2026-04-18T09:13:45.996Z</time></trkpt><trkpt lat="45.63870904401844" lon="11.330618392454381"><ele>611.0</ele><time>2026-04-18T09:13:48.996Z</time></trkpt><trkpt lat="45.63862479308692" lon="11.330595253450394"><ele>611.0</ele><time>2026-04-18T09:13:51.996Z</time></trkpt><trkpt lat="45.63855215225859" lon="11.330554126980822"><ele>611.0</ele><time>2026-04-18T09:13:54.996Z</time></trkpt><trkpt lat="45.638483457827846" lon="11.330528152339943"><ele>611.0</ele><time>2026-04-18T09:13:57.996Z</time></trkpt><trkpt lat="45.63842403079646" lon="11.3304787598589"><ele>611.0</ele><time>2026-04-18T09:14:00.996Z</time></trkpt><trkpt lat="45.63835495845291" lon="11.330471955954906"><ele>609.2857142857143</ele><time>2026-04-18T09:14:03.996Z</time></trkpt><trkpt lat="45.638289323597384" lon="11.330454781327145"><ele>607.5714285714286</ele><time>2026-04-18T09:14:06.996Z</time></trkpt><trkpt lat="45.638224243802355" lon="11.33044821470461"><ele>605.8571428571429</ele><time>2026-04-18T09:14:09.996Z</time></trkpt><trkpt lat="45.63815890299133" lon="11.330457653404636"><ele>604.1428571428571</ele><time>2026-04-18T09:14:12.996Z</time></trkpt><trkpt lat="45.63809100040016" lon="11.330434933551903"><ele>602.4285714285714</ele><time>2026-04-18T09:14:15.995Z</time></trkpt><trkpt lat="45.63801994284703" lon="11.330419044012519"><ele>600.7142857142858</ele><time>2026-04-18T09:14:18.995Z</time></trkpt><trkpt lat="45.63795471938288" lon="11.330389257072053"><ele>599.0</ele><time>2026-04-18T09:14:21.995Z</time></trkpt><trkpt lat="45.637888278535286" lon="11.330331072944174"><ele>599.0</ele><time>2026-04-18T09:14:24.995Z</time></trkpt><trkpt lat="45.63781515312933" lon="11.330302994976641"><ele>599.0</ele><time>2026-04-18T09:14:27.995Z</time></trkpt><trkpt lat="45.63774711062898" lon="11.330266502927447"><ele>599.0</ele><time>2026-04-18T09:14:30.995Z</time></trkpt><trkpt lat="45.63766265724343" lon="11.330220969491743"><ele>599.0</ele><time>2026-04-18T09:14:33.995Z</time></trkpt><trkpt lat="45.63759285633572" lon="11.330140846610908"><ele>599.0</ele><time>2026-04-18T09:14:36.995Z</time></trkpt><trkpt lat="45.637534417157994" lon="11.330050502873755"><ele>599.0</ele><time>2026-04-18T09:14:39.995Z</time></trkpt><trkpt lat="45.637497157857354" lon="11.329953840683318"><ele>599.5</ele><time>2026-04-18T09:14:42.995Z</time></trkpt><trkpt lat="45.6374322826961" lon="11.32987615699494"><ele>600.0</ele><time>2026-04-18T09:14:45.995Z</time></trkpt><trkpt lat="45.63740506792694" lon="11.329773645573368"><ele>600.5</ele><time>2026-04-18T09:14:49.995Z</time></trkpt><trkpt lat="45.637387962355994" lon="11.329680462863095"><ele>601.0</ele><time>2026-04-18T09:14:52.995Z</time></trkpt><trkpt lat="45.63735102031606" lon="11.329565145293246"><ele>601.5</ele><time>2026-04-18T09:14:56.994Z</time></trkpt><trkpt lat="45.637337833938744" lon="11.329464607739784"><ele>602.0</ele><time>2026-04-18T09:15:00.994Z</time></trkpt><trkpt lat="45.63731830851558" lon="11.329348564495968"><ele>602.0</ele><time>2026-04-18T09:15:04.994Z</time></trkpt><trkpt lat="45.63729699717699" lon="11.329233629576526"><ele>602.0</ele><time>2026-04-18T09:15:08.994Z</time></trkpt><trkpt lat="45.63729571746415" lon="11.32913721559721"><ele>602.0</ele><time>2026-04-18T09:15:11.994Z</time></trkpt><trkpt lat="45.63730231091782" lon="11.329043208864219"><ele>602.0</ele><time>2026-04-18T09:15:15.996Z</time></trkpt><trkpt lat="45.63731598002123" lon="11.32895253442384"><ele>602.0</ele><time>2026-04-18T09:15:17.996Z</time></trkpt><trkpt lat="45.63731546961313" lon="11.328859103827094"><ele>602.0</ele><time>2026-04-18T09:15:20.997Z</time></trkpt><trkpt lat="45.63734585003757" lon="11.328734975888562"><ele>602.0</ele><time>2026-04-18T09:15:24.997Z</time></trkpt><trkpt lat="45.63738247765123" lon="11.328641295167188"><ele>600.2</ele><time>2026-04-18T09:15:27.997Z</time></trkpt><trkpt lat="45.63741999060814" lon="11.328560076515949"><ele>598.4000000000001</ele><time>2026-04-18T09:15:30.997Z</time></trkpt><trkpt lat="45.63749519122782" lon="11.328549658829314"><ele>596.5999999999999</ele><time>2026-04-18T09:15:36.997Z</time></trkpt><trkpt lat="45.63756701478757" lon="11.32856905017093"><ele>594.8</ele><time>2026-04-18T09:15:40.996Z</time></trkpt><trkpt lat="45.63777558013422" lon="11.32859101829063"><ele>593.0</ele><time>2026-04-18T09:15:48.996Z</time></trkpt><trkpt lat="45.63788259335524" lon="11.328538895628503"><ele>589.3333333333333</ele><time>2026-04-18T09:15:52.996Z</time></trkpt><trkpt lat="45.63796127783386" lon="11.328477826442143"><ele>585.6666666666666</ele><time>2026-04-18T09:15:55.996Z</time></trkpt><trkpt lat="45.63801759861696" lon="11.328436234089127"><ele>582.0</ele><time>2026-04-18T09:15:57.996Z</time></trkpt><trkpt lat="45.63808854256875" lon="11.328349386639562"><ele>578.3333333333334</ele><time>2026-04-18T09:16:00.996Z</time></trkpt><trkpt lat="45.638144671060886" lon="11.32826599060269"><ele>574.6666666666667</ele><time>2026-04-18T09:16:03.996Z</time></trkpt><trkpt lat="45.63820006262383" lon="11.328175615532928"><ele>571.0</ele><time>2026-04-18T09:16:06.996Z</time></trkpt><trkpt lat="45.638257058968385" lon="11.328084238555178"><ele>570.5</ele><time>2026-04-18T09:16:09.996Z</time></trkpt><trkpt lat="45.63829548211401" lon="11.328005068770437"><ele>570.0</ele><time>2026-04-18T09:16:11.996Z</time></trkpt><trkpt lat="45.63832421380895" lon="11.327924744901047"><ele>569.5</ele><time>2026-04-18T09:16:13.996Z</time></trkpt><trkpt lat="45.63835431081479" lon="11.327802258982352"><ele>569.0</ele><time>2026-04-18T09:16:16.996Z</time></trkpt><trkpt lat="45.638405378685825" lon="11.327702014041591"><ele>568.5</ele><time>2026-04-18T09:16:19.995Z</time></trkpt><trkpt lat="45.638451041355786" lon="11.327616421893369"><ele>568.0</ele><time>2026-04-18T09:16:22.995Z</time></trkpt><trkpt lat="45.638520319019776" lon="11.327547602810528"><ele>568.0</ele><time>2026-04-18T09:16:25.995Z</time></trkpt><trkpt lat="45.638590930437765" lon="11.327518766956347"><ele>568.0</ele><time>2026-04-18T09:16:28.995Z</time></trkpt><trkpt lat="45.63867861503303" lon="11.327539691617151"><ele>568.0</ele><time>2026-04-18T09:16:31.995Z</time></trkpt><trkpt lat="45.638757317676095" lon="11.32754847852722"><ele>568.0</ele><time>2026-04-18T09:16:34.995Z</time></trkpt><trkpt lat="45.63883834796255" lon="11.327560870741463"><ele>568.0</ele><time>2026-04-18T09:16:37.995Z</time></trkpt><trkpt lat="45.638916619744386" lon="11.327602429203996"><ele>568.0</ele><time>2026-04-18T09:16:40.995Z</time></trkpt><trkpt lat="45.6389779257263" lon="11.327681012048677"><ele>566.3333333333334</ele><time>2026-04-18T09:16:43.995Z</time></trkpt><trkpt lat="45.63902950431381" lon="11.327761437136417"><ele>564.6666666666667</ele><time>2026-04-18T09:16:46.995Z</time></trkpt><trkpt lat="45.63908970592099" lon="11.327842702466018"><ele>563.0</ele><time>2026-04-18T09:16:49.995Z</time></trkpt><trkpt lat="45.63916006785601" lon="11.327896803228992"><ele>561.3333333333334</ele><time>2026-04-18T09:16:52.995Z</time></trkpt><trkpt lat="45.63923687694969" lon="11.327904446462664"><ele>559.6666666666666</ele><time>2026-04-18T09:16:55.995Z</time></trkpt><trkpt lat="45.63930871538228" lon="11.327850916173615"><ele>558.0</ele><time>2026-04-18T09:16:58.995Z</time></trkpt><trkpt lat="45.63937196586513" lon="11.327795551345995"><ele>557.9999999999999</ele><time>2026-04-18T09:17:01.994Z</time></trkpt><trkpt lat="45.63943251229795" lon="11.327762399155377"><ele>558.0</ele><time>2026-04-18T09:17:04.994Z</time></trkpt><trkpt lat="45.63948838884256" lon="11.327715336680118"><ele>558.0</ele><time>2026-04-18T09:17:07.994Z</time></trkpt><trkpt lat="45.63954107715928" lon="11.327662241512193"><ele>558.0</ele><time>2026-04-18T09:17:10.994Z</time></trkpt><trkpt lat="45.639597389045754" lon="11.327608418524258"><ele>558.0</ele><time>2026-04-18T09:17:13.994Z</time></trkpt><trkpt lat="45.63966031190792" lon="11.327560958587659"><ele>557.9999999999999</ele><time>2026-04-18T09:17:16.994Z</time></trkpt><trkpt lat="45.63972012668106" lon="11.327486488120618"><ele>558.0</ele><time>2026-04-18T09:17:19.994Z</time></trkpt><trkpt lat="45.639769688561884" lon="11.327383690817074"><ele>557.7142857142857</ele><time>2026-04-18T09:17:22.997Z</time></trkpt><trkpt lat="45.63983493595681" lon="11.327311808377575"><ele>557.4285714285714</ele><time>2026-04-18T09:17:25.996Z</time></trkpt><trkpt lat="45.63987173430016" lon="11.327236928931185"><ele>557.1428571428571</ele><time>2026-04-18T09:17:27.997Z</time></trkpt><trkpt lat="45.63990962397331" lon="11.32714973905624"><ele>556.8571428571429</ele><time>2026-04-18T09:17:29.997Z</time></trkpt><trkpt lat="45.6399546290784" lon="11.327071799500976"><ele>556.5714285714286</ele><time>2026-04-18T09:17:31.996Z</time></trkpt><trkpt lat="45.639996685127315" lon="11.326999458110624"><ele>556.2857142857142</ele><time>2026-04-18T09:17:33.997Z</time></trkpt><trkpt lat="45.64004193364941" lon="11.326932186075918"><ele>556.0</ele><time>2026-04-18T09:17:35.997Z</time></trkpt><trkpt lat="45.64011659671068" lon="11.32689852114303"><ele>554.1428571428571</ele><time>2026-04-18T09:17:37.997Z</time></trkpt><trkpt lat="45.64017783241551" lon="11.326864138593564"><ele>552.2857142857143</ele><time>2026-04-18T09:17:39.997Z</time></trkpt><trkpt lat="45.64023722112188" lon="11.32680725945104"><ele>550.4285714285714</ele><time>2026-04-18T09:17:41.997Z</time></trkpt><trkpt lat="45.64029412892069" lon="11.326737734599625"><ele>548.5714285714286</ele><time>2026-04-18T09:17:44.996Z</time></trkpt><trkpt lat="45.64028799804832" lon="11.3266125126553"><ele>546.7142857142857</ele><time>2026-04-18T09:17:47.996Z</time></trkpt><trkpt lat="45.64027676676575" lon="11.32650856902464"><ele>544.8571428571429</ele><time>2026-04-18T09:17:50.996Z</time></trkpt><trkpt lat="45.6402496201247" lon="11.326414737101931"><ele>543.0</ele><time>2026-04-18T09:17:53.996Z</time></trkpt><trkpt lat="45.64021561494425" lon="11.326326630100956"><ele>539.8333333333334</ele><time>2026-04-18T09:17:56.996Z</time></trkpt><trkpt lat="45.64019798485605" lon="11.32623389045444"><ele>536.6666666666666</ele><time>2026-04-18T09:17:59.996Z</time></trkpt><trkpt lat="45.6401513706024" lon="11.326134156159688"><ele>533.5</ele><time>2026-04-18T09:18:03.996Z</time></trkpt><trkpt lat="45.64008648317625" lon="11.326082629394405"><ele>530.3333333333333</ele><time>2026-04-18T09:18:07.996Z</time></trkpt><trkpt lat="45.64007334273957" lon="11.325991099327503"><ele>527.1666666666666</ele><time>2026-04-18T09:18:09.996Z</time></trkpt><trkpt lat="45.64009837530714" lon="11.325887251839479"><ele>524.0</ele><time>2026-04-18T09:18:12.996Z</time></trkpt><trkpt lat="45.64017301298661" lon="11.325835511084321"><ele>524.0</ele><time>2026-04-18T09:18:15.996Z</time></trkpt><trkpt lat="45.640248349795684" lon="11.325840042591798"><ele>524.0</ele><time>2026-04-18T09:18:18.996Z</time></trkpt><trkpt lat="45.640315289816385" lon="11.325828090553594"><ele>524.0</ele><time>2026-04-18T09:18:21.996Z</time></trkpt><trkpt lat="45.64039630136297" lon="11.32579037933747"><ele>524.0</ele><time>2026-04-18T09:18:25.995Z</time></trkpt><trkpt lat="45.64046716950293" lon="11.325811268285825"><ele>524.0</ele><time>2026-04-18T09:18:28.995Z</time></trkpt><trkpt lat="45.64053584531672" lon="11.325818963521971"><ele>524.0</ele><time>2026-04-18T09:18:31.995Z</time></trkpt><trkpt lat="45.640601761750084" lon="11.325803412696544"><ele>524.0</ele><time>2026-04-18T09:18:34.995Z</time></trkpt><trkpt lat="45.64068089786347" lon="11.32581714973048"><ele>523.5714285714286</ele><time>2026-04-18T09:18:37.995Z</time></trkpt><trkpt lat="45.6407466997075" lon="11.325813082940577"><ele>523.1428571428572</ele><time>2026-04-18T09:18:40.995Z</time></trkpt><trkpt lat="45.64082458811844" lon="11.325759061355027"><ele>522.7142857142858</ele><time>2026-04-18T09:18:44.995Z</time></trkpt><trkpt lat="45.64086346221229" lon="11.32565831418054"><ele>522.2857142857143</ele><time>2026-04-18T09:18:48.995Z</time></trkpt><trkpt lat="45.64084407444993" lon="11.325566356404964"><ele>521.8571428571429</ele><time>2026-04-18T09:18:52.995Z</time></trkpt><trkpt lat="45.64079373281139" lon="11.325503414977177"><ele>521.4285714285714</ele><time>2026-04-18T09:18:55.995Z</time></trkpt><trkpt lat="45.6408067127805" lon="11.325395520383868"><ele>521.0</ele><time>2026-04-18T09:18:59.995Z</time></trkpt><trkpt lat="45.640753689681326" lon="11.325327069030635"><ele>518.0</ele><time>2026-04-18T09:19:02.995Z</time></trkpt><trkpt lat="45.64071640151218" lon="11.325230079496498"><ele>515.0</ele><time>2026-04-18T09:19:06.994Z</time></trkpt><trkpt lat="45.640779905725" lon="11.325175350286488"><ele>512.0</ele><time>2026-04-18T09:19:10.994Z</time></trkpt><trkpt lat="45.64084380908258" lon="11.325164583794184"><ele>509.0</ele><time>2026-04-18T09:19:12.994Z</time></trkpt><trkpt lat="45.64091187874665" lon="11.325166025031805"><ele>506.0</ele><time>2026-04-18T09:19:15.994Z</time></trkpt><trkpt lat="45.64098513713798" lon="11.325167441113976"><ele>503.0</ele><time>2026-04-18T09:19:18.994Z</time></trkpt><trkpt lat="45.641045063204174" lon="11.32519635112782"><ele>500.0</ele><time>2026-04-18T09:19:21.994Z</time></trkpt><trkpt lat="45.64110167592032" lon="11.32524466832725"><ele>501.0</ele><time>2026-04-18T09:19:24.994Z</time></trkpt><trkpt lat="45.64116925655494" lon="11.325266389390135"><ele>502.0</ele><time>2026-04-18T09:19:27.996Z</time></trkpt><trkpt lat="45.6412350821865" lon="11.32524505772735"><ele>503.0</ele><time>2026-04-18T09:19:31.997Z</time></trkpt><trkpt lat="45.64127410256796" lon="11.325171374322464"><ele>504.0</ele><time>2026-04-18T09:19:34.997Z</time></trkpt><trkpt lat="45.64130534777336" lon="11.325075219794766"><ele>505.0</ele><time>2026-04-18T09:19:40.996Z</time></trkpt><trkpt lat="45.64131334170881" lon="11.324963772563935"><ele>506.0</ele><time>2026-04-18T09:19:56.996Z</time></trkpt><trkpt lat="45.64130540739565" lon="11.324848612959611"><ele>507.0</ele><time>2026-04-18T09:20:00.996Z</time></trkpt><trkpt lat="45.64131012124056" lon="11.324735730480922"><ele>506.2857142857143</ele><time>2026-04-18T09:20:03.996Z</time></trkpt><trkpt lat="45.64134485470542" lon="11.324660347682663"><ele>505.57142857142856</ele><time>2026-04-18T09:20:05.996Z</time></trkpt><trkpt lat="45.641391936681735" lon="11.324563462145498"><ele>504.85714285714283</ele><time>2026-04-18T09:20:08.996Z</time></trkpt><trkpt lat="45.64144969028175" lon="11.324487472408753"><ele>504.1428571428571</ele><time>2026-04-18T09:20:11.996Z</time></trkpt><trkpt lat="45.64150347157876" lon="11.324413512659113"><ele>503.42857142857144</ele><time>2026-04-18T09:20:14.995Z</time></trkpt><trkpt lat="45.64155616774639" lon="11.324348649080372"><ele>502.71428571428567</ele><time>2026-04-18T09:20:17.995Z</time></trkpt><trkpt lat="45.64158877149377" lon="11.324248742145071"><ele>501.99999999999994</ele><time>2026-04-18T09:20:20.995Z</time></trkpt><trkpt lat="45.6416412302846" lon="11.324171938799676"><ele>501.99999999999994</ele><time>2026-04-18T09:20:23.995Z</time></trkpt><trkpt lat="45.64168457172879" lon="11.32409728165086"><ele>502.0</ele><time>2026-04-18T09:20:26.995Z</time></trkpt><trkpt lat="45.64170888823583" lon="11.324000691811674"><ele>501.99999999999994</ele><time>2026-04-18T09:20:29.995Z</time></trkpt><trkpt lat="45.641744915079" lon="11.323920602315575"><ele>501.99999999999994</ele><time>2026-04-18T09:20:32.995Z</time></trkpt><trkpt lat="45.64177769712659" lon="11.32383083661402"><ele>502.0</ele><time>2026-04-18T09:20:35.995Z</time></trkpt><trkpt lat="45.64184077743715" lon="11.323763101237342"><ele>501.99999999999994</ele><time>2026-04-18T09:20:38.995Z</time></trkpt><trkpt lat="45.64191946835941" lon="11.323737142082189"><ele>501.99999999999994</ele><time>2026-04-18T09:20:41.995Z</time></trkpt><trkpt lat="45.64198164913464" lon="11.323675793351384"><ele>502.71428571428567</ele><time>2026-04-18T09:20:44.995Z</time></trkpt><trkpt lat="45.64203175481944" lon="11.323619032788336"><ele>503.42857142857144</ele><time>2026-04-18T09:20:50.995Z</time></trkpt><trkpt lat="45.642050295998615" lon="11.323532634549304"><ele>504.1428571428571</ele><time>2026-04-18T09:20:59.994Z</time></trkpt><trkpt lat="45.64206718796134" lon="11.323425974575818"><ele>504.85714285714283</ele><time>2026-04-18T09:21:03.994Z</time></trkpt><trkpt lat="45.64205539043545" lon="11.323335576226743"><ele>505.57142857142856</ele><time>2026-04-18T09:21:08.994Z</time></trkpt><trkpt lat="45.64204775098366" lon="11.323228830074076"><ele>506.2857142857143</ele><time>2026-04-18T09:21:12.994Z</time></trkpt><trkpt lat="45.642031703494716" lon="11.323125350373497"><ele>507.0</ele><time>2026-04-18T09:21:15.994Z</time></trkpt><trkpt lat="45.642035174401926" lon="11.323005001607394"><ele>507.0</ele><time>2026-04-18T09:21:18.994Z</time></trkpt><trkpt lat="45.642057446468925" lon="11.322919530345873"><ele>507.0</ele><time>2026-04-18T09:21:21.994Z</time></trkpt><trkpt lat="45.64210310451143" lon="11.322849943312704"><ele>507.0</ele><time>2026-04-18T09:21:25.994Z</time></trkpt><trkpt lat="45.64214556636016" lon="11.322760515763942"><ele>507.0</ele><time>2026-04-18T09:21:30.994Z</time></trkpt><trkpt lat="45.642177393544486" lon="11.322673121890391"><ele>507.0</ele><time>2026-04-18T09:21:35.997Z</time></trkpt><trkpt lat="45.64221794909971" lon="11.322595656265277"><ele>507.0</ele><time>2026-04-18T09:21:43.996Z</time></trkpt><trkpt lat="45.64228278953848" lon="11.322533732056655"><ele>507.0</ele><time>2026-04-18T09:21:52.996Z</time></trkpt><trkpt lat="45.642342506235295" lon="11.322503589649086"><ele>507.0</ele><time>2026-04-18T09:22:00.996Z</time></trkpt><trkpt lat="45.64241115111671" lon="11.322456366470169"><ele>507.0</ele><time>2026-04-18T09:22:07.996Z</time></trkpt><trkpt lat="45.64246649178263" lon="11.322387641152297"><ele>507.0</ele><time>2026-04-18T09:22:15.996Z</time></trkpt><trkpt lat="45.642520482875014" lon="11.32231616424843"><ele>507.0</ele><time>2026-04-18T09:22:24.995Z</time></trkpt><trkpt lat="45.64258274788013" lon="11.32224492293388"><ele>507.0</ele><time>2026-04-18T09:22:36.995Z</time></trkpt><trkpt lat="45.64262733393229" lon="11.322172743401058"><ele>507.0</ele><time>2026-04-18T09:22:42.995Z</time></trkpt><trkpt lat="45.6426449343523" lon="11.322061362723824"><ele>506.85714285714283</ele><time>2026-04-18T09:22:47.995Z</time></trkpt><trkpt lat="45.64267380629501" lon="11.321974314582498"><ele>506.7142857142858</ele><time>2026-04-18T09:22:52.995Z</time></trkpt><trkpt lat="45.64268750378972" lon="11.321884183059217"><ele>506.5714285714286</ele><time>2026-04-18T09:22:57.995Z</time></trkpt><trkpt lat="45.642711066164935" lon="11.321799497200356"><ele>506.42857142857144</ele><time>2026-04-18T09:23:00.995Z</time></trkpt><trkpt lat="45.6427261403874" lon="11.32170800535326"><ele>506.28571428571433</ele><time>2026-04-18T09:23:03.994Z</time></trkpt><trkpt lat="45.642740045785736" lon="11.32159731374608"><ele>506.1428571428572</ele><time>2026-04-18T09:23:06.994Z</time></trkpt><trkpt lat="45.64276274410552" lon="11.32147620768309"><ele>506.00000000000006</ele><time>2026-04-18T09:23:09.994Z</time></trkpt><trkpt lat="45.642819196895246" lon="11.321375454196826"><ele>507.99999999999994</ele><time>2026-04-18T09:23:12.994Z</time></trkpt><trkpt lat="45.64287455114941" lon="11.321281115696122"><ele>510.0</ele><time>2026-04-18T09:23:15.992Z</time></trkpt><trkpt lat="45.64292314189863" lon="11.321199619643028"><ele>512.0</ele><time>2026-04-18T09:23:18.991Z</time></trkpt><trkpt lat="45.64297308035808" lon="11.321119668000305"><ele>514.0</ele><time>2026-04-18T09:23:21.989Z</time></trkpt><trkpt lat="45.64300062130883" lon="11.321031618951954"><ele>516.0</ele><time>2026-04-18T09:23:24.988Z</time></trkpt><trkpt lat="45.643023100231595" lon="11.32092954253267"><ele>518.0</ele><time>2026-04-18T09:23:27.988Z</time></trkpt><trkpt lat="45.64305271792116" lon="11.320824635248988"><ele>518.0</ele><time>2026-04-18T09:23:30.987Z</time></trkpt><trkpt lat="45.64308642638061" lon="11.320704882812182"><ele>518.0</ele><time>2026-04-18T09:23:33.986Z</time></trkpt><trkpt lat="45.6430861029554" lon="11.320610168462899"><ele>518.0</ele><time>2026-04-18T09:23:36.986Z</time></trkpt><trkpt lat="45.643093625100875" lon="11.320520597993937"><ele>518.0</ele><time>2026-04-18T09:23:40.988Z</time></trkpt><trkpt lat="45.64315659818992" lon="11.320452473013937"><ele>518.0</ele><time>2026-04-18T09:23:43.988Z</time></trkpt><trkpt lat="45.643191454101185" lon="11.320359614953427"><ele>518.0</ele><time>2026-04-18T09:23:46.988Z</time></trkpt><trkpt lat="45.643236620131844" lon="11.320257604043354"><ele>515.4285714285714</ele><time>2026-04-18T09:23:50.988Z</time></trkpt><trkpt lat="45.64329012758906" lon="11.32018351781571"><ele>512.8571428571429</ele><time>2026-04-18T09:23:54.987Z</time></trkpt><trkpt lat="45.64333798782544" lon="11.320123475127145"><ele>510.2857142857143</ele><time>2026-04-18T09:23:59.987Z</time></trkpt><trkpt lat="45.64332868022979" lon="11.320030397048633"><ele>507.7142857142857</ele><time>2026-04-18T09:24:05.987Z</time></trkpt><trkpt lat="45.64337529060746" lon="11.319943543672007"><ele>505.14285714285717</ele><time>2026-04-18T09:24:10.986Z</time></trkpt><trkpt lat="45.64345460290205" lon="11.319931566954642"><ele>502.57142857142856</ele><time>2026-04-18T09:24:13.986Z</time></trkpt><trkpt lat="45.643520347905024" lon="11.319916086705799"><ele>500.0</ele><time>2026-04-18T09:24:16.986Z</time></trkpt><trkpt lat="45.643596460221275" lon="11.319899073036055"><ele>498.16666666666663</ele><time>2026-04-18T09:24:20.986Z</time></trkpt><trkpt lat="45.64367340074784" lon="11.319902645458953"><ele>496.3333333333333</ele><time>2026-04-18T09:24:25.986Z</time></trkpt><trkpt lat="45.643753011168506" lon="11.31992334400748"><ele>494.5</ele><time>2026-04-18T09:24:29.986Z</time></trkpt><trkpt lat="45.64382882558428" lon="11.319880485003043"><ele>492.66666666666663</ele><time>2026-04-18T09:24:32.986Z</time></trkpt><trkpt lat="45.64389596542763" lon="11.319800381973588"><ele>490.8333333333333</ele><time>2026-04-18T09:24:37.986Z</time></trkpt><trkpt lat="45.64396162028012" lon="11.319779475477246"><ele>489.0</ele><time>2026-04-18T09:24:41.985Z</time></trkpt><trkpt lat="45.643983278342134" lon="11.319686790034877"><ele>485.5</ele><time>2026-04-18T09:24:46.985Z</time></trkpt><trkpt lat="45.64404796833489" lon="11.31964816618681"><ele>482.0</ele><time>2026-04-18T09:24:52.985Z</time></trkpt><trkpt lat="45.64413168480907" lon="11.319638837383536"><ele>478.5</ele><time>2026-04-18T09:24:57.985Z</time></trkpt><trkpt lat="45.644208325157344" lon="11.319600847513993"><ele>475.0</ele><time>2026-04-18T09:25:00.985Z</time></trkpt><trkpt lat="45.64426570746912" lon="11.31951817387117"><ele>471.5</ele><time>2026-04-18T09:25:04.985Z</time></trkpt><trkpt lat="45.64430830664017" lon="11.31943529207787"><ele>468.0</ele><time>2026-04-18T09:25:08.985Z</time></trkpt><trkpt lat="45.6443197589664" lon="11.319327162074723"><ele>468.0</ele><time>2026-04-18T09:25:12.985Z</time></trkpt><trkpt lat="45.64433547576989" lon="11.319210033738964"><ele>468.0</ele><time>2026-04-18T09:25:15.985Z</time></trkpt><trkpt lat="45.64429298147162" lon="11.319138835312431"><ele>468.0</ele><time>2026-04-18T09:25:18.985Z</time></trkpt><trkpt lat="45.644279226645295" lon="11.319031482872832"><ele>468.0</ele><time>2026-04-18T09:25:21.984Z</time></trkpt><trkpt lat="45.64428026338024" lon="11.318928499176574"><ele>468.0</ele><time>2026-04-18T09:25:24.984Z</time></trkpt><trkpt lat="45.644274470042" lon="11.318808393131455"><ele>468.0</ele><time>2026-04-18T09:25:27.984Z</time></trkpt><trkpt lat="45.64426746392019" lon="11.318678007764827"><ele>465.6666666666667</ele><time>2026-04-18T09:25:30.984Z</time></trkpt><trkpt lat="45.644268091973906" lon="11.318549525141634"><ele>463.33333333333337</ele><time>2026-04-18T09:25:33.984Z</time></trkpt><trkpt lat="45.644236248993415" lon="11.318449336399945"><ele>461.0</ele><time>2026-04-18T09:25:36.984Z</time></trkpt><trkpt lat="45.644229111974965" lon="11.31835638221172"><ele>458.6666666666667</ele><time>2026-04-18T09:25:38.984Z</time></trkpt><trkpt lat="45.644222508787166" lon="11.318236669431997"><ele>456.33333333333337</ele><time>2026-04-18T09:25:41.984Z</time></trkpt><trkpt lat="45.64422515881742" lon="11.318113812778469"><ele>454.0</ele><time>2026-04-18T09:25:44.987Z</time></trkpt><trkpt lat="45.64422780128601" lon="11.318017822328448"><ele>450.6666666666667</ele><time>2026-04-18T09:25:46.987Z</time></trkpt><trkpt lat="45.64424689479547" lon="11.31789529202058"><ele>447.33333333333337</ele><time>2026-04-18T09:25:49.986Z</time></trkpt><trkpt lat="45.64425067294507" lon="11.317763909934763"><ele>444.0</ele><time>2026-04-18T09:25:52.987Z</time></trkpt><trkpt lat="45.6442435069478" lon="11.317672058371032"><ele>440.66666666666663</ele><time>2026-04-18T09:25:54.986Z</time></trkpt><trkpt lat="45.64428584467275" lon="11.317569177719323"><ele>437.3333333333333</ele><time>2026-04-18T09:25:56.986Z</time></trkpt><trkpt lat="45.64433264732284" lon="11.317492497596449"><ele>434.0</ele><time>2026-04-18T09:25:58.987Z</time></trkpt><trkpt lat="45.6443874687465" lon="11.317446956697694"><ele>433.99999999999994</ele><time>2026-04-18T09:26:00.987Z</time></trkpt><trkpt lat="45.644455668796525" lon="11.317380464239184"><ele>434.0</ele><time>2026-04-18T09:26:03.987Z</time></trkpt><trkpt lat="45.64452956100239" lon="11.317330032957363"><ele>434.0</ele><time>2026-04-18T09:26:07.987Z</time></trkpt><trkpt lat="45.644574752026784" lon="11.31723540442121"><ele>434.0</ele><time>2026-04-18T09:26:10.987Z</time></trkpt><trkpt lat="45.644578625878864" lon="11.317132798880209"><ele>433.99999999999994</ele><time>2026-04-18T09:26:14.987Z</time></trkpt><trkpt lat="45.64454180973971" lon="11.317029620640126"><ele>434.0</ele><time>2026-04-18T09:26:17.987Z</time></trkpt><trkpt lat="45.64451052555688" lon="11.316906567896327"><ele>435.14285714285717</ele><time>2026-04-18T09:26:21.986Z</time></trkpt><trkpt lat="45.64450350011795" lon="11.316795443000817"><ele>436.2857142857143</ele><time>2026-04-18T09:26:24.986Z</time></trkpt><trkpt lat="45.6445046930857" lon="11.31669738863273"><ele>437.42857142857144</ele><time>2026-04-18T09:26:27.986Z</time></trkpt><trkpt lat="45.64454675849818" lon="11.316605270288397"><ele>438.57142857142856</ele><time>2026-04-18T09:26:30.986Z</time></trkpt><trkpt lat="45.64457527076494" lon="11.316494655428219"><ele>439.7142857142857</ele><time>2026-04-18T09:26:33.986Z</time></trkpt><trkpt lat="45.6445906854831" lon="11.31639343609111"><ele>440.8571428571429</ele><time>2026-04-18T09:26:36.986Z</time></trkpt><trkpt lat="45.64461567310607" lon="11.316298349011829"><ele>442.0</ele><time>2026-04-18T09:26:39.986Z</time></trkpt><trkpt lat="45.64463758261413" lon="11.316210943995003"><ele>439.5714285714286</ele><time>2026-04-18T09:26:42.986Z</time></trkpt><trkpt lat="45.64465174954438" lon="11.316118440764631"><ele>437.14285714285717</ele><time>2026-04-18T09:26:45.986Z</time></trkpt><trkpt lat="45.644684670954454" lon="11.316027248943897"><ele>434.7142857142857</ele><time>2026-04-18T09:26:48.986Z</time></trkpt><trkpt lat="45.64471809525732" lon="11.315934225810736"><ele>432.28571428571433</ele><time>2026-04-18T09:26:51.986Z</time></trkpt><trkpt lat="45.64477115963398" lon="11.3158467447221"><ele>429.85714285714283</ele><time>2026-04-18T09:26:55.985Z</time></trkpt><trkpt lat="45.64482375622559" lon="11.315793839000486"><ele>427.42857142857144</ele><time>2026-04-18T09:26:58.985Z</time></trkpt><trkpt lat="45.64487111484999" lon="11.31572830367833"><ele>425.0</ele><time>2026-04-18T09:27:04.985Z</time></trkpt><trkpt lat="45.64492639649969" lon="11.315629548833195"><ele>420.99999999999994</ele><time>2026-04-18T09:27:09.985Z</time></trkpt><trkpt lat="45.6449516914992" lon="11.31553526775036"><ele>417.0</ele><time>2026-04-18T09:27:16.985Z</time></trkpt><trkpt lat="45.644941590390395" lon="11.315428031644302"><ele>413.0</ele><time>2026-04-18T09:27:22.985Z</time></trkpt><trkpt lat="45.644927971127444" lon="11.315325721315288"><ele>409.0</ele><time>2026-04-18T09:27:27.985Z</time></trkpt><trkpt lat="45.644938574739626" lon="11.315213034454553"><ele>404.99999999999994</ele><time>2026-04-18T09:27:31.985Z</time></trkpt><trkpt lat="45.644974572808366" lon="11.315114694659748"><ele>401.0</ele><time>2026-04-18T09:27:35.984Z</time></trkpt><trkpt lat="45.644966645176645" lon="11.315003240241694"><ele>401.0</ele><time>2026-04-18T09:27:39.984Z</time></trkpt><trkpt lat="45.64499367918088" lon="11.314911357028711"><ele>401.0</ele><time>2026-04-18T09:27:43.984Z</time></trkpt><trkpt lat="45.64496644661105" lon="11.314818808260895"><ele>401.0</ele><time>2026-04-18T09:27:47.984Z</time></trkpt><trkpt lat="45.64493686301936" lon="11.314736244282312"><ele>401.0</ele><time>2026-04-18T09:27:51.986Z</time></trkpt><trkpt lat="45.64491003528592" lon="11.314645440409205"><ele>401.0</ele><time>2026-04-18T09:27:55.986Z</time></trkpt><trkpt lat="45.64486991200283" lon="11.314573769337034"><ele>401.0</ele><time>2026-04-18T09:27:59.986Z</time></trkpt><trkpt lat="45.6448180561539" lon="11.314505821500745"><ele>401.0</ele><time>2026-04-18T09:28:03.987Z</time></trkpt><trkpt lat="45.644746610067244" lon="11.314476327451116"><ele>399.0</ele><time>2026-04-18T09:28:07.986Z</time></trkpt><trkpt lat="45.644682748571405" lon="11.314444784886712"><ele>397.0</ele><time>2026-04-18T09:28:10.986Z</time></trkpt><trkpt lat="45.64460874514028" lon="11.31441294333404"><ele>395.0</ele><time>2026-04-18T09:28:14.986Z</time></trkpt><trkpt lat="45.644552701473955" lon="11.31435353588476"><ele>393.0</ele><time>2026-04-18T09:28:17.986Z</time></trkpt><trkpt lat="45.64448091886766" lon="11.314327185606881"><ele>391.0</ele><time>2026-04-18T09:28:20.986Z</time></trkpt><trkpt lat="45.64443019387468" lon="11.314272863796099"><ele>389.0</ele><time>2026-04-18T09:28:23.986Z</time></trkpt><trkpt lat="45.644361781233634" lon="11.31423993240011"><ele>387.0</ele><time>2026-04-18T09:28:26.986Z</time></trkpt><trkpt lat="45.64428874157081" lon="11.314207619292628"><ele>387.0</ele><time>2026-04-18T09:28:29.986Z</time></trkpt><trkpt lat="45.644206335379145" lon="11.314200552377008"><ele>387.0</ele><time>2026-04-18T09:28:32.986Z</time></trkpt><trkpt lat="45.64413685730516" lon="11.314145634766057"><ele>387.0</ele><time>2026-04-18T09:28:35.986Z</time></trkpt><trkpt lat="45.64405336707616" lon="11.314102243528486"><ele>387.0</ele><time>2026-04-18T09:28:38.986Z</time></trkpt><trkpt lat="45.643991641360635" lon="11.314047367645422"><ele>387.0</ele><time>2026-04-18T09:28:41.986Z</time></trkpt><trkpt lat="45.64392905813193" lon="11.314010185388678"><ele>387.0</ele><time>2026-04-18T09:28:44.985Z</time></trkpt><trkpt lat="45.64387288576969" lon="11.313928091207124"><ele>386.3333333333333</ele><time>2026-04-18T09:28:47.985Z</time></trkpt><trkpt lat="45.64379579384024" lon="11.313891254364112"><ele>385.6666666666667</ele><time>2026-04-18T09:28:50.985Z</time></trkpt><trkpt lat="45.643752462022064" lon="11.313815636212915"><ele>385.0</ele><time>2026-04-18T09:28:53.985Z</time></trkpt><trkpt lat="45.64368635169112" lon="11.313729638392207"><ele>384.33333333333337</ele><time>2026-04-18T09:28:56.985Z</time></trkpt><trkpt lat="45.64363015380129" lon="11.313682462076551"><ele>383.6666666666667</ele><time>2026-04-18T09:28:58.985Z</time></trkpt><trkpt lat="45.6435431923911" lon="11.3136299017629"><ele>383.0</ele><time>2026-04-18T09:29:01.985Z</time></trkpt><trkpt lat="45.64347788452046" lon="11.313549955047579"><ele>382.83333333333337</ele><time>2026-04-18T09:29:04.985Z</time></trkpt><trkpt lat="45.64341678437008" lon="11.313458255457595"><ele>382.6666666666667</ele><time>2026-04-18T09:29:07.985Z</time></trkpt><trkpt lat="45.643365955470905" lon="11.313355777296184"><ele>382.5</ele><time>2026-04-18T09:29:10.985Z</time></trkpt><trkpt lat="45.64332750410244" lon="11.313247318202851"><ele>382.3333333333333</ele><time>2026-04-18T09:29:13.985Z</time></trkpt><trkpt lat="45.643293467626265" lon="11.313169200788618"><ele>382.16666666666663</ele><time>2026-04-18T09:29:16.985Z</time></trkpt><trkpt lat="45.64323227802491" lon="11.3131306993695"><ele>382.0</ele><time>2026-04-18T09:29:19.984Z</time></trkpt><trkpt lat="45.64321599346012" lon="11.313000921985077"><ele>382.0</ele><time>2026-04-18T09:29:22.984Z</time></trkpt><trkpt lat="45.64312592361114" lon="11.312946400767666"><ele>382.0</ele><time>2026-04-18T09:29:27.984Z</time></trkpt><trkpt lat="45.643078049757214" lon="11.31288112734538"><ele>382.0</ele><time>2026-04-18T09:29:29.984Z</time></trkpt><trkpt lat="45.64305790497749" lon="11.3127566816248"><ele>382.0</ele><time>2026-04-18T09:29:32.984Z</time></trkpt><trkpt lat="45.64303988451746" lon="11.312655137498721"><ele>382.0</ele><time>2026-04-18T09:29:34.984Z</time></trkpt><trkpt lat="45.643044123408316" lon="11.312553875669837"><ele>382.0</ele><time>2026-04-18T09:29:36.984Z</time></trkpt><trkpt lat="45.643014031292275" lon="11.312442893263952"><ele>382.0</ele><time>2026-04-18T09:29:39.984Z</time></trkpt><trkpt lat="45.64302550492134" lon="11.312319859540313"><ele>382.0</ele><time>2026-04-18T09:29:42.984Z</time></trkpt><trkpt lat="45.64299899550249" lon="11.312218973436561"><ele>382.0</ele><time>2026-04-18T09:29:45.984Z</time></trkpt><trkpt lat="45.642946412310586" lon="11.31213371535745"><ele>382.0</ele><time>2026-04-18T09:29:48.984Z</time></trkpt><trkpt lat="45.64288234585687" lon="11.312075387818508"><ele>382.0</ele><time>2026-04-18T09:29:51.984Z</time></trkpt><trkpt lat="45.64281988776835" lon="11.31204617067394"><ele>382.0</ele><time>2026-04-18T09:29:54.984Z</time></trkpt><trkpt lat="45.64273221070732" lon="11.31202599506275"><ele>379.8571428571429</ele><time>2026-04-18T09:29:58.986Z</time></trkpt><trkpt lat="45.64266372511175" lon="11.31204114643627"><ele>377.71428571428567</ele><time>2026-04-18T09:30:01.986Z</time></trkpt><trkpt lat="45.64260126381492" lon="11.312064470726199"><ele>375.57142857142856</ele><time>2026-04-18T09:30:04.986Z</time></trkpt><trkpt lat="45.64252528209765" lon="11.312081061596341"><ele>373.42857142857144</ele><time>2026-04-18T09:30:07.986Z</time></trkpt><trkpt lat="45.64244660793308" lon="11.312082044011522"><ele>371.28571428571433</ele><time>2026-04-18T09:30:10.986Z</time></trkpt><trkpt lat="45.64236575811021" lon="11.312105107104301"><ele>369.1428571428571</ele><time>2026-04-18T09:30:13.986Z</time></trkpt><trkpt lat="45.64229833659251" lon="11.312100308421538"><ele>367.0</ele><time>2026-04-18T09:30:15.986Z</time></trkpt><trkpt lat="45.642219753242486" lon="11.312123526580505"><ele>367.0</ele><time>2026-04-18T09:30:18.986Z</time></trkpt><trkpt lat="45.64214893601162" lon="11.312175554419385"><ele>367.0</ele><time>2026-04-18T09:30:21.985Z</time></trkpt><trkpt lat="45.64209411255439" lon="11.312226880422065"><ele>367.0</ele><time>2026-04-18T09:30:23.985Z</time></trkpt><trkpt lat="45.642020620813504" lon="11.312288967653135"><ele>367.0</ele><time>2026-04-18T09:30:26.985Z</time></trkpt><trkpt lat="45.641973171049514" lon="11.31235489399461"><ele>367.0</ele><time>2026-04-18T09:30:29.985Z</time></trkpt><trkpt lat="45.64193078440495" lon="11.312441329070083"><ele>367.0</ele><time>2026-04-18T09:30:32.985Z</time></trkpt><trkpt lat="45.64189140260621" lon="11.312536799169385"><ele>367.0</ele><time>2026-04-18T09:30:35.985Z</time></trkpt><trkpt lat="45.641863849775476" lon="11.312627374165867"><ele>364.4285714285714</ele><time>2026-04-18T09:30:38.985Z</time></trkpt><trkpt lat="45.64186366623015" lon="11.3127175621792"><ele>361.8571428571429</ele><time>2026-04-18T09:30:41.985Z</time></trkpt><trkpt lat="45.64185746000951" lon="11.312834665993751"><ele>359.2857142857143</ele><time>2026-04-18T09:30:45.985Z</time></trkpt><trkpt lat="45.64185166563813" lon="11.312934040315753"><ele>356.71428571428567</ele><time>2026-04-18T09:30:48.985Z</time></trkpt><trkpt lat="45.641791993912506" lon="11.313029483711254"><ele>354.1428571428571</ele><time>2026-04-18T09:30:52.985Z</time></trkpt><trkpt lat="45.641734325486915" lon="11.313067255957362"><ele>351.57142857142856</ele><time>2026-04-18T09:30:55.985Z</time></trkpt><trkpt lat="45.641657801023" lon="11.31310131100879"><ele>349.0</ele><time>2026-04-18T09:30:59.984Z</time></trkpt><trkpt lat="45.64158162541069" lon="11.313096448110164"><ele>349.0</ele><time>2026-04-18T09:31:02.984Z</time></trkpt><trkpt lat="45.64150121692786" lon="11.313132540139666"><ele>349.0</ele><time>2026-04-18T09:31:05.984Z</time></trkpt><trkpt lat="45.641431428127795" lon="11.313137733708611"><ele>349.0</ele><time>2026-04-18T09:31:08.984Z</time></trkpt><trkpt lat="45.641368486964765" lon="11.313131904612773"><ele>349.0</ele><time>2026-04-18T09:31:10.984Z</time></trkpt><trkpt lat="45.64129829976188" lon="11.31312900874985"><ele>349.0</ele><time>2026-04-18T09:31:12.984Z</time></trkpt><trkpt lat="45.641225979425776" lon="11.31317061951359"><ele>349.0</ele><time>2026-04-18T09:31:15.984Z</time></trkpt><trkpt lat="45.641140111603455" lon="11.313189540512685"><ele>347.2857142857143</ele><time>2026-04-18T09:31:18.984Z</time></trkpt><trkpt lat="45.64108013803741" lon="11.31322262936442"><ele>345.57142857142856</ele><time>2026-04-18T09:31:20.984Z</time></trkpt><trkpt lat="45.641019212328786" lon="11.313245811575467"><ele>343.8571428571429</ele><time>2026-04-18T09:31:22.984Z</time></trkpt><trkpt lat="45.64093905650026" lon="11.313289759938177"><ele>342.1428571428571</ele><time>2026-04-18T09:31:25.984Z</time></trkpt><trkpt lat="45.64086722295056" lon="11.313318471130906"><ele>340.42857142857144</ele><time>2026-04-18T09:31:27.984Z</time></trkpt><trkpt lat="45.64079333159917" lon="11.31333771854359"><ele>338.7142857142857</ele><time>2026-04-18T09:31:30.984Z</time></trkpt><trkpt lat="45.64071966274806" lon="11.313336049566496"><ele>337.0</ele><time>2026-04-18T09:31:33.984Z</time></trkpt><trkpt lat="45.64063396083127" lon="11.313295638114765"><ele>337.0</ele><time>2026-04-18T09:31:36.983Z</time></trkpt><trkpt lat="45.64054727295917" lon="11.313259618910992"><ele>337.0</ele><time>2026-04-18T09:31:39.983Z</time></trkpt><trkpt lat="45.64044727237534" lon="11.313256639595643"><ele>337.0</ele><time>2026-04-18T09:31:41.983Z</time></trkpt><trkpt lat="45.64037062021454" lon="11.313233127495534"><ele>337.0</ele><time>2026-04-18T09:31:43.983Z</time></trkpt><trkpt lat="45.64032713086902" lon="11.313137071208665"><ele>337.0</ele><time>2026-04-18T09:31:46.983Z</time></trkpt><trkpt lat="45.640305851630295" lon="11.313042825396288"><ele>337.0</ele><time>2026-04-18T09:31:51.983Z</time></trkpt><trkpt lat="45.64032588080525" lon="11.312939425784199"><ele>336.16666666666663</ele><time>2026-04-18T09:31:54.983Z</time></trkpt><trkpt lat="45.64034596975758" lon="11.312839826307941"><ele>335.3333333333333</ele><time>2026-04-18T09:32:03.986Z</time></trkpt><trkpt lat="45.64037603581456" lon="11.312747041985263"><ele>334.5</ele><time>2026-04-18T09:32:11.986Z</time></trkpt><trkpt lat="45.640446089749894" lon="11.312625960597288"><ele>333.6666666666667</ele><time>2026-04-18T09:32:23.985Z</time></trkpt><trkpt lat="45.640384155629526" lon="11.312599971120578"><ele>332.83333333333337</ele><time>2026-04-18T09:32:28.985Z</time></trkpt><trkpt lat="45.640379676132746" lon="11.312499927267032"><ele>332.0</ele><time>2026-04-18T09:32:36.985Z</time></trkpt><trkpt lat="45.640438007435435" lon="11.312463977195918"><ele>332.0</ele><time>2026-04-18T09:32:52.984Z</time></trkpt><trkpt lat="45.6404540729773" lon="11.312357772314344"><ele>332.0</ele><time>2026-04-18T09:33:00.984Z</time></trkpt><trkpt lat="45.640472605314955" lon="11.312269995753574"><ele>332.0</ele><time>2026-04-18T09:33:10.984Z</time></trkpt><trkpt lat="45.64044378390207" lon="11.31217320075713"><ele>332.0</ele><time>2026-04-18T09:33:19.984Z</time></trkpt><trkpt lat="45.64038266269691" lon="11.31210701147502"><ele>332.0</ele><time>2026-04-18T09:33:24.984Z</time></trkpt><trkpt lat="45.64033327423124" lon="11.312044499851352"><ele>332.0</ele><time>2026-04-18T09:33:27.984Z</time></trkpt><trkpt lat="45.64031355134518" lon="11.311949548855631"><ele>332.0</ele><time>2026-04-18T09:33:29.983Z</time></trkpt><trkpt lat="45.64028540835895" lon="11.311863488045208"><ele>329.5</ele><time>2026-04-18T09:33:32.983Z</time></trkpt><trkpt lat="45.640237863014455" lon="11.311797779911606"><ele>327.0</ele><time>2026-04-18T09:33:36.983Z</time></trkpt><trkpt lat="45.640207923932394" lon="11.311681868610187"><ele>324.5</ele><time>2026-04-18T09:33:40.983Z</time></trkpt><trkpt lat="45.64016703771738" lon="11.31159707913021"><ele>322.0</ele><time>2026-04-18T09:33:43.983Z</time></trkpt><trkpt lat="45.64013569291905" lon="11.311497725323026"><ele>319.5</ele><time>2026-04-18T09:33:47.983Z</time></trkpt><trkpt lat="45.64011468709109" lon="11.311384161776024"><ele>317.0</ele><time>2026-04-18T09:33:50.983Z</time></trkpt><trkpt lat="45.640091061844075" lon="11.311284549325846"><ele>313.8571428571429</ele><time>2026-04-18T09:33:55.983Z</time></trkpt><trkpt lat="45.64006709628343" lon="11.311196090264499"><ele>310.7142857142857</ele><time>2026-04-18T09:33:58.983Z</time></trkpt><trkpt lat="45.64006399568469" lon="11.311097681032862"><ele>307.57142857142856</ele><time>2026-04-18T09:34:03.983Z</time></trkpt><trkpt lat="45.64007928285246" lon="11.310996591231405"><ele>304.42857142857144</ele><time>2026-04-18T09:34:09.985Z</time></trkpt><trkpt lat="45.6400388369962" lon="11.310904155950725"><ele>301.2857142857143</ele><time>2026-04-18T09:34:15.985Z</time></trkpt><trkpt lat="45.64000341165546" lon="11.310799078077938"><ele>298.14285714285717</ele><time>2026-04-18T09:34:21.985Z</time></trkpt><trkpt lat="45.63999403556553" lon="11.31069698976142"><ele>295.0</ele><time>2026-04-18T09:34:24.985Z</time></trkpt><trkpt lat="45.63995397308214" lon="11.31061572884561"><ele>291.0</ele><time>2026-04-18T09:34:27.985Z</time></trkpt><trkpt lat="45.6399287182973" lon="11.310507135150186"><ele>287.0</ele><time>2026-04-18T09:34:31.985Z</time></trkpt><trkpt lat="45.63988927863998" lon="11.31043664080909"><ele>283.0</ele><time>2026-04-18T09:34:34.985Z</time></trkpt><trkpt lat="45.6398706636409" lon="11.310318514965704"><ele>279.0</ele><time>2026-04-18T09:34:37.984Z</time></trkpt><trkpt lat="45.639869550429516" lon="11.310196931686571"><ele>275.0</ele><time>2026-04-18T09:34:40.984Z</time></trkpt><trkpt lat="45.63988304682073" lon="11.310069487634138"><ele>271.0</ele><time>2026-04-18T09:34:43.984Z</time></trkpt><trkpt lat="45.639914814888336" lon="11.30995666457583"><ele>271.0</ele><time>2026-04-18T09:34:46.984Z</time></trkpt><trkpt lat="45.639958598157264" lon="11.309857104761331"><ele>271.0</ele><time>2026-04-18T09:34:49.984Z</time></trkpt><trkpt lat="45.64000939920928" lon="11.309762264617877"><ele>271.0</ele><time>2026-04-18T09:34:52.984Z</time></trkpt><trkpt lat="45.64006224193693" lon="11.309683009501507"><ele>271.0</ele><time>2026-04-18T09:34:55.984Z</time></trkpt><trkpt lat="45.64011156229614" lon="11.309602042210491"><ele>271.0</ele><time>2026-04-18T09:34:58.984Z</time></trkpt><trkpt lat="45.64016994951021" lon="11.309539537098035"><ele>271.0</ele><time>2026-04-18T09:35:01.984Z</time></trkpt><trkpt lat="45.64022390491193" lon="11.309474911380429"><ele>267.85714285714283</ele><time>2026-04-18T09:35:05.984Z</time></trkpt><trkpt lat="45.64027295117583" lon="11.309405580189678"><ele>264.7142857142857</ele><time>2026-04-18T09:35:09.984Z</time></trkpt><trkpt lat="45.64030839210774" lon="11.309322951741425"><ele>261.57142857142856</ele><time>2026-04-18T09:35:13.983Z</time></trkpt><trkpt lat="45.640374061393544" lon="11.309286687420963"><ele>258.42857142857144</ele><time>2026-04-18T09:35:17.983Z</time></trkpt><trkpt lat="45.640431357703335" lon="11.30923706662027"><ele>255.28571428571428</ele><time>2026-04-18T09:35:22.983Z</time></trkpt><trkpt lat="45.64041039711591" lon="11.30914298595706"><ele>252.14285714285714</ele><time>2026-04-18T09:35:33.983Z</time></trkpt><trkpt lat="45.640356640736" lon="11.309095901085954"><ele>249.0</ele><time>2026-04-18T09:35:40.983Z</time></trkpt><trkpt lat="45.64027870112894" lon="11.30912813439878"><ele>249.0</ele><time>2026-04-18T09:35:45.983Z</time></trkpt><trkpt lat="45.64029367307296" lon="11.309035353958937"><ele>249.0</ele><time>2026-04-18T09:35:59.982Z</time></trkpt><trkpt lat="45.64033070401818" lon="11.308961717746008"><ele>249.0</ele><time>2026-04-18T09:36:03.982Z</time></trkpt><trkpt lat="45.6404075126186" lon="11.308884602441266"><ele>249.0</ele><time>2026-04-18T09:36:06.982Z</time></trkpt><trkpt lat="45.640482313433694" lon="11.308886768878047"><ele>249.0</ele><time>2026-04-18T09:36:08.982Z</time></trkpt><trkpt lat="45.64055762264868" lon="11.308875394300967"><ele>249.0</ele><time>2026-04-18T09:36:11.982Z</time></trkpt><trkpt lat="45.64063660240678" lon="11.308869589683287"><ele>249.0</ele><time>2026-04-18T09:36:14.985Z</time></trkpt><trkpt lat="45.640715083364476" lon="11.308883229787835"><ele>249.0</ele><time>2026-04-18T09:36:17.985Z</time></trkpt><trkpt lat="45.640796717577736" lon="11.308901772135272"><ele>249.0</ele><time>2026-04-18T09:36:20.985Z</time></trkpt><trkpt lat="45.640873837178844" lon="11.308919620244131"><ele>249.0</ele><time>2026-04-18T09:36:23.985Z</time></trkpt><trkpt lat="45.64094919721783" lon="11.308928822098022"><ele>249.0</ele><time>2026-04-18T09:36:26.985Z</time></trkpt><trkpt lat="45.64102650194569" lon="11.308935001177156"><ele>249.0</ele><time>2026-04-18T09:36:29.985Z</time></trkpt><trkpt lat="45.64109595820902" lon="11.308938542356106"><ele>250.25</ele><time>2026-04-18T09:36:32.985Z</time></trkpt><trkpt lat="45.64117330048462" lon="11.308922282773766"><ele>251.5</ele><time>2026-04-18T09:36:35.985Z</time></trkpt><trkpt lat="45.641292722273604" lon="11.308914945185416"><ele>252.75</ele><time>2026-04-18T09:36:40.984Z</time></trkpt><trkpt lat="45.64136466217793" lon="11.308901150488525"><ele>254.0</ele><time>2026-04-18T09:36:43.984Z</time></trkpt><trkpt lat="45.641570622188" lon="11.308896572717485"><ele>250.0</ele><time>2026-04-18T09:36:51.984Z</time></trkpt><trkpt lat="45.64176788628513" lon="11.308888293972261"><ele>246.0</ele><time>2026-04-18T09:36:58.984Z</time></trkpt><trkpt lat="45.641949759864154" lon="11.308877507208608"><ele>242.0</ele><time>2026-04-18T09:37:05.984Z</time></trkpt><trkpt lat="45.64202321531914" lon="11.30881994494929"><ele>242.00000000000003</ele><time>2026-04-18T09:37:08.984Z</time></trkpt><trkpt lat="45.642107910142194" lon="11.308801915794447"><ele>242.0</ele><time>2026-04-18T09:37:11.984Z</time></trkpt><trkpt lat="45.64218592351775" lon="11.30874514567857"><ele>242.0</ele><time>2026-04-18T09:37:14.984Z</time></trkpt><trkpt lat="45.642258017716216" lon="11.308701894491229"><ele>242.0</ele><time>2026-04-18T09:37:17.983Z</time></trkpt><trkpt lat="45.6423477234448" lon="11.30868120721998"><ele>242.00000000000003</ele><time>2026-04-18T09:37:20.983Z</time></trkpt><trkpt lat="45.64243130722463" lon="11.308648092929017"><ele>242.0</ele><time>2026-04-18T09:37:23.983Z</time></trkpt><trkpt lat="45.64250044051231" lon="11.308613135303494"><ele>242.00000000000003</ele><time>2026-04-18T09:37:26.983Z</time></trkpt><trkpt lat="45.642581252050796" lon="11.308581946573478"><ele>242.0</ele><time>2026-04-18T09:37:29.983Z</time></trkpt><trkpt lat="45.64265871788259" lon="11.308539367118698"><ele>242.0</ele><time>2026-04-18T09:37:32.983Z</time></trkpt><trkpt lat="45.64273239666584" lon="11.308473642109554"><ele>242.0</ele><time>2026-04-18T09:37:35.983Z</time></trkpt><trkpt lat="45.64282849296148" lon="11.308429141169446"><ele>242.00000000000003</ele><time>2026-04-18T09:37:38.983Z</time></trkpt><trkpt lat="45.642902960847174" lon="11.308382985035946"><ele>242.0</ele><time>2026-04-18T09:37:41.983Z</time></trkpt><trkpt lat="45.64298068414328" lon="11.308326746732504"><ele>242.50000000000003</ele><time>2026-04-18T09:37:44.983Z</time></trkpt><trkpt lat="45.64304268175868" lon="11.30830076171207"><ele>243.0</ele><time>2026-04-18T09:37:46.983Z</time></trkpt><trkpt lat="45.64310860221799" lon="11.3082838674233"><ele>243.5</ele><time>2026-04-18T09:37:48.983Z</time></trkpt><trkpt lat="45.64318238783206" lon="11.30824011282961"><ele>244.0</ele><time>2026-04-18T09:37:51.983Z</time></trkpt><trkpt lat="45.64325746091982" lon="11.308199401679568"><ele>244.50000000000003</ele><time>2026-04-18T09:37:54.982Z</time></trkpt><trkpt lat="45.64333974773455" lon="11.308148416808093"><ele>245.0</ele><time>2026-04-18T09:37:57.982Z</time></trkpt><trkpt lat="45.643432129927476" lon="11.308115087886613"><ele>244.66666666666669</ele><time>2026-04-18T09:38:00.982Z</time></trkpt><trkpt lat="45.64351224236537" lon="11.308070244964242"><ele>244.33333333333334</ele><time>2026-04-18T09:38:03.982Z</time></trkpt><trkpt lat="45.643589747035946" lon="11.308027219945608"><ele>244.0</ele><time>2026-04-18T09:38:06.982Z</time></trkpt><trkpt lat="45.64366728334213" lon="11.3080013828394"><ele>243.66666666666669</ele><time>2026-04-18T09:38:09.982Z</time></trkpt><trkpt lat="45.64375809302932" lon="11.307972921906323"><ele>243.33333333333334</ele><time>2026-04-18T09:38:12.982Z</time></trkpt><trkpt lat="45.643845477155935" lon="11.307950578246304"><ele>243.0</ele><time>2026-04-18T09:38:15.982Z</time></trkpt><trkpt lat="45.64392281362853" lon="11.307908678165841"><ele>243.83333333333334</ele><time>2026-04-18T09:38:18.982Z</time></trkpt><trkpt lat="45.64400359383867" lon="11.3078730353138"><ele>244.66666666666669</ele><time>2026-04-18T09:38:21.985Z</time></trkpt><trkpt lat="45.64407268739283" lon="11.307818961134073"><ele>245.5</ele><time>2026-04-18T09:38:24.985Z</time></trkpt><trkpt lat="45.64415180962505" lon="11.307779336906203"><ele>246.33333333333334</ele><time>2026-04-18T09:38:27.984Z</time></trkpt><trkpt lat="45.6442201182604" lon="11.307731393903651"><ele>247.16666666666669</ele><time>2026-04-18T09:38:30.984Z</time></trkpt><trkpt lat="45.64429100547766" lon="11.307686121545506"><ele>248.0</ele><time>2026-04-18T09:38:33.985Z</time></trkpt><trkpt lat="45.64436413523398" lon="11.30763489716748"><ele>248.00000000000003</ele><time>2026-04-18T09:38:36.985Z</time></trkpt><trkpt lat="45.6444466807694" lon="11.307598413720992"><ele>248.0</ele><time>2026-04-18T09:38:39.985Z</time></trkpt><trkpt lat="45.6445304653009" lon="11.30755105439315"><ele>248.0</ele><time>2026-04-18T09:38:42.984Z</time></trkpt><trkpt lat="45.64461064921409" lon="11.307505658028214"><ele>248.0</ele><time>2026-04-18T09:38:45.984Z</time></trkpt><trkpt lat="45.64468400807485" lon="11.3074609467027"><ele>248.00000000000003</ele><time>2026-04-18T09:38:48.984Z</time></trkpt><trkpt lat="45.64471690736007" lon="11.30737284221219"><ele>248.0</ele><time>2026-04-18T09:38:51.984Z</time></trkpt><trkpt lat="45.64471949891149" lon="11.307262261918453"><ele>248.2857142857143</ele><time>2026-04-18T09:38:55.984Z</time></trkpt><trkpt lat="45.64471715513973" lon="11.307171305900994"><ele>248.5714285714286</ele><time>2026-04-18T09:38:58.984Z</time></trkpt><trkpt lat="45.6447059474967" lon="11.30706530011252"><ele>248.85714285714286</ele><time>2026-04-18T09:39:01.984Z</time></trkpt><trkpt lat="45.64467394079152" lon="11.306970766553928"><ele>249.14285714285717</ele><time>2026-04-18T09:39:04.984Z</time></trkpt><trkpt lat="45.64460908201786" lon="11.306915197312572"><ele>249.42857142857144</ele><time>2026-04-18T09:39:08.984Z</time></trkpt><trkpt lat="45.644583736221904" lon="11.306814953587676"><ele>249.71428571428572</ele><time>2026-04-18T09:39:11.984Z</time></trkpt><trkpt lat="45.644528042697324" lon="11.306718808587615"><ele>250.0</ele><time>2026-04-18T09:39:14.984Z</time></trkpt><trkpt lat="45.644488329605565" lon="11.306624136998076"><ele>249.49999999999997</ele><time>2026-04-18T09:39:17.984Z</time></trkpt><trkpt lat="45.64443660103613" lon="11.306560073400624"><ele>249.0</ele><time>2026-04-18T09:39:20.983Z</time></trkpt><trkpt lat="45.64437355953118" lon="11.306525227736252"><ele>248.5</ele><time>2026-04-18T09:39:23.983Z</time></trkpt><trkpt lat="45.644303564202986" lon="11.306522139376018"><ele>248.0</ele><time>2026-04-18T09:39:26.983Z</time></trkpt><trkpt lat="45.644231208797464" lon="11.306550262157671"><ele>247.49999999999997</ele><time>2026-04-18T09:39:29.983Z</time></trkpt><trkpt lat="45.6441596914121" lon="11.306592234686429"><ele>247.0</ele><time>2026-04-18T09:39:32.983Z</time></trkpt><trkpt lat="45.64406793389736" lon="11.306628700356463"><ele>246.99999999999997</ele><time>2026-04-18T09:39:35.983Z</time></trkpt><trkpt lat="45.64398528481683" lon="11.306671988590555"><ele>247.0</ele><time>2026-04-18T09:39:38.983Z</time></trkpt><trkpt lat="45.64392459232996" lon="11.306723309825259"><ele>247.0</ele><time>2026-04-18T09:39:41.983Z</time></trkpt><trkpt lat="45.64386389665077" lon="11.306761404121005"><ele>247.0</ele><time>2026-04-18T09:39:44.983Z</time></trkpt><trkpt lat="45.64379899392549" lon="11.306802290287358"><ele>246.99999999999997</ele><time>2026-04-18T09:39:49.982Z</time></trkpt><trkpt lat="45.64370943104482" lon="11.306851211502744"><ele>247.0</ele><time>2026-04-18T09:40:10.979Z</time></trkpt><trkpt lat="45.64369240203807" lon="11.306958704088554"><ele>246.99999999999997</ele><time>2026-04-18T09:41:24.978Z</time></trkpt><trkpt lat="45.64362469354746" lon="11.30691079705882"><ele>247.0</ele><time>2026-04-18T09:41:44.978Z</time></trkpt><trkpt lat="45.643620271699895" lon="11.30681701526183"><ele>247.0</ele><time>2026-04-18T09:41:54.977Z</time></trkpt><trkpt lat="45.643705287959534" lon="11.306660748563603"><ele>247.0</ele><time>2026-04-18T09:43:33.978Z</time></trkpt><trkpt lat="45.64366324669158" lon="11.306769533711687"><ele>246.99999999999997</ele><time>2026-04-18T09:44:00.977Z</time></trkpt><trkpt lat="45.643682109448505" lon="11.306856180248477"><ele>247.0</ele><time>2026-04-18T09:44:09.977Z</time></trkpt><trkpt lat="45.643737870969964" lon="11.306919922515805"><ele>246.99999999999997</ele><time>2026-04-18T09:44:18.977Z</time></trkpt><trkpt lat="45.64378579765286" lon="11.307034993520261"><ele>247.0</ele><time>2026-04-18T09:44:41.979Z</time></trkpt><trkpt lat="45.64388307703703" lon="11.307050211644372"><ele>247.0</ele><time>2026-04-18T09:47:21.978Z</time></trkpt><trkpt lat="45.643928092912766" lon="11.306985718901927"><ele>247.0</ele><time>2026-04-18T09:47:30.978Z</time></trkpt><trkpt lat="45.643929562165134" lon="11.306892588178705"><ele>246.99999999999997</ele><time>2026-04-18T09:47:36.978Z</time></trkpt><trkpt lat="45.64393009863576" lon="11.306796589424359"><ele>247.0</ele><time>2026-04-18T09:47:44.977Z</time></trkpt><trkpt lat="45.643973881835876" lon="11.306714118785674"><ele>247.0</ele><time>2026-04-18T09:47:52.977Z</time></trkpt><trkpt lat="45.64403675721275" lon="11.306670695463017"><ele>247.0</ele><time>2026-04-18T09:51:24.978Z</time></trkpt><trkpt lat="45.64407979988972" lon="11.306598969409473"><ele>247.0</ele><time>2026-04-18T09:51:31.978Z</time></trkpt><trkpt lat="45.644145642275824" lon="11.306680542485577"><ele>247.0</ele><time>2026-04-18T09:51:50.977Z</time></trkpt><trkpt lat="45.64416645469946" lon="11.306777475003493"><ele>247.0</ele><time>2026-04-18T09:51:59.977Z</time></trkpt><trkpt lat="45.64422098632445" lon="11.306833517795253"><ele>247.0</ele><time>2026-04-18T09:52:04.977Z</time></trkpt><trkpt lat="45.644287291244915" lon="11.30684269612595"><ele>247.0</ele><time>2026-04-18T09:52:13.976Z</time></trkpt><trkpt lat="45.64435130547577" lon="11.306817574985272"><ele>247.0</ele><time>2026-04-18T09:52:19.976Z</time></trkpt><trkpt lat="45.64441966930747" lon="11.30678679782239"><ele>247.0</ele><time>2026-04-18T09:52:27.976Z</time></trkpt><trkpt lat="45.6444825907798" lon="11.306758239380116"><ele>247.0</ele><time>2026-04-18T09:52:33.976Z</time></trkpt><trkpt lat="45.644550084715064" lon="11.306740058222864"><ele>247.0</ele><time>2026-04-18T09:52:38.976Z</time></trkpt><trkpt lat="45.644615611706335" lon="11.306749981197573"><ele>247.0</ele><time>2026-04-18T09:52:44.975Z</time></trkpt><trkpt lat="45.64468664443677" lon="11.306733748616226"><ele>247.0</ele><time>2026-04-18T09:52:52.975Z</time></trkpt><trkpt lat="45.64474740708253" lon="11.306787526829583"><ele>247.0</ele><time>2026-04-18T09:52:58.975Z</time></trkpt><trkpt lat="45.644782706073364" lon="11.306863473821593"><ele>247.42857142857144</ele><time>2026-04-18T09:53:04.977Z</time></trkpt><trkpt lat="45.644795778882845" lon="11.306962350306577"><ele>247.85714285714283</ele><time>2026-04-18T09:53:12.978Z</time></trkpt><trkpt lat="45.64481674495275" lon="11.307054329954862"><ele>248.28571428571428</ele><time>2026-04-18T09:53:19.976Z</time></trkpt><trkpt lat="45.64481476047677" lon="11.307165037686897"><ele>248.71428571428572</ele><time>2026-04-18T09:53:26.976Z</time></trkpt><trkpt lat="45.644824379792205" lon="11.307269439559128"><ele>249.14285714285717</ele><time>2026-04-18T09:53:33.976Z</time></trkpt><trkpt lat="45.644783410131346" lon="11.30735600123022"><ele>249.57142857142856</ele><time>2026-04-18T09:53:40.976Z</time></trkpt><trkpt lat="45.64473802803808" lon="11.307431566928527"><ele>250.0</ele><time>2026-04-18T09:53:49.975Z</time></trkpt><trkpt lat="45.644698128064476" lon="11.307509810735363"><ele>250.14285714285714</ele><time>2026-04-18T09:53:55.975Z</time></trkpt><trkpt lat="45.644644264330516" lon="11.30757592842484"><ele>250.28571428571428</ele><time>2026-04-18T09:54:02.975Z</time></trkpt><trkpt lat="45.64457592503824" lon="11.307623578244646"><ele>250.42857142857142</ele><time>2026-04-18T09:54:07.975Z</time></trkpt><trkpt lat="45.64451409747254" lon="11.307669265768874"><ele>250.57142857142856</ele><time>2026-04-18T09:54:15.975Z</time></trkpt><trkpt lat="45.64445666992099" lon="11.307713824546264"><ele>250.71428571428572</ele><time>2026-04-18T09:54:20.975Z</time></trkpt><trkpt lat="45.644394233991285" lon="11.307752847611145"><ele>250.85714285714283</ele><time>2026-04-18T09:54:26.974Z</time></trkpt><trkpt lat="45.644340411752054" lon="11.307803106087174"><ele>250.99999999999997</ele><time>2026-04-18T09:54:32.974Z</time></trkpt><trkpt lat="45.64427685589081" lon="11.307844269784274"><ele>251.1428571428571</ele><time>2026-04-18T09:54:38.974Z</time></trkpt><trkpt lat="45.644217690476864" lon="11.30788285161146"><ele>251.28571428571428</ele><time>2026-04-18T09:54:43.974Z</time></trkpt><trkpt lat="45.64415990997278" lon="11.307920059093062"><ele>251.42857142857142</ele><time>2026-04-18T09:54:49.974Z</time></trkpt><trkpt lat="45.64409663822238" lon="11.307960110911834"><ele>251.57142857142856</ele><time>2026-04-18T09:54:55.974Z</time></trkpt><trkpt lat="45.64402882898175" lon="11.308005441639018"><ele>251.71428571428572</ele><time>2026-04-18T09:55:01.973Z</time></trkpt><trkpt lat="45.64396027572808" lon="11.308043082999124"><ele>251.85714285714286</ele><time>2026-04-18T09:55:06.977Z</time></trkpt><trkpt lat="45.64389498551085" lon="11.308079366454567"><ele>252.0</ele><time>2026-04-18T09:55:13.976Z</time></trkpt><trkpt lat="45.643820134654284" lon="11.308099289658427"><ele>252.0</ele><time>2026-04-18T09:55:22.976Z</time></trkpt><trkpt lat="45.643754789611556" lon="11.30812550114605"><ele>252.0</ele><time>2026-04-18T09:55:27.976Z</time></trkpt><trkpt lat="45.64369588376803" lon="11.308177434846208"><ele>252.0</ele><time>2026-04-18T09:55:32.976Z</time></trkpt><trkpt lat="45.64363715844094" lon="11.308237882076044"><ele>252.0</ele><time>2026-04-18T09:55:37.976Z</time></trkpt><trkpt lat="45.643569489467374" lon="11.30826817325098"><ele>252.0</ele><time>2026-04-18T09:55:45.976Z</time></trkpt><trkpt lat="45.643506917521634" lon="11.308281600423726"><ele>252.0</ele><time>2026-04-18T09:55:50.975Z</time></trkpt><trkpt lat="45.6434343948749" lon="11.308306423593836"><ele>252.0</ele><time>2026-04-18T09:55:57.975Z</time></trkpt><trkpt lat="45.6433681733514" lon="11.308341965971552"><ele>245.0</ele><time>2026-04-18T09:56:01.975Z</time></trkpt><trkpt lat="45.64330471776336" lon="11.308387907464288"><ele>245.0</ele><time>2026-04-18T09:56:05.975Z</time></trkpt><trkpt lat="45.643248474155556" lon="11.308431097106341"><ele>245.0</ele><time>2026-04-18T09:56:10.975Z</time></trkpt><trkpt lat="45.64319927510111" lon="11.308517300454362"><ele>245.0</ele><time>2026-04-18T09:56:46.974Z</time></trkpt></trkseg></trk></gpx>